<?xml version="1.0" encoding="utf-8"?>
<gpx xmlns:xsi="http://www.w3.org/2001/XMLSchema-instance" xmlns:xsd="http://www.w3.org/2001/XMLSchema" version="1.1" creator="Shapelink.com" xmlns="http://www.topografix.com/GPX/1/1" xmlns:gpxtpx="http://www.garmin.com/xmlschemas/TrackPointExtension/v1">
  <metadata>
    <name>Gåing 2.00 km, 2014-06-24</name>
    <desc></desc>
    <author><name>Mikael Blom</name></author> 
    <time>2014-06-24T11:59:23Z</time>
  </metadata>
  <trk>
    <name>Gåing 2.00 km, 2014-06-24</name>
    <trkseg>
      <trkpt lat="59.9549833" lon="17.6917808">
        <ele>34.7449</ele>
        <time>2014-06-24T11:59:23Z</time>
      </trkpt>
      <trkpt lat="59.9549848" lon="17.6918073">
        <ele>35.2255</ele>
        <time>2014-06-24T11:59:24Z</time>
      </trkpt>
      <trkpt lat="59.9549875" lon="17.6918311">
        <ele>35.2255</ele>
        <time>2014-06-24T11:59:25Z</time>
      </trkpt>
      <trkpt lat="59.9549885" lon="17.6918594">
        <ele>35.2255</ele>
        <time>2014-06-24T11:59:26Z</time>
      </trkpt>
      <trkpt lat="59.9549895" lon="17.691888">
        <ele>35.2255</ele>
        <time>2014-06-24T11:59:27Z</time>
      </trkpt>
      <trkpt lat="59.9549915" lon="17.6919153">
        <ele>35.2255</ele>
        <time>2014-06-24T11:59:28Z</time>
      </trkpt>
      <trkpt lat="59.9549921" lon="17.6919398">
        <ele>35.2255</ele>
        <time>2014-06-24T11:59:29Z</time>
      </trkpt>
      <trkpt lat="59.9549924" lon="17.691962">
        <ele>35.2255</ele>
        <time>2014-06-24T11:59:30Z</time>
      </trkpt>
      <trkpt lat="59.9549926" lon="17.6919868">
        <ele>35.2255</ele>
        <time>2014-06-24T11:59:31Z</time>
      </trkpt>
      <trkpt lat="59.9549948" lon="17.6920108">
        <ele>35.7061</ele>
        <time>2014-06-24T11:59:32Z</time>
      </trkpt>
      <trkpt lat="59.9549973" lon="17.6920349">
        <ele>35.7061</ele>
        <time>2014-06-24T11:59:33Z</time>
      </trkpt>
      <trkpt lat="59.9549953" lon="17.6920631">
        <ele>35.7061</ele>
        <time>2014-06-24T11:59:34Z</time>
      </trkpt>
      <trkpt lat="59.9549953" lon="17.6920907">
        <ele>35.7061</ele>
        <time>2014-06-24T11:59:35Z</time>
      </trkpt>
      <trkpt lat="59.9549935" lon="17.6921232">
        <ele>35.7061</ele>
        <time>2014-06-24T11:59:36Z</time>
      </trkpt>
      <trkpt lat="59.9549961" lon="17.6921527">
        <ele>35.7061</ele>
        <time>2014-06-24T11:59:37Z</time>
      </trkpt>
      <trkpt lat="59.9549972" lon="17.6921818">
        <ele>35.7061</ele>
        <time>2014-06-24T11:59:38Z</time>
      </trkpt>
      <trkpt lat="59.954996" lon="17.6922124">
        <ele>35.7061</ele>
        <time>2014-06-24T11:59:39Z</time>
      </trkpt>
      <trkpt lat="59.9549978" lon="17.6922419">
        <ele>35.7061</ele>
        <time>2014-06-24T11:59:40Z</time>
      </trkpt>
      <trkpt lat="59.9550005" lon="17.6922724">
        <ele>36.1868</ele>
        <time>2014-06-24T11:59:41Z</time>
      </trkpt>
      <trkpt lat="59.9550074" lon="17.6923001">
        <ele>36.6675</ele>
        <time>2014-06-24T11:59:42Z</time>
      </trkpt>
      <trkpt lat="59.9550162" lon="17.6923257">
        <ele>36.6675</ele>
        <time>2014-06-24T11:59:43Z</time>
      </trkpt>
      <trkpt lat="59.9550219" lon="17.6923535">
        <ele>37.1481</ele>
        <time>2014-06-24T11:59:44Z</time>
      </trkpt>
      <trkpt lat="59.9550247" lon="17.6923848">
        <ele>37.6287</ele>
        <time>2014-06-24T11:59:45Z</time>
      </trkpt>
      <trkpt lat="59.9550246" lon="17.6924117">
        <ele>37.6287</ele>
        <time>2014-06-24T11:59:46Z</time>
      </trkpt>
      <trkpt lat="59.9550256" lon="17.6924382">
        <ele>37.1481</ele>
        <time>2014-06-24T11:59:47Z</time>
      </trkpt>
      <trkpt lat="59.9550268" lon="17.6924651">
        <ele>37.6287</ele>
        <time>2014-06-24T11:59:48Z</time>
      </trkpt>
      <trkpt lat="59.9550284" lon="17.6924919">
        <ele>37.6287</ele>
        <time>2014-06-24T11:59:49Z</time>
      </trkpt>
      <trkpt lat="59.9550302" lon="17.6925206">
        <ele>37.6287</ele>
        <time>2014-06-24T11:59:50Z</time>
      </trkpt>
      <trkpt lat="59.955031" lon="17.6925511">
        <ele>38.1094</ele>
        <time>2014-06-24T11:59:51Z</time>
      </trkpt>
      <trkpt lat="59.9550318" lon="17.6925802">
        <ele>38.1094</ele>
        <time>2014-06-24T11:59:52Z</time>
      </trkpt>
      <trkpt lat="59.9550326" lon="17.6926104">
        <ele>38.1094</ele>
        <time>2014-06-24T11:59:53Z</time>
      </trkpt>
      <trkpt lat="59.9550366" lon="17.6926449">
        <ele>38.1094</ele>
        <time>2014-06-24T11:59:54Z</time>
      </trkpt>
      <trkpt lat="59.9550395" lon="17.6926805">
        <ele>38.1094</ele>
        <time>2014-06-24T11:59:55Z</time>
      </trkpt>
      <trkpt lat="59.9550399" lon="17.6927106">
        <ele>38.1094</ele>
        <time>2014-06-24T11:59:56Z</time>
      </trkpt>
      <trkpt lat="59.9550417" lon="17.6927396">
        <ele>38.1094</ele>
        <time>2014-06-24T11:59:57Z</time>
      </trkpt>
      <trkpt lat="59.9550421" lon="17.6927697">
        <ele>37.6287</ele>
        <time>2014-06-24T11:59:58Z</time>
      </trkpt>
      <trkpt lat="59.955045" lon="17.6927981">
        <ele>38.1094</ele>
        <time>2014-06-24T11:59:59Z</time>
      </trkpt>
      <trkpt lat="59.9550475" lon="17.692826">
        <ele>38.1094</ele>
        <time>2014-06-24T12:00:00Z</time>
      </trkpt>
      <trkpt lat="59.9550501" lon="17.6928571">
        <ele>38.1094</ele>
        <time>2014-06-24T12:00:01Z</time>
      </trkpt>
      <trkpt lat="59.9550535" lon="17.6928889">
        <ele>38.1094</ele>
        <time>2014-06-24T12:00:02Z</time>
      </trkpt>
      <trkpt lat="59.9550558" lon="17.6929185">
        <ele>38.1094</ele>
        <time>2014-06-24T12:00:03Z</time>
      </trkpt>
      <trkpt lat="59.955057" lon="17.6929463">
        <ele>38.1094</ele>
        <time>2014-06-24T12:00:04Z</time>
      </trkpt>
      <trkpt lat="59.955061" lon="17.6929706">
        <ele>38.5901</ele>
        <time>2014-06-24T12:00:05Z</time>
      </trkpt>
      <trkpt lat="59.9550651" lon="17.6929964">
        <ele>38.5901</ele>
        <time>2014-06-24T12:00:06Z</time>
      </trkpt>
      <trkpt lat="59.9550699" lon="17.6930217">
        <ele>39.0707</ele>
        <time>2014-06-24T12:00:07Z</time>
      </trkpt>
      <trkpt lat="59.9550734" lon="17.6930504">
        <ele>39.5513</ele>
        <time>2014-06-24T12:00:08Z</time>
      </trkpt>
      <trkpt lat="59.9550758" lon="17.6930813">
        <ele>39.5513</ele>
        <time>2014-06-24T12:00:09Z</time>
      </trkpt>
      <trkpt lat="59.955077" lon="17.6931114">
        <ele>39.5513</ele>
        <time>2014-06-24T12:00:10Z</time>
      </trkpt>
      <trkpt lat="59.9550794" lon="17.6931365">
        <ele>39.5513</ele>
        <time>2014-06-24T12:00:11Z</time>
      </trkpt>
      <trkpt lat="59.9550817" lon="17.6931621">
        <ele>39.5513</ele>
        <time>2014-06-24T12:00:12Z</time>
      </trkpt>
      <trkpt lat="59.9550834" lon="17.6931897">
        <ele>39.5513</ele>
        <time>2014-06-24T12:00:13Z</time>
      </trkpt>
      <trkpt lat="59.9550852" lon="17.6932167">
        <ele>39.5513</ele>
        <time>2014-06-24T12:00:14Z</time>
      </trkpt>
      <trkpt lat="59.9550877" lon="17.6932436">
        <ele>39.5513</ele>
        <time>2014-06-24T12:00:15Z</time>
      </trkpt>
      <trkpt lat="59.95509" lon="17.6932716">
        <ele>40.0321</ele>
        <time>2014-06-24T12:00:16Z</time>
      </trkpt>
      <trkpt lat="59.9550914" lon="17.6933098">
        <ele>39.5513</ele>
        <time>2014-06-24T12:00:17Z</time>
      </trkpt>
      <trkpt lat="59.9550926" lon="17.6933488">
        <ele>39.5513</ele>
        <time>2014-06-24T12:00:18Z</time>
      </trkpt>
      <trkpt lat="59.9550941" lon="17.6933786">
        <ele>39.5513</ele>
        <time>2014-06-24T12:00:19Z</time>
      </trkpt>
      <trkpt lat="59.9550958" lon="17.6934068">
        <ele>39.5513</ele>
        <time>2014-06-24T12:00:20Z</time>
      </trkpt>
      <trkpt lat="59.9550968" lon="17.6934358">
        <ele>39.5513</ele>
        <time>2014-06-24T12:00:21Z</time>
      </trkpt>
      <trkpt lat="59.9550978" lon="17.6934642">
        <ele>39.5513</ele>
        <time>2014-06-24T12:00:22Z</time>
      </trkpt>
      <trkpt lat="59.9550988" lon="17.6934926">
        <ele>39.5513</ele>
        <time>2014-06-24T12:00:23Z</time>
      </trkpt>
      <trkpt lat="59.9551009" lon="17.6935219">
        <ele>39.5513</ele>
        <time>2014-06-24T12:00:24Z</time>
      </trkpt>
      <trkpt lat="59.9551023" lon="17.6935498">
        <ele>39.5513</ele>
        <time>2014-06-24T12:00:25Z</time>
      </trkpt>
      <trkpt lat="59.9551027" lon="17.6935783">
        <ele>39.5513</ele>
        <time>2014-06-24T12:00:26Z</time>
      </trkpt>
      <trkpt lat="59.9551031" lon="17.6936079">
        <ele>40.0321</ele>
        <time>2014-06-24T12:00:27Z</time>
      </trkpt>
      <trkpt lat="59.9551033" lon="17.6936343">
        <ele>40.0321</ele>
        <time>2014-06-24T12:00:28Z</time>
      </trkpt>
      <trkpt lat="59.955103" lon="17.6936622">
        <ele>40.0321</ele>
        <time>2014-06-24T12:00:29Z</time>
      </trkpt>
      <trkpt lat="59.9551012" lon="17.6936892">
        <ele>39.5513</ele>
        <time>2014-06-24T12:00:30Z</time>
      </trkpt>
      <trkpt lat="59.9551019" lon="17.6937161">
        <ele>40.0321</ele>
        <time>2014-06-24T12:00:31Z</time>
      </trkpt>
      <trkpt lat="59.9551024" lon="17.6937425">
        <ele>40.0321</ele>
        <time>2014-06-24T12:00:32Z</time>
      </trkpt>
      <trkpt lat="59.9551036" lon="17.6937715">
        <ele>40.0321</ele>
        <time>2014-06-24T12:00:33Z</time>
      </trkpt>
      <trkpt lat="59.9551043" lon="17.6938001">
        <ele>40.0321</ele>
        <time>2014-06-24T12:00:34Z</time>
      </trkpt>
      <trkpt lat="59.9551044" lon="17.6938299">
        <ele>40.0321</ele>
        <time>2014-06-24T12:00:35Z</time>
      </trkpt>
      <trkpt lat="59.9551044" lon="17.6938591">
        <ele>40.0321</ele>
        <time>2014-06-24T12:00:36Z</time>
      </trkpt>
      <trkpt lat="59.9551045" lon="17.6938866">
        <ele>40.0321</ele>
        <time>2014-06-24T12:00:37Z</time>
      </trkpt>
      <trkpt lat="59.9551039" lon="17.6939138">
        <ele>40.0321</ele>
        <time>2014-06-24T12:00:38Z</time>
      </trkpt>
      <trkpt lat="59.9551015" lon="17.6939428">
        <ele>40.0321</ele>
        <time>2014-06-24T12:00:39Z</time>
      </trkpt>
      <trkpt lat="59.9550983" lon="17.693972">
        <ele>40.0321</ele>
        <time>2014-06-24T12:00:40Z</time>
      </trkpt>
      <trkpt lat="59.9550932" lon="17.6939979">
        <ele>40.0321</ele>
        <time>2014-06-24T12:00:41Z</time>
      </trkpt>
      <trkpt lat="59.9550874" lon="17.6940231">
        <ele>39.5513</ele>
        <time>2014-06-24T12:00:42Z</time>
      </trkpt>
      <trkpt lat="59.9550831" lon="17.6940492">
        <ele>39.5513</ele>
        <time>2014-06-24T12:00:43Z</time>
      </trkpt>
      <trkpt lat="59.9550787" lon="17.694077">
        <ele>39.5513</ele>
        <time>2014-06-24T12:00:44Z</time>
      </trkpt>
      <trkpt lat="59.955075" lon="17.6941066">
        <ele>39.0707</ele>
        <time>2014-06-24T12:00:45Z</time>
      </trkpt>
      <trkpt lat="59.9550707" lon="17.6941336">
        <ele>39.0707</ele>
        <time>2014-06-24T12:00:46Z</time>
      </trkpt>
      <trkpt lat="59.9550678" lon="17.6941585">
        <ele>39.0707</ele>
        <time>2014-06-24T12:00:47Z</time>
      </trkpt>
      <trkpt lat="59.9550668" lon="17.6941864">
        <ele>39.0707</ele>
        <time>2014-06-24T12:00:48Z</time>
      </trkpt>
      <trkpt lat="59.9550662" lon="17.6942135">
        <ele>39.0707</ele>
        <time>2014-06-24T12:00:49Z</time>
      </trkpt>
      <trkpt lat="59.9550658" lon="17.6942422">
        <ele>39.5513</ele>
        <time>2014-06-24T12:00:50Z</time>
      </trkpt>
      <trkpt lat="59.9550657" lon="17.694271">
        <ele>39.5513</ele>
        <time>2014-06-24T12:00:51Z</time>
      </trkpt>
      <trkpt lat="59.9550662" lon="17.6942993">
        <ele>39.5513</ele>
        <time>2014-06-24T12:00:52Z</time>
      </trkpt>
      <trkpt lat="59.9550672" lon="17.6943282">
        <ele>39.5513</ele>
        <time>2014-06-24T12:00:53Z</time>
      </trkpt>
      <trkpt lat="59.9550668" lon="17.6943564">
        <ele>40.0321</ele>
        <time>2014-06-24T12:00:54Z</time>
      </trkpt>
      <trkpt lat="59.955066" lon="17.6943853">
        <ele>39.5513</ele>
        <time>2014-06-24T12:00:55Z</time>
      </trkpt>
      <trkpt lat="59.9550651" lon="17.6944133">
        <ele>39.5513</ele>
        <time>2014-06-24T12:00:56Z</time>
      </trkpt>
      <trkpt lat="59.9550631" lon="17.6944403">
        <ele>39.5513</ele>
        <time>2014-06-24T12:00:57Z</time>
      </trkpt>
      <trkpt lat="59.9550605" lon="17.6944687">
        <ele>39.5513</ele>
        <time>2014-06-24T12:00:58Z</time>
      </trkpt>
      <trkpt lat="59.9550594" lon="17.6944941">
        <ele>39.5513</ele>
        <time>2014-06-24T12:00:59Z</time>
      </trkpt>
      <trkpt lat="59.9550584" lon="17.69452">
        <ele>39.5513</ele>
        <time>2014-06-24T12:01:00Z</time>
      </trkpt>
      <trkpt lat="59.955058" lon="17.6945501">
        <ele>39.5513</ele>
        <time>2014-06-24T12:01:01Z</time>
      </trkpt>
      <trkpt lat="59.9550583" lon="17.6945792">
        <ele>39.5513</ele>
        <time>2014-06-24T12:01:02Z</time>
      </trkpt>
      <trkpt lat="59.9550569" lon="17.6946069">
        <ele>39.5513</ele>
        <time>2014-06-24T12:01:03Z</time>
      </trkpt>
      <trkpt lat="59.9550566" lon="17.6946343">
        <ele>40.0321</ele>
        <time>2014-06-24T12:01:04Z</time>
      </trkpt>
      <trkpt lat="59.9550552" lon="17.6946624">
        <ele>39.5513</ele>
        <time>2014-06-24T12:01:05Z</time>
      </trkpt>
      <trkpt lat="59.955052" lon="17.6946906">
        <ele>39.5513</ele>
        <time>2014-06-24T12:01:06Z</time>
      </trkpt>
      <trkpt lat="59.955047" lon="17.6947187">
        <ele>39.0707</ele>
        <time>2014-06-24T12:01:07Z</time>
      </trkpt>
      <trkpt lat="59.955045" lon="17.6947444">
        <ele>39.0707</ele>
        <time>2014-06-24T12:01:08Z</time>
      </trkpt>
      <trkpt lat="59.9550434" lon="17.6947717">
        <ele>39.0707</ele>
        <time>2014-06-24T12:01:09Z</time>
      </trkpt>
      <trkpt lat="59.9550406" lon="17.6948025">
        <ele>39.0707</ele>
        <time>2014-06-24T12:01:10Z</time>
      </trkpt>
      <trkpt lat="59.9550361" lon="17.6948329">
        <ele>39.0707</ele>
        <time>2014-06-24T12:01:11Z</time>
      </trkpt>
      <trkpt lat="59.9550321" lon="17.6948597">
        <ele>39.0707</ele>
        <time>2014-06-24T12:01:12Z</time>
      </trkpt>
      <trkpt lat="59.9550282" lon="17.6948859">
        <ele>39.0707</ele>
        <time>2014-06-24T12:01:13Z</time>
      </trkpt>
      <trkpt lat="59.9550236" lon="17.6949133">
        <ele>39.0707</ele>
        <time>2014-06-24T12:01:14Z</time>
      </trkpt>
      <trkpt lat="59.9550183" lon="17.6949391">
        <ele>39.0707</ele>
        <time>2014-06-24T12:01:15Z</time>
      </trkpt>
      <trkpt lat="59.9550124" lon="17.6949641">
        <ele>39.0707</ele>
        <time>2014-06-24T12:01:16Z</time>
      </trkpt>
      <trkpt lat="59.9550057" lon="17.6949914">
        <ele>39.0707</ele>
        <time>2014-06-24T12:01:17Z</time>
      </trkpt>
      <trkpt lat="59.9549979" lon="17.6950184">
        <ele>39.0707</ele>
        <time>2014-06-24T12:01:18Z</time>
      </trkpt>
      <trkpt lat="59.9549916" lon="17.6950411">
        <ele>38.5901</ele>
        <time>2014-06-24T12:01:19Z</time>
      </trkpt>
      <trkpt lat="59.9549864" lon="17.6950635">
        <ele>39.0707</ele>
        <time>2014-06-24T12:01:20Z</time>
      </trkpt>
      <trkpt lat="59.954979" lon="17.6950876">
        <ele>38.5901</ele>
        <time>2014-06-24T12:01:21Z</time>
      </trkpt>
      <trkpt lat="59.9549714" lon="17.6951104">
        <ele>38.5901</ele>
        <time>2014-06-24T12:01:22Z</time>
      </trkpt>
      <trkpt lat="59.9549646" lon="17.6951339">
        <ele>38.5901</ele>
        <time>2014-06-24T12:01:23Z</time>
      </trkpt>
      <trkpt lat="59.9549574" lon="17.6951561">
        <ele>38.1094</ele>
        <time>2014-06-24T12:01:24Z</time>
      </trkpt>
      <trkpt lat="59.9549504" lon="17.6951767">
        <ele>38.1094</ele>
        <time>2014-06-24T12:01:25Z</time>
      </trkpt>
      <trkpt lat="59.9549429" lon="17.6951991">
        <ele>38.5901</ele>
        <time>2014-06-24T12:01:26Z</time>
      </trkpt>
      <trkpt lat="59.954935" lon="17.6952209">
        <ele>38.5901</ele>
        <time>2014-06-24T12:01:27Z</time>
      </trkpt>
      <trkpt lat="59.9549282" lon="17.6952417">
        <ele>38.5901</ele>
        <time>2014-06-24T12:01:28Z</time>
      </trkpt>
      <trkpt lat="59.9549214" lon="17.6952634">
        <ele>38.5901</ele>
        <time>2014-06-24T12:01:29Z</time>
      </trkpt>
      <trkpt lat="59.9549144" lon="17.6952836">
        <ele>38.5901</ele>
        <time>2014-06-24T12:01:30Z</time>
      </trkpt>
      <trkpt lat="59.9549082" lon="17.6953012">
        <ele>38.5901</ele>
        <time>2014-06-24T12:01:31Z</time>
      </trkpt>
      <trkpt lat="59.9549025" lon="17.6953204">
        <ele>39.0707</ele>
        <time>2014-06-24T12:01:32Z</time>
      </trkpt>
      <trkpt lat="59.9548964" lon="17.6953427">
        <ele>39.0707</ele>
        <time>2014-06-24T12:01:33Z</time>
      </trkpt>
      <trkpt lat="59.9548915" lon="17.6953649">
        <ele>39.0707</ele>
        <time>2014-06-24T12:01:34Z</time>
      </trkpt>
      <trkpt lat="59.9548859" lon="17.6953873">
        <ele>38.5901</ele>
        <time>2014-06-24T12:01:35Z</time>
      </trkpt>
      <trkpt lat="59.9548803" lon="17.6954124">
        <ele>38.5901</ele>
        <time>2014-06-24T12:01:36Z</time>
      </trkpt>
      <trkpt lat="59.9548757" lon="17.6954389">
        <ele>39.0707</ele>
        <time>2014-06-24T12:01:37Z</time>
      </trkpt>
      <trkpt lat="59.9548708" lon="17.6954634">
        <ele>38.5901</ele>
        <time>2014-06-24T12:01:38Z</time>
      </trkpt>
      <trkpt lat="59.9548662" lon="17.6954882">
        <ele>38.5901</ele>
        <time>2014-06-24T12:01:39Z</time>
      </trkpt>
      <trkpt lat="59.9548615" lon="17.6955129">
        <ele>38.5901</ele>
        <time>2014-06-24T12:01:40Z</time>
      </trkpt>
      <trkpt lat="59.9548568" lon="17.6955365">
        <ele>38.5901</ele>
        <time>2014-06-24T12:01:41Z</time>
      </trkpt>
      <trkpt lat="59.9548549" lon="17.6955597">
        <ele>38.5901</ele>
        <time>2014-06-24T12:01:42Z</time>
      </trkpt>
      <trkpt lat="59.9548548" lon="17.6955844">
        <ele>38.5901</ele>
        <time>2014-06-24T12:01:43Z</time>
      </trkpt>
      <trkpt lat="59.9548527" lon="17.6956089">
        <ele>38.5901</ele>
        <time>2014-06-24T12:01:44Z</time>
      </trkpt>
      <trkpt lat="59.9548495" lon="17.6956326">
        <ele>38.1094</ele>
        <time>2014-06-24T12:01:45Z</time>
      </trkpt>
      <trkpt lat="59.9548455" lon="17.6956566">
        <ele>38.1094</ele>
        <time>2014-06-24T12:01:46Z</time>
      </trkpt>
      <trkpt lat="59.9548418" lon="17.6956799">
        <ele>38.1094</ele>
        <time>2014-06-24T12:01:47Z</time>
      </trkpt>
      <trkpt lat="59.9548377" lon="17.695704">
        <ele>38.1094</ele>
        <time>2014-06-24T12:01:48Z</time>
      </trkpt>
      <trkpt lat="59.9548331" lon="17.6957285">
        <ele>38.1094</ele>
        <time>2014-06-24T12:01:49Z</time>
      </trkpt>
      <trkpt lat="59.9548299" lon="17.6957501">
        <ele>38.1094</ele>
        <time>2014-06-24T12:01:50Z</time>
      </trkpt>
      <trkpt lat="59.9548269" lon="17.6957736">
        <ele>38.5901</ele>
        <time>2014-06-24T12:01:51Z</time>
      </trkpt>
      <trkpt lat="59.9548237" lon="17.6957994">
        <ele>38.5901</ele>
        <time>2014-06-24T12:01:52Z</time>
      </trkpt>
      <trkpt lat="59.9548215" lon="17.695825">
        <ele>38.5901</ele>
        <time>2014-06-24T12:01:53Z</time>
      </trkpt>
      <trkpt lat="59.9548174" lon="17.6958518">
        <ele>38.5901</ele>
        <time>2014-06-24T12:01:54Z</time>
      </trkpt>
      <trkpt lat="59.9548124" lon="17.695877">
        <ele>38.5901</ele>
        <time>2014-06-24T12:01:55Z</time>
      </trkpt>
      <trkpt lat="59.9548066" lon="17.6959008">
        <ele>38.5901</ele>
        <time>2014-06-24T12:01:56Z</time>
      </trkpt>
      <trkpt lat="59.9547988" lon="17.6959255">
        <ele>38.5901</ele>
        <time>2014-06-24T12:01:57Z</time>
      </trkpt>
      <trkpt lat="59.9547912" lon="17.6959504">
        <ele>38.5901</ele>
        <time>2014-06-24T12:01:58Z</time>
      </trkpt>
      <trkpt lat="59.9547845" lon="17.6959741">
        <ele>38.5901</ele>
        <time>2014-06-24T12:01:59Z</time>
      </trkpt>
      <trkpt lat="59.9547792" lon="17.6959954">
        <ele>38.5901</ele>
        <time>2014-06-24T12:02:00Z</time>
      </trkpt>
      <trkpt lat="59.9547746" lon="17.6960189">
        <ele>38.5901</ele>
        <time>2014-06-24T12:02:01Z</time>
      </trkpt>
      <trkpt lat="59.9547688" lon="17.696043">
        <ele>39.0707</ele>
        <time>2014-06-24T12:02:02Z</time>
      </trkpt>
      <trkpt lat="59.9547632" lon="17.6960667">
        <ele>38.5901</ele>
        <time>2014-06-24T12:02:03Z</time>
      </trkpt>
      <trkpt lat="59.9547577" lon="17.696093">
        <ele>38.5901</ele>
        <time>2014-06-24T12:02:04Z</time>
      </trkpt>
      <trkpt lat="59.9547516" lon="17.6961184">
        <ele>38.5901</ele>
        <time>2014-06-24T12:02:05Z</time>
      </trkpt>
      <trkpt lat="59.9547453" lon="17.6961422">
        <ele>38.5901</ele>
        <time>2014-06-24T12:02:06Z</time>
      </trkpt>
      <trkpt lat="59.9547388" lon="17.6961659">
        <ele>38.5901</ele>
        <time>2014-06-24T12:02:07Z</time>
      </trkpt>
      <trkpt lat="59.9547326" lon="17.6961892">
        <ele>38.1094</ele>
        <time>2014-06-24T12:02:08Z</time>
      </trkpt>
      <trkpt lat="59.9547253" lon="17.6962124">
        <ele>38.1094</ele>
        <time>2014-06-24T12:02:09Z</time>
      </trkpt>
      <trkpt lat="59.9547186" lon="17.6962326">
        <ele>38.1094</ele>
        <time>2014-06-24T12:02:10Z</time>
      </trkpt>
      <trkpt lat="59.9547112" lon="17.6962544">
        <ele>38.5901</ele>
        <time>2014-06-24T12:02:11Z</time>
      </trkpt>
      <trkpt lat="59.9547028" lon="17.6962797">
        <ele>38.5901</ele>
        <time>2014-06-24T12:02:12Z</time>
      </trkpt>
      <trkpt lat="59.9546951" lon="17.696306">
        <ele>38.5901</ele>
        <time>2014-06-24T12:02:13Z</time>
      </trkpt>
      <trkpt lat="59.9546894" lon="17.6963301">
        <ele>38.5901</ele>
        <time>2014-06-24T12:02:14Z</time>
      </trkpt>
      <trkpt lat="59.9546854" lon="17.6963505">
        <ele>39.0707</ele>
        <time>2014-06-24T12:02:15Z</time>
      </trkpt>
      <trkpt lat="59.9546762" lon="17.6963776">
        <ele>38.5901</ele>
        <time>2014-06-24T12:02:16Z</time>
      </trkpt>
      <trkpt lat="59.9546658" lon="17.6964069">
        <ele>38.5901</ele>
        <time>2014-06-24T12:02:17Z</time>
      </trkpt>
      <trkpt lat="59.9546575" lon="17.6964325">
        <ele>38.5901</ele>
        <time>2014-06-24T12:02:18Z</time>
      </trkpt>
      <trkpt lat="59.9546498" lon="17.6964561">
        <ele>38.1094</ele>
        <time>2014-06-24T12:02:19Z</time>
      </trkpt>
      <trkpt lat="59.9546412" lon="17.6964808">
        <ele>38.1094</ele>
        <time>2014-06-24T12:02:20Z</time>
      </trkpt>
      <trkpt lat="59.954633" lon="17.6965052">
        <ele>38.1094</ele>
        <time>2014-06-24T12:02:21Z</time>
      </trkpt>
      <trkpt lat="59.9546252" lon="17.6965292">
        <ele>38.1094</ele>
        <time>2014-06-24T12:02:22Z</time>
      </trkpt>
      <trkpt lat="59.954618" lon="17.6965547">
        <ele>38.1094</ele>
        <time>2014-06-24T12:02:23Z</time>
      </trkpt>
      <trkpt lat="59.9546113" lon="17.6965792">
        <ele>38.1094</ele>
        <time>2014-06-24T12:02:24Z</time>
      </trkpt>
      <trkpt lat="59.9546037" lon="17.6966045">
        <ele>38.1094</ele>
        <time>2014-06-24T12:02:25Z</time>
      </trkpt>
      <trkpt lat="59.9545958" lon="17.6966295">
        <ele>38.1094</ele>
        <time>2014-06-24T12:02:26Z</time>
      </trkpt>
      <trkpt lat="59.9545875" lon="17.6966562">
        <ele>38.1094</ele>
        <time>2014-06-24T12:02:27Z</time>
      </trkpt>
      <trkpt lat="59.9545799" lon="17.6966764">
        <ele>38.1094</ele>
        <time>2014-06-24T12:02:28Z</time>
      </trkpt>
      <trkpt lat="59.9545726" lon="17.6966941">
        <ele>38.1094</ele>
        <time>2014-06-24T12:02:29Z</time>
      </trkpt>
      <trkpt lat="59.9545672" lon="17.6967143">
        <ele>38.1094</ele>
        <time>2014-06-24T12:02:30Z</time>
      </trkpt>
      <trkpt lat="59.9545591" lon="17.6967366">
        <ele>38.1094</ele>
        <time>2014-06-24T12:02:31Z</time>
      </trkpt>
      <trkpt lat="59.9545512" lon="17.6967582">
        <ele>38.1094</ele>
        <time>2014-06-24T12:02:32Z</time>
      </trkpt>
      <trkpt lat="59.9545438" lon="17.696781">
        <ele>38.1094</ele>
        <time>2014-06-24T12:02:33Z</time>
      </trkpt>
      <trkpt lat="59.9545382" lon="17.6968034">
        <ele>37.6287</ele>
        <time>2014-06-24T12:02:34Z</time>
      </trkpt>
      <trkpt lat="59.954532" lon="17.6968255">
        <ele>37.6287</ele>
        <time>2014-06-24T12:02:35Z</time>
      </trkpt>
      <trkpt lat="59.9545239" lon="17.6968488">
        <ele>37.6287</ele>
        <time>2014-06-24T12:02:36Z</time>
      </trkpt>
      <trkpt lat="59.9545171" lon="17.6968717">
        <ele>37.6287</ele>
        <time>2014-06-24T12:02:37Z</time>
      </trkpt>
      <trkpt lat="59.9545108" lon="17.6968956">
        <ele>37.6287</ele>
        <time>2014-06-24T12:02:38Z</time>
      </trkpt>
      <trkpt lat="59.954504" lon="17.6969194">
        <ele>37.6287</ele>
        <time>2014-06-24T12:02:39Z</time>
      </trkpt>
      <trkpt lat="59.9544962" lon="17.6969463">
        <ele>37.6287</ele>
        <time>2014-06-24T12:02:40Z</time>
      </trkpt>
      <trkpt lat="59.9544887" lon="17.6969721">
        <ele>37.6287</ele>
        <time>2014-06-24T12:02:41Z</time>
      </trkpt>
      <trkpt lat="59.9544817" lon="17.6969997">
        <ele>38.1094</ele>
        <time>2014-06-24T12:02:42Z</time>
      </trkpt>
      <trkpt lat="59.9544782" lon="17.6970226">
        <ele>38.1094</ele>
        <time>2014-06-24T12:02:43Z</time>
      </trkpt>
      <trkpt lat="59.9544777" lon="17.6970467">
        <ele>38.1094</ele>
        <time>2014-06-24T12:02:44Z</time>
      </trkpt>
      <trkpt lat="59.954478" lon="17.6970724">
        <ele>38.1094</ele>
        <time>2014-06-24T12:02:45Z</time>
      </trkpt>
      <trkpt lat="59.9544772" lon="17.6970977">
        <ele>38.1094</ele>
        <time>2014-06-24T12:02:46Z</time>
      </trkpt>
      <trkpt lat="59.9544754" lon="17.6971216">
        <ele>38.1094</ele>
        <time>2014-06-24T12:02:47Z</time>
      </trkpt>
      <trkpt lat="59.9544725" lon="17.6971485">
        <ele>38.1094</ele>
        <time>2014-06-24T12:02:48Z</time>
      </trkpt>
      <trkpt lat="59.9544694" lon="17.6971784">
        <ele>38.1094</ele>
        <time>2014-06-24T12:02:49Z</time>
      </trkpt>
      <trkpt lat="59.9544669" lon="17.6972075">
        <ele>38.1094</ele>
        <time>2014-06-24T12:02:50Z</time>
      </trkpt>
      <trkpt lat="59.9544643" lon="17.6972375">
        <ele>38.5901</ele>
        <time>2014-06-24T12:02:51Z</time>
      </trkpt>
      <trkpt lat="59.9544631" lon="17.6972629">
        <ele>38.5901</ele>
        <time>2014-06-24T12:02:52Z</time>
      </trkpt>
      <trkpt lat="59.954463" lon="17.6972871">
        <ele>38.5901</ele>
        <time>2014-06-24T12:02:53Z</time>
      </trkpt>
      <trkpt lat="59.954464" lon="17.697314">
        <ele>38.5901</ele>
        <time>2014-06-24T12:02:54Z</time>
      </trkpt>
      <trkpt lat="59.9544689" lon="17.6973416">
        <ele>38.5901</ele>
        <time>2014-06-24T12:02:55Z</time>
      </trkpt>
      <trkpt lat="59.9544775" lon="17.6973686">
        <ele>38.5901</ele>
        <time>2014-06-24T12:02:56Z</time>
      </trkpt>
      <trkpt lat="59.9544842" lon="17.6973941">
        <ele>38.1094</ele>
        <time>2014-06-24T12:02:57Z</time>
      </trkpt>
      <trkpt lat="59.9544917" lon="17.6974199">
        <ele>38.5901</ele>
        <time>2014-06-24T12:02:58Z</time>
      </trkpt>
      <trkpt lat="59.9544998" lon="17.697443">
        <ele>38.5901</ele>
        <time>2014-06-24T12:02:59Z</time>
      </trkpt>
      <trkpt lat="59.9545065" lon="17.6974648">
        <ele>38.5901</ele>
        <time>2014-06-24T12:03:00Z</time>
      </trkpt>
      <trkpt lat="59.9545134" lon="17.6974873">
        <ele>38.5901</ele>
        <time>2014-06-24T12:03:01Z</time>
      </trkpt>
      <trkpt lat="59.9545215" lon="17.69751">
        <ele>38.5901</ele>
        <time>2014-06-24T12:03:02Z</time>
      </trkpt>
      <trkpt lat="59.9545305" lon="17.6975302">
        <ele>38.5901</ele>
        <time>2014-06-24T12:03:03Z</time>
      </trkpt>
      <trkpt lat="59.9545419" lon="17.6975514">
        <ele>39.0707</ele>
        <time>2014-06-24T12:03:04Z</time>
      </trkpt>
      <trkpt lat="59.9545521" lon="17.6975736">
        <ele>39.0707</ele>
        <time>2014-06-24T12:03:05Z</time>
      </trkpt>
      <trkpt lat="59.9545597" lon="17.697597">
        <ele>39.0707</ele>
        <time>2014-06-24T12:03:06Z</time>
      </trkpt>
      <trkpt lat="59.9545658" lon="17.6976207">
        <ele>38.5901</ele>
        <time>2014-06-24T12:03:07Z</time>
      </trkpt>
      <trkpt lat="59.9545745" lon="17.6976424">
        <ele>38.5901</ele>
        <time>2014-06-24T12:03:08Z</time>
      </trkpt>
      <trkpt lat="59.9545843" lon="17.6976627">
        <ele>38.5901</ele>
        <time>2014-06-24T12:03:09Z</time>
      </trkpt>
      <trkpt lat="59.9545923" lon="17.6976854">
        <ele>38.1094</ele>
        <time>2014-06-24T12:03:10Z</time>
      </trkpt>
      <trkpt lat="59.9545994" lon="17.6977082">
        <ele>38.1094</ele>
        <time>2014-06-24T12:03:11Z</time>
      </trkpt>
      <trkpt lat="59.9546062" lon="17.6977294">
        <ele>38.1094</ele>
        <time>2014-06-24T12:03:12Z</time>
      </trkpt>
      <trkpt lat="59.9546145" lon="17.6977503">
        <ele>38.1094</ele>
        <time>2014-06-24T12:03:13Z</time>
      </trkpt>
      <trkpt lat="59.9546212" lon="17.6977711">
        <ele>37.6287</ele>
        <time>2014-06-24T12:03:14Z</time>
      </trkpt>
      <trkpt lat="59.9546279" lon="17.6977948">
        <ele>37.6287</ele>
        <time>2014-06-24T12:03:15Z</time>
      </trkpt>
      <trkpt lat="59.9546347" lon="17.6978188">
        <ele>37.1481</ele>
        <time>2014-06-24T12:03:16Z</time>
      </trkpt>
      <trkpt lat="59.9546388" lon="17.6978413">
        <ele>36.6675</ele>
        <time>2014-06-24T12:03:17Z</time>
      </trkpt>
      <trkpt lat="59.9546469" lon="17.6978607">
        <ele>36.6675</ele>
        <time>2014-06-24T12:03:18Z</time>
      </trkpt>
      <trkpt lat="59.9546562" lon="17.6978798">
        <ele>36.6675</ele>
        <time>2014-06-24T12:03:19Z</time>
      </trkpt>
      <trkpt lat="59.9546641" lon="17.6979007">
        <ele>36.1868</ele>
        <time>2014-06-24T12:03:20Z</time>
      </trkpt>
      <trkpt lat="59.9546687" lon="17.6979219">
        <ele>35.7061</ele>
        <time>2014-06-24T12:03:21Z</time>
      </trkpt>
      <trkpt lat="59.9546746" lon="17.6979444">
        <ele>35.2255</ele>
        <time>2014-06-24T12:03:22Z</time>
      </trkpt>
      <trkpt lat="59.9546833" lon="17.6979646">
        <ele>35.2255</ele>
        <time>2014-06-24T12:03:23Z</time>
      </trkpt>
      <trkpt lat="59.9546917" lon="17.6979833">
        <ele>34.7449</ele>
        <time>2014-06-24T12:03:24Z</time>
      </trkpt>
      <trkpt lat="59.9546989" lon="17.6980035">
        <ele>34.2642</ele>
        <time>2014-06-24T12:03:25Z</time>
      </trkpt>
      <trkpt lat="59.954707" lon="17.6980248">
        <ele>34.2642</ele>
        <time>2014-06-24T12:03:26Z</time>
      </trkpt>
      <trkpt lat="59.9547166" lon="17.698047">
        <ele>34.2642</ele>
        <time>2014-06-24T12:03:27Z</time>
      </trkpt>
      <trkpt lat="59.9547282" lon="17.6980695">
        <ele>34.7449</ele>
        <time>2014-06-24T12:03:28Z</time>
      </trkpt>
      <trkpt lat="59.9547381" lon="17.6980897">
        <ele>34.7449</ele>
        <time>2014-06-24T12:03:29Z</time>
      </trkpt>
      <trkpt lat="59.9547495" lon="17.6981098">
        <ele>34.7449</ele>
        <time>2014-06-24T12:03:30Z</time>
      </trkpt>
      <trkpt lat="59.9547616" lon="17.6981332">
        <ele>35.2255</ele>
        <time>2014-06-24T12:03:31Z</time>
      </trkpt>
      <trkpt lat="59.9547697" lon="17.6981552">
        <ele>35.2255</ele>
        <time>2014-06-24T12:03:32Z</time>
      </trkpt>
      <trkpt lat="59.9547765" lon="17.6981733">
        <ele>35.2255</ele>
        <time>2014-06-24T12:03:33Z</time>
      </trkpt>
      <trkpt lat="59.9547844" lon="17.6981932">
        <ele>34.7449</ele>
        <time>2014-06-24T12:03:34Z</time>
      </trkpt>
      <trkpt lat="59.954792" lon="17.6982128">
        <ele>34.7449</ele>
        <time>2014-06-24T12:03:35Z</time>
      </trkpt>
      <trkpt lat="59.9548004" lon="17.6982324">
        <ele>34.2642</ele>
        <time>2014-06-24T12:03:36Z</time>
      </trkpt>
      <trkpt lat="59.9548068" lon="17.698255">
        <ele>34.2642</ele>
        <time>2014-06-24T12:03:37Z</time>
      </trkpt>
      <trkpt lat="59.9548163" lon="17.698279">
        <ele>34.2642</ele>
        <time>2014-06-24T12:03:38Z</time>
      </trkpt>
      <trkpt lat="59.9548269" lon="17.6983003">
        <ele>34.2642</ele>
        <time>2014-06-24T12:03:39Z</time>
      </trkpt>
      <trkpt lat="59.9548386" lon="17.6983211">
        <ele>34.7449</ele>
        <time>2014-06-24T12:03:40Z</time>
      </trkpt>
      <trkpt lat="59.9548485" lon="17.6983409">
        <ele>34.2642</ele>
        <time>2014-06-24T12:03:41Z</time>
      </trkpt>
      <trkpt lat="59.9548564" lon="17.6983621">
        <ele>34.2642</ele>
        <time>2014-06-24T12:03:42Z</time>
      </trkpt>
      <trkpt lat="59.9548641" lon="17.698384">
        <ele>34.2642</ele>
        <time>2014-06-24T12:03:43Z</time>
      </trkpt>
      <trkpt lat="59.9548745" lon="17.6984054">
        <ele>34.2642</ele>
        <time>2014-06-24T12:03:44Z</time>
      </trkpt>
      <trkpt lat="59.9548848" lon="17.6984258">
        <ele>33.7834</ele>
        <time>2014-06-24T12:03:45Z</time>
      </trkpt>
      <trkpt lat="59.9548959" lon="17.6984465">
        <ele>34.2642</ele>
        <time>2014-06-24T12:03:46Z</time>
      </trkpt>
      <trkpt lat="59.9549054" lon="17.6984671">
        <ele>34.2642</ele>
        <time>2014-06-24T12:03:47Z</time>
      </trkpt>
      <trkpt lat="59.9549155" lon="17.6984896">
        <ele>34.7449</ele>
        <time>2014-06-24T12:03:48Z</time>
      </trkpt>
      <trkpt lat="59.9549253" lon="17.6985147">
        <ele>34.7449</ele>
        <time>2014-06-24T12:03:49Z</time>
      </trkpt>
      <trkpt lat="59.9549337" lon="17.6985372">
        <ele>35.2255</ele>
        <time>2014-06-24T12:03:50Z</time>
      </trkpt>
      <trkpt lat="59.9549442" lon="17.69856">
        <ele>35.2255</ele>
        <time>2014-06-24T12:03:51Z</time>
      </trkpt>
      <trkpt lat="59.9549551" lon="17.6985821">
        <ele>35.7061</ele>
        <time>2014-06-24T12:03:52Z</time>
      </trkpt>
      <trkpt lat="59.9549666" lon="17.6985997">
        <ele>35.7061</ele>
        <time>2014-06-24T12:03:53Z</time>
      </trkpt>
      <trkpt lat="59.954979" lon="17.6986162">
        <ele>36.1868</ele>
        <time>2014-06-24T12:03:54Z</time>
      </trkpt>
      <trkpt lat="59.95499" lon="17.6986331">
        <ele>36.1868</ele>
        <time>2014-06-24T12:03:55Z</time>
      </trkpt>
      <trkpt lat="59.955" lon="17.6986496">
        <ele>36.1868</ele>
        <time>2014-06-24T12:03:56Z</time>
      </trkpt>
      <trkpt lat="59.9550113" lon="17.6986635">
        <ele>35.7061</ele>
        <time>2014-06-24T12:03:57Z</time>
      </trkpt>
      <trkpt lat="59.9550236" lon="17.6986767">
        <ele>35.7061</ele>
        <time>2014-06-24T12:03:58Z</time>
      </trkpt>
      <trkpt lat="59.955034" lon="17.6986873">
        <ele>35.7061</ele>
        <time>2014-06-24T12:03:59Z</time>
      </trkpt>
      <trkpt lat="59.9550458" lon="17.6986993">
        <ele>35.7061</ele>
        <time>2014-06-24T12:04:00Z</time>
      </trkpt>
      <trkpt lat="59.9550595" lon="17.6987112">
        <ele>35.2255</ele>
        <time>2014-06-24T12:04:01Z</time>
      </trkpt>
      <trkpt lat="59.9550728" lon="17.6987216">
        <ele>35.2255</ele>
        <time>2014-06-24T12:04:02Z</time>
      </trkpt>
      <trkpt lat="59.9550864" lon="17.6987339">
        <ele>34.7449</ele>
        <time>2014-06-24T12:04:03Z</time>
      </trkpt>
      <trkpt lat="59.9551012" lon="17.6987428">
        <ele>34.7449</ele>
        <time>2014-06-24T12:04:04Z</time>
      </trkpt>
      <trkpt lat="59.9551175" lon="17.6987459">
        <ele>35.2255</ele>
        <time>2014-06-24T12:04:05Z</time>
      </trkpt>
      <trkpt lat="59.9551335" lon="17.6987484">
        <ele>35.2255</ele>
        <time>2014-06-24T12:04:06Z</time>
      </trkpt>
      <trkpt lat="59.9551515" lon="17.6987492">
        <ele>35.7061</ele>
        <time>2014-06-24T12:04:07Z</time>
      </trkpt>
      <trkpt lat="59.9551672" lon="17.6987505">
        <ele>35.7061</ele>
        <time>2014-06-24T12:04:08Z</time>
      </trkpt>
      <trkpt lat="59.9551858" lon="17.6987537">
        <ele>36.1868</ele>
        <time>2014-06-24T12:04:09Z</time>
      </trkpt>
      <trkpt lat="59.9552027" lon="17.6987561">
        <ele>36.6675</ele>
        <time>2014-06-24T12:04:10Z</time>
      </trkpt>
      <trkpt lat="59.9552173" lon="17.6987575">
        <ele>36.6675</ele>
        <time>2014-06-24T12:04:11Z</time>
      </trkpt>
      <trkpt lat="59.9552292" lon="17.6987597">
        <ele>36.6675</ele>
        <time>2014-06-24T12:04:12Z</time>
      </trkpt>
      <trkpt lat="59.9552413" lon="17.6987623">
        <ele>37.1481</ele>
        <time>2014-06-24T12:04:13Z</time>
      </trkpt>
      <trkpt lat="59.9552576" lon="17.6987639">
        <ele>37.1481</ele>
        <time>2014-06-24T12:04:14Z</time>
      </trkpt>
      <trkpt lat="59.9552738" lon="17.6987665">
        <ele>37.6287</ele>
        <time>2014-06-24T12:04:15Z</time>
      </trkpt>
      <trkpt lat="59.9552888" lon="17.6987713">
        <ele>37.6287</ele>
        <time>2014-06-24T12:04:16Z</time>
      </trkpt>
      <trkpt lat="59.9553023" lon="17.6987766">
        <ele>37.6287</ele>
        <time>2014-06-24T12:04:17Z</time>
      </trkpt>
      <trkpt lat="59.955319" lon="17.6987857">
        <ele>37.6287</ele>
        <time>2014-06-24T12:04:18Z</time>
      </trkpt>
      <trkpt lat="59.9553339" lon="17.6987952">
        <ele>38.1094</ele>
        <time>2014-06-24T12:04:19Z</time>
      </trkpt>
      <trkpt lat="59.9553479" lon="17.698806">
        <ele>38.1094</ele>
        <time>2014-06-24T12:04:20Z</time>
      </trkpt>
      <trkpt lat="59.9553604" lon="17.6988144">
        <ele>38.1094</ele>
        <time>2014-06-24T12:04:21Z</time>
      </trkpt>
      <trkpt lat="59.9553732" lon="17.6988173">
        <ele>37.6287</ele>
        <time>2014-06-24T12:04:22Z</time>
      </trkpt>
      <trkpt lat="59.9553872" lon="17.6988212">
        <ele>37.6287</ele>
        <time>2014-06-24T12:04:23Z</time>
      </trkpt>
      <trkpt lat="59.9554023" lon="17.6988291">
        <ele>37.6287</ele>
        <time>2014-06-24T12:04:24Z</time>
      </trkpt>
      <trkpt lat="59.9554165" lon="17.6988385">
        <ele>38.1094</ele>
        <time>2014-06-24T12:04:25Z</time>
      </trkpt>
      <trkpt lat="59.9554298" lon="17.698847">
        <ele>38.1094</ele>
        <time>2014-06-24T12:04:26Z</time>
      </trkpt>
      <trkpt lat="59.9554421" lon="17.6988527">
        <ele>38.1094</ele>
        <time>2014-06-24T12:04:27Z</time>
      </trkpt>
      <trkpt lat="59.955455" lon="17.6988619">
        <ele>38.1094</ele>
        <time>2014-06-24T12:04:28Z</time>
      </trkpt>
      <trkpt lat="59.9554702" lon="17.6988703">
        <ele>38.1094</ele>
        <time>2014-06-24T12:04:29Z</time>
      </trkpt>
      <trkpt lat="59.9554903" lon="17.698869">
        <ele>38.1094</ele>
        <time>2014-06-24T12:04:30Z</time>
      </trkpt>
      <trkpt lat="59.9555083" lon="17.6988718">
        <ele>38.5901</ele>
        <time>2014-06-24T12:04:31Z</time>
      </trkpt>
      <trkpt lat="59.9555216" lon="17.6988842">
        <ele>38.5901</ele>
        <time>2014-06-24T12:04:32Z</time>
      </trkpt>
      <trkpt lat="59.9555365" lon="17.6988923">
        <ele>39.0707</ele>
        <time>2014-06-24T12:04:33Z</time>
      </trkpt>
      <trkpt lat="59.9555504" lon="17.6989022">
        <ele>39.5513</ele>
        <time>2014-06-24T12:04:34Z</time>
      </trkpt>
      <trkpt lat="59.9555629" lon="17.698909">
        <ele>39.5513</ele>
        <time>2014-06-24T12:04:35Z</time>
      </trkpt>
      <trkpt lat="59.9555768" lon="17.6989151">
        <ele>40.0321</ele>
        <time>2014-06-24T12:04:36Z</time>
      </trkpt>
      <trkpt lat="59.9555877" lon="17.6989279">
        <ele>40.0321</ele>
        <time>2014-06-24T12:04:37Z</time>
      </trkpt>
      <trkpt lat="59.9555992" lon="17.6989423">
        <ele>40.0321</ele>
        <time>2014-06-24T12:04:38Z</time>
      </trkpt>
      <trkpt lat="59.9556151" lon="17.6989542">
        <ele>40.5128</ele>
        <time>2014-06-24T12:04:39Z</time>
      </trkpt>
      <trkpt lat="59.9556292" lon="17.6989645">
        <ele>40.5128</ele>
        <time>2014-06-24T12:04:40Z</time>
      </trkpt>
      <trkpt lat="59.9556415" lon="17.6989761">
        <ele>40.5128</ele>
        <time>2014-06-24T12:04:41Z</time>
      </trkpt>
      <trkpt lat="59.9556557" lon="17.6989929">
        <ele>40.9934</ele>
        <time>2014-06-24T12:04:42Z</time>
      </trkpt>
      <trkpt lat="59.9556681" lon="17.699013">
        <ele>40.9934</ele>
        <time>2014-06-24T12:04:43Z</time>
      </trkpt>
      <trkpt lat="59.9556816" lon="17.6990322">
        <ele>40.9934</ele>
        <time>2014-06-24T12:04:44Z</time>
      </trkpt>
      <trkpt lat="59.9556933" lon="17.6990557">
        <ele>40.9934</ele>
        <time>2014-06-24T12:04:45Z</time>
      </trkpt>
      <trkpt lat="59.9557011" lon="17.699083">
        <ele>40.9934</ele>
        <time>2014-06-24T12:04:46Z</time>
      </trkpt>
      <trkpt lat="59.9557079" lon="17.6991064">
        <ele>40.5128</ele>
        <time>2014-06-24T12:04:47Z</time>
      </trkpt>
      <trkpt lat="59.9557224" lon="17.699126">
        <ele>40.5128</ele>
        <time>2014-06-24T12:04:48Z</time>
      </trkpt>
      <trkpt lat="59.9557344" lon="17.6991436">
        <ele>40.5128</ele>
        <time>2014-06-24T12:04:49Z</time>
      </trkpt>
      <trkpt lat="59.9557453" lon="17.699166">
        <ele>40.5128</ele>
        <time>2014-06-24T12:04:50Z</time>
      </trkpt>
      <trkpt lat="59.9557563" lon="17.6991868">
        <ele>40.5128</ele>
        <time>2014-06-24T12:04:51Z</time>
      </trkpt>
      <trkpt lat="59.9557665" lon="17.6992053">
        <ele>40.5128</ele>
        <time>2014-06-24T12:04:52Z</time>
      </trkpt>
      <trkpt lat="59.9557805" lon="17.699223">
        <ele>40.9934</ele>
        <time>2014-06-24T12:04:53Z</time>
      </trkpt>
      <trkpt lat="59.955792" lon="17.6992434">
        <ele>40.9934</ele>
        <time>2014-06-24T12:04:54Z</time>
      </trkpt>
      <trkpt lat="59.9558007" lon="17.6992629">
        <ele>40.5128</ele>
        <time>2014-06-24T12:04:55Z</time>
      </trkpt>
      <trkpt lat="59.955816" lon="17.6992826">
        <ele>40.9934</ele>
        <time>2014-06-24T12:04:56Z</time>
      </trkpt>
      <trkpt lat="59.9558276" lon="17.6993009">
        <ele>40.9934</ele>
        <time>2014-06-24T12:04:57Z</time>
      </trkpt>
      <trkpt lat="59.9558354" lon="17.6993246">
        <ele>40.9934</ele>
        <time>2014-06-24T12:04:58Z</time>
      </trkpt>
      <trkpt lat="59.9558436" lon="17.6993423">
        <ele>40.5128</ele>
        <time>2014-06-24T12:04:59Z</time>
      </trkpt>
      <trkpt lat="59.9558535" lon="17.6993606">
        <ele>40.0321</ele>
        <time>2014-06-24T12:05:00Z</time>
      </trkpt>
      <trkpt lat="59.9558629" lon="17.6993825">
        <ele>40.0321</ele>
        <time>2014-06-24T12:05:01Z</time>
      </trkpt>
      <trkpt lat="59.9558721" lon="17.6994026">
        <ele>39.5513</ele>
        <time>2014-06-24T12:05:02Z</time>
      </trkpt>
      <trkpt lat="59.9558829" lon="17.6994173">
        <ele>39.5513</ele>
        <time>2014-06-24T12:05:03Z</time>
      </trkpt>
      <trkpt lat="59.9558925" lon="17.6994327">
        <ele>39.0707</ele>
        <time>2014-06-24T12:05:04Z</time>
      </trkpt>
      <trkpt lat="59.955901" lon="17.6994524">
        <ele>39.0707</ele>
        <time>2014-06-24T12:05:05Z</time>
      </trkpt>
      <trkpt lat="59.9559083" lon="17.699472">
        <ele>38.5901</ele>
        <time>2014-06-24T12:05:06Z</time>
      </trkpt>
      <trkpt lat="59.9559145" lon="17.6994914">
        <ele>38.1094</ele>
        <time>2014-06-24T12:05:07Z</time>
      </trkpt>
      <trkpt lat="59.955921" lon="17.6995088">
        <ele>38.1094</ele>
        <time>2014-06-24T12:05:08Z</time>
      </trkpt>
      <trkpt lat="59.9559297" lon="17.6995288">
        <ele>37.6287</ele>
        <time>2014-06-24T12:05:09Z</time>
      </trkpt>
      <trkpt lat="59.9559416" lon="17.6995503">
        <ele>37.6287</ele>
        <time>2014-06-24T12:05:10Z</time>
      </trkpt>
      <trkpt lat="59.9559519" lon="17.6995723">
        <ele>37.6287</ele>
        <time>2014-06-24T12:05:11Z</time>
      </trkpt>
      <trkpt lat="59.9559597" lon="17.6995935">
        <ele>37.6287</ele>
        <time>2014-06-24T12:05:12Z</time>
      </trkpt>
      <trkpt lat="59.9559665" lon="17.6996146">
        <ele>37.1481</ele>
        <time>2014-06-24T12:05:13Z</time>
      </trkpt>
      <trkpt lat="59.9559758" lon="17.6996338">
        <ele>36.6675</ele>
        <time>2014-06-24T12:05:14Z</time>
      </trkpt>
      <trkpt lat="59.9559885" lon="17.6996552">
        <ele>37.1481</ele>
        <time>2014-06-24T12:05:15Z</time>
      </trkpt>
      <trkpt lat="59.9560006" lon="17.6996774">
        <ele>37.1481</ele>
        <time>2014-06-24T12:05:16Z</time>
      </trkpt>
      <trkpt lat="59.9560103" lon="17.6997001">
        <ele>37.1481</ele>
        <time>2014-06-24T12:05:17Z</time>
      </trkpt>
      <trkpt lat="59.9560205" lon="17.6997243">
        <ele>37.6287</ele>
        <time>2014-06-24T12:05:18Z</time>
      </trkpt>
      <trkpt lat="59.9560348" lon="17.6997442">
        <ele>37.6287</ele>
        <time>2014-06-24T12:05:19Z</time>
      </trkpt>
      <trkpt lat="59.9560538" lon="17.6997588">
        <ele>38.1094</ele>
        <time>2014-06-24T12:05:20Z</time>
      </trkpt>
      <trkpt lat="59.9560665" lon="17.6997767">
        <ele>38.1094</ele>
        <time>2014-06-24T12:05:21Z</time>
      </trkpt>
      <trkpt lat="59.9560793" lon="17.6997947">
        <ele>38.5901</ele>
        <time>2014-06-24T12:05:22Z</time>
      </trkpt>
      <trkpt lat="59.9560913" lon="17.6998125">
        <ele>38.5901</ele>
        <time>2014-06-24T12:05:23Z</time>
      </trkpt>
      <trkpt lat="59.9561022" lon="17.6998302">
        <ele>38.5901</ele>
        <time>2014-06-24T12:05:24Z</time>
      </trkpt>
      <trkpt lat="59.9561177" lon="17.6998483">
        <ele>38.5901</ele>
        <time>2014-06-24T12:05:25Z</time>
      </trkpt>
      <trkpt lat="59.9561359" lon="17.6998648">
        <ele>38.5901</ele>
        <time>2014-06-24T12:05:26Z</time>
      </trkpt>
      <trkpt lat="59.9561488" lon="17.6998857">
        <ele>38.5901</ele>
        <time>2014-06-24T12:05:27Z</time>
      </trkpt>
      <trkpt lat="59.9561567" lon="17.6999084">
        <ele>38.1094</ele>
        <time>2014-06-24T12:05:28Z</time>
      </trkpt>
      <trkpt lat="59.9561673" lon="17.6999275">
        <ele>38.1094</ele>
        <time>2014-06-24T12:05:29Z</time>
      </trkpt>
      <trkpt lat="59.9561721" lon="17.6999456">
        <ele>37.6287</ele>
        <time>2014-06-24T12:05:30Z</time>
      </trkpt>
      <trkpt lat="59.9561741" lon="17.6999681">
        <ele>37.6287</ele>
        <time>2014-06-24T12:05:31Z</time>
      </trkpt>
      <trkpt lat="59.956179" lon="17.6999886">
        <ele>37.6287</ele>
        <time>2014-06-24T12:05:32Z</time>
      </trkpt>
      <trkpt lat="59.9561871" lon="17.7000055">
        <ele>37.6287</ele>
        <time>2014-06-24T12:05:33Z</time>
      </trkpt>
      <trkpt lat="59.9561975" lon="17.7000212">
        <ele>37.1481</ele>
        <time>2014-06-24T12:05:34Z</time>
      </trkpt>
      <trkpt lat="59.9562109" lon="17.7000356">
        <ele>37.1481</ele>
        <time>2014-06-24T12:05:35Z</time>
      </trkpt>
      <trkpt lat="59.9562219" lon="17.7000528">
        <ele>37.1481</ele>
        <time>2014-06-24T12:05:36Z</time>
      </trkpt>
      <trkpt lat="59.9562349" lon="17.7000647">
        <ele>37.1481</ele>
        <time>2014-06-24T12:05:37Z</time>
      </trkpt>
      <trkpt lat="59.9562457" lon="17.7000773">
        <ele>36.6675</ele>
        <time>2014-06-24T12:05:38Z</time>
      </trkpt>
      <trkpt lat="59.9562597" lon="17.7000901">
        <ele>36.6675</ele>
        <time>2014-06-24T12:05:39Z</time>
      </trkpt>
      <trkpt lat="59.9562715" lon="17.700104">
        <ele>36.1868</ele>
        <time>2014-06-24T12:05:40Z</time>
      </trkpt>
      <trkpt lat="59.9562821" lon="17.7001213">
        <ele>36.1868</ele>
        <time>2014-06-24T12:05:41Z</time>
      </trkpt>
      <trkpt lat="59.9562928" lon="17.7001413">
        <ele>36.6675</ele>
        <time>2014-06-24T12:05:42Z</time>
      </trkpt>
      <trkpt lat="59.956301" lon="17.700162">
        <ele>36.6675</ele>
        <time>2014-06-24T12:05:43Z</time>
      </trkpt>
      <trkpt lat="59.9563094" lon="17.7001834">
        <ele>36.1868</ele>
        <time>2014-06-24T12:05:44Z</time>
      </trkpt>
      <trkpt lat="59.9563171" lon="17.7002035">
        <ele>36.1868</ele>
        <time>2014-06-24T12:05:45Z</time>
      </trkpt>
      <trkpt lat="59.9563248" lon="17.7002258">
        <ele>36.1868</ele>
        <time>2014-06-24T12:05:46Z</time>
      </trkpt>
      <trkpt lat="59.9563327" lon="17.7002477">
        <ele>36.1868</ele>
        <time>2014-06-24T12:05:47Z</time>
      </trkpt>
      <trkpt lat="59.9563439" lon="17.7002637">
        <ele>35.7061</ele>
        <time>2014-06-24T12:05:48Z</time>
      </trkpt>
      <trkpt lat="59.9563566" lon="17.7002816">
        <ele>36.1868</ele>
        <time>2014-06-24T12:05:49Z</time>
      </trkpt>
      <trkpt lat="59.9563679" lon="17.7003034">
        <ele>36.1868</ele>
        <time>2014-06-24T12:05:50Z</time>
      </trkpt>
      <trkpt lat="59.9563762" lon="17.7003258">
        <ele>36.1868</ele>
        <time>2014-06-24T12:05:51Z</time>
      </trkpt>
      <trkpt lat="59.9563855" lon="17.7003456">
        <ele>36.1868</ele>
        <time>2014-06-24T12:05:52Z</time>
      </trkpt>
      <trkpt lat="59.9563964" lon="17.7003612">
        <ele>36.1868</ele>
        <time>2014-06-24T12:05:53Z</time>
      </trkpt>
      <trkpt lat="59.9564067" lon="17.7003801">
        <ele>36.1868</ele>
        <time>2014-06-24T12:05:54Z</time>
      </trkpt>
      <trkpt lat="59.9564178" lon="17.7003973">
        <ele>36.1868</ele>
        <time>2014-06-24T12:05:55Z</time>
      </trkpt>
      <trkpt lat="59.9564291" lon="17.7004124">
        <ele>35.7061</ele>
        <time>2014-06-24T12:05:56Z</time>
      </trkpt>
      <trkpt lat="59.9564413" lon="17.7004279">
        <ele>35.7061</ele>
        <time>2014-06-24T12:05:57Z</time>
      </trkpt>
      <trkpt lat="59.9564519" lon="17.7004397">
        <ele>35.7061</ele>
        <time>2014-06-24T12:05:58Z</time>
      </trkpt>
      <trkpt lat="59.9564642" lon="17.7004496">
        <ele>35.7061</ele>
        <time>2014-06-24T12:05:59Z</time>
      </trkpt>
      <trkpt lat="59.9564802" lon="17.7004602">
        <ele>35.7061</ele>
        <time>2014-06-24T12:06:00Z</time>
      </trkpt>
      <trkpt lat="59.9564986" lon="17.7004749">
        <ele>35.7061</ele>
        <time>2014-06-24T12:06:01Z</time>
      </trkpt>
      <trkpt lat="59.9565068" lon="17.7004947">
        <ele>35.7061</ele>
        <time>2014-06-24T12:06:02Z</time>
      </trkpt>
      <trkpt lat="59.9565126" lon="17.700513">
        <ele>35.2255</ele>
        <time>2014-06-24T12:06:03Z</time>
      </trkpt>
      <trkpt lat="59.9565166" lon="17.700533">
        <ele>34.7449</ele>
        <time>2014-06-24T12:06:04Z</time>
      </trkpt>
      <trkpt lat="59.9565226" lon="17.7005526">
        <ele>34.2642</ele>
        <time>2014-06-24T12:06:05Z</time>
      </trkpt>
      <trkpt lat="59.9565376" lon="17.7005688">
        <ele>34.7449</ele>
        <time>2014-06-24T12:06:06Z</time>
      </trkpt>
      <trkpt lat="59.9565472" lon="17.700587">
        <ele>34.7449</ele>
        <time>2014-06-24T12:06:07Z</time>
      </trkpt>
      <trkpt lat="59.9565553" lon="17.7006087">
        <ele>33.7834</ele>
        <time>2014-06-24T12:06:08Z</time>
      </trkpt>
      <trkpt lat="59.9565623" lon="17.7006294">
        <ele>33.7834</ele>
        <time>2014-06-24T12:06:09Z</time>
      </trkpt>
      <trkpt lat="59.9565687" lon="17.7006476">
        <ele>33.3029</ele>
        <time>2014-06-24T12:06:10Z</time>
      </trkpt>
      <trkpt lat="59.9565799" lon="17.7006691">
        <ele>33.3029</ele>
        <time>2014-06-24T12:06:11Z</time>
      </trkpt>
      <trkpt lat="59.9565991" lon="17.700692">
        <ele>34.7449</ele>
        <time>2014-06-24T12:06:12Z</time>
      </trkpt>
      <trkpt lat="59.9566145" lon="17.7007097">
        <ele>34.7449</ele>
        <time>2014-06-24T12:06:13Z</time>
      </trkpt>
      <trkpt lat="59.956627" lon="17.7007268">
        <ele>35.2255</ele>
        <time>2014-06-24T12:06:14Z</time>
      </trkpt>
      <trkpt lat="59.9566416" lon="17.7007444">
        <ele>35.7061</ele>
        <time>2014-06-24T12:06:15Z</time>
      </trkpt>
      <trkpt lat="59.9566581" lon="17.7007637">
        <ele>36.1868</ele>
        <time>2014-06-24T12:06:16Z</time>
      </trkpt>
      <trkpt lat="59.9566684" lon="17.7007837">
        <ele>36.1868</ele>
        <time>2014-06-24T12:06:17Z</time>
      </trkpt>
      <trkpt lat="59.9566781" lon="17.700802">
        <ele>35.7061</ele>
        <time>2014-06-24T12:06:18Z</time>
      </trkpt>
      <trkpt lat="59.9566875" lon="17.7008267">
        <ele>36.1868</ele>
        <time>2014-06-24T12:06:19Z</time>
      </trkpt>
      <trkpt lat="59.9566957" lon="17.7008506">
        <ele>35.7061</ele>
        <time>2014-06-24T12:06:20Z</time>
      </trkpt>
      <trkpt lat="59.9567062" lon="17.7008707">
        <ele>35.7061</ele>
        <time>2014-06-24T12:06:21Z</time>
      </trkpt>
      <trkpt lat="59.9567176" lon="17.7008903">
        <ele>35.7061</ele>
        <time>2014-06-24T12:06:22Z</time>
      </trkpt>
      <trkpt lat="59.9567324" lon="17.7009081">
        <ele>36.1868</ele>
        <time>2014-06-24T12:06:23Z</time>
      </trkpt>
      <trkpt lat="59.956741" lon="17.700919">
        <ele>35.2255</ele>
        <time>2014-06-24T12:06:24Z</time>
      </trkpt>
      <trkpt lat="59.9567527" lon="17.7009281">
        <ele>35.2255</ele>
        <time>2014-06-24T12:06:25Z</time>
      </trkpt>
      <trkpt lat="59.9567635" lon="17.7009434">
        <ele>35.2255</ele>
        <time>2014-06-24T12:06:26Z</time>
      </trkpt>
      <trkpt lat="59.9567781" lon="17.700961">
        <ele>35.2255</ele>
        <time>2014-06-24T12:06:27Z</time>
      </trkpt>
      <trkpt lat="59.9567907" lon="17.7009786">
        <ele>35.2255</ele>
        <time>2014-06-24T12:06:28Z</time>
      </trkpt>
      <trkpt lat="59.956807" lon="17.7009978">
        <ele>36.1868</ele>
        <time>2014-06-24T12:06:29Z</time>
      </trkpt>
      <trkpt lat="59.9568256" lon="17.7010131">
        <ele>36.1868</ele>
        <time>2014-06-24T12:06:30Z</time>
      </trkpt>
      <trkpt lat="59.9568396" lon="17.7010308">
        <ele>36.6675</ele>
        <time>2014-06-24T12:06:31Z</time>
      </trkpt>
      <trkpt lat="59.9568466" lon="17.7010496">
        <ele>36.1868</ele>
        <time>2014-06-24T12:06:32Z</time>
      </trkpt>
      <trkpt lat="59.956861" lon="17.7010714">
        <ele>36.1868</ele>
        <time>2014-06-24T12:06:33Z</time>
      </trkpt>
      <trkpt lat="59.9568738" lon="17.7010963">
        <ele>36.1868</ele>
        <time>2014-06-24T12:06:34Z</time>
      </trkpt>
      <trkpt lat="59.9568875" lon="17.7011133">
        <ele>36.1868</ele>
        <time>2014-06-24T12:06:35Z</time>
      </trkpt>
      <trkpt lat="59.9569004" lon="17.7011255">
        <ele>35.7061</ele>
        <time>2014-06-24T12:06:36Z</time>
      </trkpt>
      <trkpt lat="59.9569102" lon="17.7011401">
        <ele>35.7061</ele>
        <time>2014-06-24T12:06:37Z</time>
      </trkpt>
      <trkpt lat="59.9569254" lon="17.701153">
        <ele>35.7061</ele>
        <time>2014-06-24T12:06:38Z</time>
      </trkpt>
      <trkpt lat="59.9569383" lon="17.7011731">
        <ele>35.7061</ele>
        <time>2014-06-24T12:06:39Z</time>
      </trkpt>
      <trkpt lat="59.9569531" lon="17.7012189">
        <ele>34.7449</ele>
        <time>2014-06-24T12:06:40Z</time>
      </trkpt>
      <trkpt lat="59.9569651" lon="17.701256">
        <ele>34.2642</ele>
        <time>2014-06-24T12:06:41Z</time>
      </trkpt>
      <trkpt lat="59.956974" lon="17.7012749">
        <ele>34.2642</ele>
        <time>2014-06-24T12:06:42Z</time>
      </trkpt>
      <trkpt lat="59.9569822" lon="17.7012908">
        <ele>33.3029</ele>
        <time>2014-06-24T12:06:43Z</time>
      </trkpt>
      <trkpt lat="59.9569911" lon="17.7013113">
        <ele>32.8223</ele>
        <time>2014-06-24T12:06:44Z</time>
      </trkpt>
      <trkpt lat="59.9569963" lon="17.7013236">
        <ele>32.8223</ele>
        <time>2014-06-24T12:06:45Z</time>
      </trkpt>
      <trkpt lat="59.9570083" lon="17.7013345">
        <ele>33.3029</ele>
        <time>2014-06-24T12:06:46Z</time>
      </trkpt>
      <trkpt lat="59.9570186" lon="17.7013522">
        <ele>33.3029</ele>
        <time>2014-06-24T12:06:47Z</time>
      </trkpt>
      <trkpt lat="59.9570309" lon="17.7013716">
        <ele>33.7834</ele>
        <time>2014-06-24T12:06:48Z</time>
      </trkpt>
      <trkpt lat="59.957043" lon="17.7013924">
        <ele>33.7834</ele>
        <time>2014-06-24T12:06:49Z</time>
      </trkpt>
      <trkpt lat="59.9570544" lon="17.70141">
        <ele>33.3029</ele>
        <time>2014-06-24T12:06:50Z</time>
      </trkpt>
      <trkpt lat="59.9570653" lon="17.701427">
        <ele>33.3029</ele>
        <time>2014-06-24T12:06:51Z</time>
      </trkpt>
      <trkpt lat="59.9570761" lon="17.7014442">
        <ele>33.3029</ele>
        <time>2014-06-24T12:06:52Z</time>
      </trkpt>
      <trkpt lat="59.9570919" lon="17.7014591">
        <ele>33.3029</ele>
        <time>2014-06-24T12:06:53Z</time>
      </trkpt>
      <trkpt lat="59.9571018" lon="17.701478">
        <ele>33.3029</ele>
        <time>2014-06-24T12:06:54Z</time>
      </trkpt>
      <trkpt lat="59.9571087" lon="17.7015003">
        <ele>32.8223</ele>
        <time>2014-06-24T12:06:55Z</time>
      </trkpt>
      <trkpt lat="59.9571178" lon="17.7015214">
        <ele>32.8223</ele>
        <time>2014-06-24T12:06:56Z</time>
      </trkpt>
      <trkpt lat="59.9571253" lon="17.7015407">
        <ele>32.8223</ele>
        <time>2014-06-24T12:06:57Z</time>
      </trkpt>
      <trkpt lat="59.9571321" lon="17.7015613">
        <ele>32.3416</ele>
        <time>2014-06-24T12:06:58Z</time>
      </trkpt>
      <trkpt lat="59.957138" lon="17.7015834">
        <ele>31.8607</ele>
        <time>2014-06-24T12:06:59Z</time>
      </trkpt>
      <trkpt lat="59.9571429" lon="17.7016095">
        <ele>31.8607</ele>
        <time>2014-06-24T12:07:00Z</time>
      </trkpt>
      <trkpt lat="59.9571461" lon="17.701634">
        <ele>31.3801</ele>
        <time>2014-06-24T12:07:01Z</time>
      </trkpt>
      <trkpt lat="59.9571506" lon="17.701657">
        <ele>30.8995</ele>
        <time>2014-06-24T12:07:02Z</time>
      </trkpt>
      <trkpt lat="59.9571569" lon="17.7016792">
        <ele>30.8995</ele>
        <time>2014-06-24T12:07:03Z</time>
      </trkpt>
      <trkpt lat="59.9571675" lon="17.7017025">
        <ele>30.8995</ele>
        <time>2014-06-24T12:07:04Z</time>
      </trkpt>
      <trkpt lat="59.9571743" lon="17.7017218">
        <ele>30.4188</ele>
        <time>2014-06-24T12:07:05Z</time>
      </trkpt>
      <trkpt lat="59.9571834" lon="17.701744">
        <ele>30.4188</ele>
        <time>2014-06-24T12:07:06Z</time>
      </trkpt>
      <trkpt lat="59.957195" lon="17.7017681">
        <ele>30.4188</ele>
        <time>2014-06-24T12:07:07Z</time>
      </trkpt>
      <trkpt lat="59.9572095" lon="17.701788">
        <ele>30.4188</ele>
        <time>2014-06-24T12:07:08Z</time>
      </trkpt>
      <trkpt lat="59.9572256" lon="17.7018038">
        <ele>30.8995</ele>
        <time>2014-06-24T12:07:09Z</time>
      </trkpt>
      <trkpt lat="59.9572427" lon="17.7018181">
        <ele>30.8995</ele>
        <time>2014-06-24T12:07:10Z</time>
      </trkpt>
      <trkpt lat="59.957261" lon="17.7018341">
        <ele>31.3801</ele>
        <time>2014-06-24T12:07:11Z</time>
      </trkpt>
      <trkpt lat="59.9572773" lon="17.7018468">
        <ele>31.8607</ele>
        <time>2014-06-24T12:07:12Z</time>
      </trkpt>
      <trkpt lat="59.9572846" lon="17.701866">
        <ele>31.3801</ele>
        <time>2014-06-24T12:07:13Z</time>
      </trkpt>
      <trkpt lat="59.9572922" lon="17.7018897">
        <ele>31.3801</ele>
        <time>2014-06-24T12:07:14Z</time>
      </trkpt>
      <trkpt lat="59.9572978" lon="17.7019149">
        <ele>30.8995</ele>
        <time>2014-06-24T12:07:15Z</time>
      </trkpt>
      <trkpt lat="59.9573029" lon="17.7019399">
        <ele>30.8995</ele>
        <time>2014-06-24T12:07:16Z</time>
      </trkpt>
      <trkpt lat="59.9573106" lon="17.7019608">
        <ele>30.8995</ele>
        <time>2014-06-24T12:07:17Z</time>
      </trkpt>
      <trkpt lat="59.9573198" lon="17.7019773">
        <ele>31.3801</ele>
        <time>2014-06-24T12:07:18Z</time>
      </trkpt>
      <trkpt lat="59.9573286" lon="17.701993">
        <ele>31.3801</ele>
        <time>2014-06-24T12:07:19Z</time>
      </trkpt>
      <trkpt lat="59.9573356" lon="17.7020063">
        <ele>31.3801</ele>
        <time>2014-06-24T12:07:20Z</time>
      </trkpt>
      <trkpt lat="59.957345" lon="17.7020168">
        <ele>31.3801</ele>
        <time>2014-06-24T12:07:21Z</time>
      </trkpt>
      <trkpt lat="59.9573573" lon="17.7020281">
        <ele>31.8607</ele>
        <time>2014-06-24T12:07:22Z</time>
      </trkpt>
      <trkpt lat="59.9573719" lon="17.7020432">
        <ele>32.3416</ele>
        <time>2014-06-24T12:07:23Z</time>
      </trkpt>
      <trkpt lat="59.9573854" lon="17.7020611">
        <ele>32.3416</ele>
        <time>2014-06-24T12:07:24Z</time>
      </trkpt>
      <trkpt lat="59.9573929" lon="17.7020826">
        <ele>32.3416</ele>
        <time>2014-06-24T12:07:25Z</time>
      </trkpt>
      <trkpt lat="59.9574102" lon="17.7021011">
        <ele>33.3029</ele>
        <time>2014-06-24T12:07:26Z</time>
      </trkpt>
      <trkpt lat="59.9574267" lon="17.702118">
        <ele>33.7834</ele>
        <time>2014-06-24T12:07:27Z</time>
      </trkpt>
      <trkpt lat="59.9574432" lon="17.7021353">
        <ele>34.2642</ele>
        <time>2014-06-24T12:07:28Z</time>
      </trkpt>
      <trkpt lat="59.9574577" lon="17.7021527">
        <ele>34.7449</ele>
        <time>2014-06-24T12:07:29Z</time>
      </trkpt>
      <trkpt lat="59.9574698" lon="17.7021695">
        <ele>34.7449</ele>
        <time>2014-06-24T12:07:30Z</time>
      </trkpt>
      <trkpt lat="59.9574799" lon="17.7021891">
        <ele>34.2642</ele>
        <time>2014-06-24T12:07:31Z</time>
      </trkpt>
      <trkpt lat="59.957489" lon="17.7022107">
        <ele>34.2642</ele>
        <time>2014-06-24T12:07:32Z</time>
      </trkpt>
      <trkpt lat="59.9574973" lon="17.7022311">
        <ele>34.2642</ele>
        <time>2014-06-24T12:07:33Z</time>
      </trkpt>
      <trkpt lat="59.957505" lon="17.7022501">
        <ele>33.7834</ele>
        <time>2014-06-24T12:07:34Z</time>
      </trkpt>
      <trkpt lat="59.9575107" lon="17.7022716">
        <ele>33.3029</ele>
        <time>2014-06-24T12:07:35Z</time>
      </trkpt>
      <trkpt lat="59.9575158" lon="17.7022928">
        <ele>32.8223</ele>
        <time>2014-06-24T12:07:36Z</time>
      </trkpt>
      <trkpt lat="59.9575201" lon="17.7023124">
        <ele>32.8223</ele>
        <time>2014-06-24T12:07:37Z</time>
      </trkpt>
      <trkpt lat="59.9575312" lon="17.7023302">
        <ele>32.3416</ele>
        <time>2014-06-24T12:07:38Z</time>
      </trkpt>
      <trkpt lat="59.9575522" lon="17.7023486">
        <ele>32.3416</ele>
        <time>2014-06-24T12:07:39Z</time>
      </trkpt>
      <trkpt lat="59.957564" lon="17.7023661">
        <ele>32.3416</ele>
        <time>2014-06-24T12:07:40Z</time>
      </trkpt>
      <trkpt lat="59.9575806" lon="17.7023858">
        <ele>32.8223</ele>
        <time>2014-06-24T12:07:41Z</time>
      </trkpt>
      <trkpt lat="59.9575941" lon="17.7024047">
        <ele>32.3416</ele>
        <time>2014-06-24T12:07:42Z</time>
      </trkpt>
      <trkpt lat="59.9576096" lon="17.7024258">
        <ele>31.8607</ele>
        <time>2014-06-24T12:07:43Z</time>
      </trkpt>
      <trkpt lat="59.9576199" lon="17.7024476">
        <ele>31.8607</ele>
        <time>2014-06-24T12:07:44Z</time>
      </trkpt>
      <trkpt lat="59.9576281" lon="17.7024709">
        <ele>31.8607</ele>
        <time>2014-06-24T12:07:45Z</time>
      </trkpt>
      <trkpt lat="59.957635" lon="17.7024917">
        <ele>31.3801</ele>
        <time>2014-06-24T12:07:46Z</time>
      </trkpt>
      <trkpt lat="59.9576449" lon="17.7025106">
        <ele>31.8607</ele>
        <time>2014-06-24T12:07:47Z</time>
      </trkpt>
      <trkpt lat="59.9576543" lon="17.7025293">
        <ele>31.8607</ele>
        <time>2014-06-24T12:07:48Z</time>
      </trkpt>
      <trkpt lat="59.9576645" lon="17.7025502">
        <ele>31.8607</ele>
        <time>2014-06-24T12:07:49Z</time>
      </trkpt>
      <trkpt lat="59.9576744" lon="17.7025702">
        <ele>31.8607</ele>
        <time>2014-06-24T12:07:50Z</time>
      </trkpt>
      <trkpt lat="59.9576846" lon="17.7025899">
        <ele>31.8607</ele>
        <time>2014-06-24T12:07:51Z</time>
      </trkpt>
      <trkpt lat="59.9576977" lon="17.702607">
        <ele>32.3416</ele>
        <time>2014-06-24T12:07:52Z</time>
      </trkpt>
      <trkpt lat="59.9577151" lon="17.7026243">
        <ele>32.8223</ele>
        <time>2014-06-24T12:07:53Z</time>
      </trkpt>
      <trkpt lat="59.9577277" lon="17.7026429">
        <ele>32.8223</ele>
        <time>2014-06-24T12:07:54Z</time>
      </trkpt>
      <trkpt lat="59.9577384" lon="17.7026629">
        <ele>32.8223</ele>
        <time>2014-06-24T12:07:55Z</time>
      </trkpt>
      <trkpt lat="59.9577496" lon="17.7026827">
        <ele>32.8223</ele>
        <time>2014-06-24T12:07:56Z</time>
      </trkpt>
      <trkpt lat="59.9577604" lon="17.702701">
        <ele>32.8223</ele>
        <time>2014-06-24T12:07:57Z</time>
      </trkpt>
      <trkpt lat="59.957769" lon="17.7027204">
        <ele>32.3416</ele>
        <time>2014-06-24T12:07:58Z</time>
      </trkpt>
      <trkpt lat="59.9577816" lon="17.7027388">
        <ele>32.3416</ele>
        <time>2014-06-24T12:07:59Z</time>
      </trkpt>
      <trkpt lat="59.9577919" lon="17.7027609">
        <ele>31.8607</ele>
        <time>2014-06-24T12:08:00Z</time>
      </trkpt>
      <trkpt lat="59.9578007" lon="17.7027829">
        <ele>31.8607</ele>
        <time>2014-06-24T12:08:01Z</time>
      </trkpt>
      <trkpt lat="59.9578121" lon="17.7028018">
        <ele>31.8607</ele>
        <time>2014-06-24T12:08:02Z</time>
      </trkpt>
      <trkpt lat="59.9578225" lon="17.7028165">
        <ele>31.3801</ele>
        <time>2014-06-24T12:08:03Z</time>
      </trkpt>
      <trkpt lat="59.9578349" lon="17.702832">
        <ele>31.8607</ele>
        <time>2014-06-24T12:08:04Z</time>
      </trkpt>
      <trkpt lat="59.9578459" lon="17.7028491">
        <ele>31.3801</ele>
        <time>2014-06-24T12:08:05Z</time>
      </trkpt>
      <trkpt lat="59.957854" lon="17.7028656">
        <ele>31.3801</ele>
        <time>2014-06-24T12:08:06Z</time>
      </trkpt>
      <trkpt lat="59.9578622" lon="17.7028828">
        <ele>30.8995</ele>
        <time>2014-06-24T12:08:07Z</time>
      </trkpt>
      <trkpt lat="59.9578712" lon="17.702902">
        <ele>30.8995</ele>
        <time>2014-06-24T12:08:08Z</time>
      </trkpt>
      <trkpt lat="59.9578801" lon="17.702919">
        <ele>31.3801</ele>
        <time>2014-06-24T12:08:09Z</time>
      </trkpt>
      <trkpt lat="59.9578883" lon="17.7029361">
        <ele>31.3801</ele>
        <time>2014-06-24T12:08:10Z</time>
      </trkpt>
      <trkpt lat="59.9578954" lon="17.7029559">
        <ele>31.3801</ele>
        <time>2014-06-24T12:08:11Z</time>
      </trkpt>
      <trkpt lat="59.9579094" lon="17.7029728">
        <ele>31.8607</ele>
        <time>2014-06-24T12:08:12Z</time>
      </trkpt>
      <trkpt lat="59.9579241" lon="17.7029904">
        <ele>31.8607</ele>
        <time>2014-06-24T12:08:13Z</time>
      </trkpt>
      <trkpt lat="59.9579359" lon="17.70301">
        <ele>31.8607</ele>
        <time>2014-06-24T12:08:14Z</time>
      </trkpt>
      <trkpt lat="59.9579461" lon="17.7030281">
        <ele>31.8607</ele>
        <time>2014-06-24T12:08:15Z</time>
      </trkpt>
      <trkpt lat="59.9579587" lon="17.7030416">
        <ele>31.8607</ele>
        <time>2014-06-24T12:08:16Z</time>
      </trkpt>
      <trkpt lat="59.9579696" lon="17.7030556">
        <ele>31.3801</ele>
        <time>2014-06-24T12:08:17Z</time>
      </trkpt>
      <trkpt lat="59.9579829" lon="17.7030682">
        <ele>31.3801</ele>
        <time>2014-06-24T12:08:18Z</time>
      </trkpt>
      <trkpt lat="59.9579975" lon="17.7030838">
        <ele>31.3801</ele>
        <time>2014-06-24T12:08:19Z</time>
      </trkpt>
      <trkpt lat="59.9580099" lon="17.7031005">
        <ele>31.3801</ele>
        <time>2014-06-24T12:08:20Z</time>
      </trkpt>
      <trkpt lat="59.9580194" lon="17.7031176">
        <ele>31.3801</ele>
        <time>2014-06-24T12:08:21Z</time>
      </trkpt>
      <trkpt lat="59.9580291" lon="17.7031315">
        <ele>30.8995</ele>
        <time>2014-06-24T12:08:22Z</time>
      </trkpt>
      <trkpt lat="59.9580391" lon="17.7031455">
        <ele>30.4188</ele>
        <time>2014-06-24T12:08:23Z</time>
      </trkpt>
      <trkpt lat="59.9580518" lon="17.7031578">
        <ele>30.4188</ele>
        <time>2014-06-24T12:08:24Z</time>
      </trkpt>
      <trkpt lat="59.9580671" lon="17.7031673">
        <ele>30.4188</ele>
        <time>2014-06-24T12:08:25Z</time>
      </trkpt>
      <trkpt lat="59.9580867" lon="17.7031694">
        <ele>30.4188</ele>
        <time>2014-06-24T12:08:26Z</time>
      </trkpt>
      <trkpt lat="59.9581025" lon="17.7031722">
        <ele>29.9381</ele>
        <time>2014-06-24T12:08:27Z</time>
      </trkpt>
      <trkpt lat="59.9581178" lon="17.7031831">
        <ele>29.9381</ele>
        <time>2014-06-24T12:08:28Z</time>
      </trkpt>
      <trkpt lat="59.9581334" lon="17.7031951">
        <ele>29.4575</ele>
        <time>2014-06-24T12:08:29Z</time>
      </trkpt>
      <trkpt lat="59.9581455" lon="17.703205">
        <ele>29.4575</ele>
        <time>2014-06-24T12:08:30Z</time>
      </trkpt>
      <trkpt lat="59.9581575" lon="17.7032157">
        <ele>29.4575</ele>
        <time>2014-06-24T12:08:31Z</time>
      </trkpt>
      <trkpt lat="59.9581654" lon="17.7032359">
        <ele>28.9769</ele>
        <time>2014-06-24T12:08:32Z</time>
      </trkpt>
      <trkpt lat="59.958179" lon="17.7032618">
        <ele>29.4575</ele>
        <time>2014-06-24T12:08:33Z</time>
      </trkpt>
      <trkpt lat="59.9581924" lon="17.7032765">
        <ele>29.4575</ele>
        <time>2014-06-24T12:08:34Z</time>
      </trkpt>
      <trkpt lat="59.9582048" lon="17.7032935">
        <ele>29.4575</ele>
        <time>2014-06-24T12:08:35Z</time>
      </trkpt>
      <trkpt lat="59.9582168" lon="17.7033111">
        <ele>28.9769</ele>
        <time>2014-06-24T12:08:36Z</time>
      </trkpt>
      <trkpt lat="59.9582346" lon="17.7033231">
        <ele>28.9769</ele>
        <time>2014-06-24T12:08:37Z</time>
      </trkpt>
      <trkpt lat="59.9582518" lon="17.7033289">
        <ele>29.4575</ele>
        <time>2014-06-24T12:08:38Z</time>
      </trkpt>
      <trkpt lat="59.9582659" lon="17.7033438">
        <ele>29.4575</ele>
        <time>2014-06-24T12:08:39Z</time>
      </trkpt>
      <trkpt lat="59.9582804" lon="17.7033581">
        <ele>29.9381</ele>
        <time>2014-06-24T12:08:40Z</time>
      </trkpt>
      <trkpt lat="59.9582943" lon="17.70337">
        <ele>29.9381</ele>
        <time>2014-06-24T12:08:41Z</time>
      </trkpt>
      <trkpt lat="59.9583101" lon="17.7033784">
        <ele>29.9381</ele>
        <time>2014-06-24T12:08:42Z</time>
      </trkpt>
      <trkpt lat="59.958325" lon="17.7033885">
        <ele>29.9381</ele>
        <time>2014-06-24T12:08:43Z</time>
      </trkpt>
      <trkpt lat="59.9583382" lon="17.7034016">
        <ele>29.9381</ele>
        <time>2014-06-24T12:08:44Z</time>
      </trkpt>
      <trkpt lat="59.9583502" lon="17.7034091">
        <ele>29.4575</ele>
        <time>2014-06-24T12:08:45Z</time>
      </trkpt>
      <trkpt lat="59.9583649" lon="17.7034167">
        <ele>29.4575</ele>
        <time>2014-06-24T12:08:46Z</time>
      </trkpt>
      <trkpt lat="59.9583752" lon="17.7034306">
        <ele>29.4575</ele>
        <time>2014-06-24T12:08:47Z</time>
      </trkpt>
      <trkpt lat="59.9583855" lon="17.7034457">
        <ele>28.9769</ele>
        <time>2014-06-24T12:08:48Z</time>
      </trkpt>
      <trkpt lat="59.9583978" lon="17.7034598">
        <ele>28.9769</ele>
        <time>2014-06-24T12:08:49Z</time>
      </trkpt>
      <trkpt lat="59.958409" lon="17.7034728">
        <ele>29.4575</ele>
        <time>2014-06-24T12:08:50Z</time>
      </trkpt>
      <trkpt lat="59.9584192" lon="17.7034878">
        <ele>29.4575</ele>
        <time>2014-06-24T12:08:51Z</time>
      </trkpt>
      <trkpt lat="59.958426" lon="17.7035065">
        <ele>29.4575</ele>
        <time>2014-06-24T12:08:52Z</time>
      </trkpt>
      <trkpt lat="59.9584352" lon="17.7035245">
        <ele>29.4575</ele>
        <time>2014-06-24T12:08:53Z</time>
      </trkpt>
      <trkpt lat="59.9584456" lon="17.7035356">
        <ele>29.4575</ele>
        <time>2014-06-24T12:08:54Z</time>
      </trkpt>
      <trkpt lat="59.9584617" lon="17.7035459">
        <ele>29.4575</ele>
        <time>2014-06-24T12:08:55Z</time>
      </trkpt>
      <trkpt lat="59.9584774" lon="17.7035551">
        <ele>29.9381</ele>
        <time>2014-06-24T12:08:56Z</time>
      </trkpt>
      <trkpt lat="59.9584916" lon="17.7035619">
        <ele>29.4575</ele>
        <time>2014-06-24T12:08:57Z</time>
      </trkpt>
      <trkpt lat="59.9585052" lon="17.7035738">
        <ele>29.9381</ele>
        <time>2014-06-24T12:08:58Z</time>
      </trkpt>
      <trkpt lat="59.9585203" lon="17.7035826">
        <ele>29.4575</ele>
        <time>2014-06-24T12:08:59Z</time>
      </trkpt>
      <trkpt lat="59.95854" lon="17.7035888">
        <ele>30.4188</ele>
        <time>2014-06-24T12:09:00Z</time>
      </trkpt>
      <trkpt lat="59.9585565" lon="17.7035997">
        <ele>30.8995</ele>
        <time>2014-06-24T12:09:01Z</time>
      </trkpt>
      <trkpt lat="59.9585691" lon="17.7036142">
        <ele>30.8995</ele>
        <time>2014-06-24T12:09:02Z</time>
      </trkpt>
      <trkpt lat="59.9585858" lon="17.7036265">
        <ele>30.8995</ele>
        <time>2014-06-24T12:09:03Z</time>
      </trkpt>
      <trkpt lat="59.9586058" lon="17.7036355">
        <ele>31.3801</ele>
        <time>2014-06-24T12:09:04Z</time>
      </trkpt>
      <trkpt lat="59.9586218" lon="17.703643">
        <ele>31.3801</ele>
        <time>2014-06-24T12:09:05Z</time>
      </trkpt>
      <trkpt lat="59.9586371" lon="17.7036485">
        <ele>31.3801</ele>
        <time>2014-06-24T12:09:06Z</time>
      </trkpt>
      <trkpt lat="59.9586529" lon="17.7036549">
        <ele>31.3801</ele>
        <time>2014-06-24T12:09:07Z</time>
      </trkpt>
      <trkpt lat="59.9586675" lon="17.7036644">
        <ele>31.8607</ele>
        <time>2014-06-24T12:09:08Z</time>
      </trkpt>
      <trkpt lat="59.9586812" lon="17.7036764">
        <ele>31.8607</ele>
        <time>2014-06-24T12:09:09Z</time>
      </trkpt>
      <trkpt lat="59.9586924" lon="17.7036898">
        <ele>31.3801</ele>
        <time>2014-06-24T12:09:10Z</time>
      </trkpt>
      <trkpt lat="59.9587056" lon="17.7037054">
        <ele>31.8607</ele>
        <time>2014-06-24T12:09:11Z</time>
      </trkpt>
      <trkpt lat="59.95872" lon="17.7037204">
        <ele>31.3801</ele>
        <time>2014-06-24T12:09:12Z</time>
      </trkpt>
      <trkpt lat="59.9587374" lon="17.7037342">
        <ele>31.8607</ele>
        <time>2014-06-24T12:09:13Z</time>
      </trkpt>
      <trkpt lat="59.9587533" lon="17.7037493">
        <ele>32.3416</ele>
        <time>2014-06-24T12:09:14Z</time>
      </trkpt>
      <trkpt lat="59.9587662" lon="17.7037654">
        <ele>32.3416</ele>
        <time>2014-06-24T12:09:15Z</time>
      </trkpt>
      <trkpt lat="59.9587777" lon="17.7037805">
        <ele>32.3416</ele>
        <time>2014-06-24T12:09:16Z</time>
      </trkpt>
      <trkpt lat="59.9587917" lon="17.7037939">
        <ele>32.3416</ele>
        <time>2014-06-24T12:09:17Z</time>
      </trkpt>
      <trkpt lat="59.9588071" lon="17.7038013">
        <ele>32.3416</ele>
        <time>2014-06-24T12:09:18Z</time>
      </trkpt>
      <trkpt lat="59.9588217" lon="17.7038116">
        <ele>32.8223</ele>
        <time>2014-06-24T12:09:19Z</time>
      </trkpt>
      <trkpt lat="59.9588337" lon="17.7038281">
        <ele>32.8223</ele>
        <time>2014-06-24T12:09:20Z</time>
      </trkpt>
      <trkpt lat="59.9588462" lon="17.7038446">
        <ele>33.3029</ele>
        <time>2014-06-24T12:09:21Z</time>
      </trkpt>
      <trkpt lat="59.9588628" lon="17.7038546">
        <ele>34.2642</ele>
        <time>2014-06-24T12:09:22Z</time>
      </trkpt>
      <trkpt lat="59.9588772" lon="17.7038659">
        <ele>34.2642</ele>
        <time>2014-06-24T12:09:23Z</time>
      </trkpt>
      <trkpt lat="59.9588899" lon="17.7038793">
        <ele>34.2642</ele>
        <time>2014-06-24T12:09:24Z</time>
      </trkpt>
      <trkpt lat="59.9589031" lon="17.7038914">
        <ele>34.7449</ele>
        <time>2014-06-24T12:09:25Z</time>
      </trkpt>
      <trkpt lat="59.9589123" lon="17.7039029">
        <ele>34.2642</ele>
        <time>2014-06-24T12:09:26Z</time>
      </trkpt>
      <trkpt lat="59.9589252" lon="17.7039141">
        <ele>34.2642</ele>
        <time>2014-06-24T12:09:27Z</time>
      </trkpt>
      <trkpt lat="59.9589388" lon="17.7039215">
        <ele>33.7834</ele>
        <time>2014-06-24T12:09:28Z</time>
      </trkpt>
      <trkpt lat="59.9589524" lon="17.7039292">
        <ele>33.7834</ele>
        <time>2014-06-24T12:09:29Z</time>
      </trkpt>
      <trkpt lat="59.9589662" lon="17.7039409">
        <ele>33.7834</ele>
        <time>2014-06-24T12:09:30Z</time>
      </trkpt>
      <trkpt lat="59.9589796" lon="17.7039514">
        <ele>34.2642</ele>
        <time>2014-06-24T12:09:31Z</time>
      </trkpt>
      <trkpt lat="59.9589926" lon="17.7039587">
        <ele>34.2642</ele>
        <time>2014-06-24T12:09:32Z</time>
      </trkpt>
      <trkpt lat="59.9590087" lon="17.7039655">
        <ele>34.7449</ele>
        <time>2014-06-24T12:09:33Z</time>
      </trkpt>
      <trkpt lat="59.9590211" lon="17.7039783">
        <ele>34.7449</ele>
        <time>2014-06-24T12:09:34Z</time>
      </trkpt>
      <trkpt lat="59.9590309" lon="17.703997">
        <ele>34.7449</ele>
        <time>2014-06-24T12:09:35Z</time>
      </trkpt>
      <trkpt lat="59.9590405" lon="17.7040126">
        <ele>34.7449</ele>
        <time>2014-06-24T12:09:36Z</time>
      </trkpt>
      <trkpt lat="59.9590498" lon="17.7040286">
        <ele>34.7449</ele>
        <time>2014-06-24T12:09:37Z</time>
      </trkpt>
      <trkpt lat="59.9590611" lon="17.7040474">
        <ele>34.7449</ele>
        <time>2014-06-24T12:09:38Z</time>
      </trkpt>
      <trkpt lat="59.9590767" lon="17.7040645">
        <ele>35.2255</ele>
        <time>2014-06-24T12:09:39Z</time>
      </trkpt>
      <trkpt lat="59.9590915" lon="17.7040752">
        <ele>35.2255</ele>
        <time>2014-06-24T12:09:40Z</time>
      </trkpt>
      <trkpt lat="59.9591061" lon="17.704086">
        <ele>35.2255</ele>
        <time>2014-06-24T12:09:41Z</time>
      </trkpt>
      <trkpt lat="59.9591197" lon="17.7040999">
        <ele>35.2255</ele>
        <time>2014-06-24T12:09:42Z</time>
      </trkpt>
      <trkpt lat="59.9591357" lon="17.7041115">
        <ele>35.2255</ele>
        <time>2014-06-24T12:09:43Z</time>
      </trkpt>
      <trkpt lat="59.95915" lon="17.7041256">
        <ele>35.2255</ele>
        <time>2014-06-24T12:09:44Z</time>
      </trkpt>
      <trkpt lat="59.9591634" lon="17.7041403">
        <ele>35.2255</ele>
        <time>2014-06-24T12:09:45Z</time>
      </trkpt>
      <trkpt lat="59.9591776" lon="17.7041564">
        <ele>35.2255</ele>
        <time>2014-06-24T12:09:46Z</time>
      </trkpt>
      <trkpt lat="59.9591922" lon="17.7041725">
        <ele>35.2255</ele>
        <time>2014-06-24T12:09:47Z</time>
      </trkpt>
      <trkpt lat="59.9592073" lon="17.7041881">
        <ele>35.2255</ele>
        <time>2014-06-24T12:09:48Z</time>
      </trkpt>
      <trkpt lat="59.9592184" lon="17.7042047">
        <ele>35.2255</ele>
        <time>2014-06-24T12:09:49Z</time>
      </trkpt>
      <trkpt lat="59.9592299" lon="17.7042218">
        <ele>35.2255</ele>
        <time>2014-06-24T12:09:50Z</time>
      </trkpt>
      <trkpt lat="59.9592417" lon="17.7042394">
        <ele>35.7061</ele>
        <time>2014-06-24T12:09:51Z</time>
      </trkpt>
      <trkpt lat="59.9592527" lon="17.704256">
        <ele>35.7061</ele>
        <time>2014-06-24T12:09:52Z</time>
      </trkpt>
      <trkpt lat="59.9592637" lon="17.704275">
        <ele>36.1868</ele>
        <time>2014-06-24T12:09:53Z</time>
      </trkpt>
      <trkpt lat="59.959275" lon="17.704294">
        <ele>36.1868</ele>
        <time>2014-06-24T12:09:54Z</time>
      </trkpt>
      <trkpt lat="59.959288" lon="17.7043147">
        <ele>36.6675</ele>
        <time>2014-06-24T12:09:55Z</time>
      </trkpt>
      <trkpt lat="59.9593017" lon="17.7043356">
        <ele>37.1481</ele>
        <time>2014-06-24T12:09:56Z</time>
      </trkpt>
      <trkpt lat="59.9593113" lon="17.704355">
        <ele>37.1481</ele>
        <time>2014-06-24T12:09:57Z</time>
      </trkpt>
      <trkpt lat="59.9593189" lon="17.7043734">
        <ele>37.1481</ele>
        <time>2014-06-24T12:09:58Z</time>
      </trkpt>
      <trkpt lat="59.9593278" lon="17.7043923">
        <ele>37.1481</ele>
        <time>2014-06-24T12:09:59Z</time>
      </trkpt>
      <trkpt lat="59.9593377" lon="17.7044121">
        <ele>37.1481</ele>
        <time>2014-06-24T12:10:00Z</time>
      </trkpt>
      <trkpt lat="59.9593486" lon="17.7044327">
        <ele>37.6287</ele>
        <time>2014-06-24T12:10:01Z</time>
      </trkpt>
      <trkpt lat="59.9593579" lon="17.7044523">
        <ele>37.6287</ele>
        <time>2014-06-24T12:10:02Z</time>
      </trkpt>
      <trkpt lat="59.9593698" lon="17.7044731">
        <ele>37.1481</ele>
        <time>2014-06-24T12:10:03Z</time>
      </trkpt>
      <trkpt lat="59.9593841" lon="17.7044948">
        <ele>37.1481</ele>
        <time>2014-06-24T12:10:04Z</time>
      </trkpt>
      <trkpt lat="59.9593952" lon="17.7045145">
        <ele>37.1481</ele>
        <time>2014-06-24T12:10:05Z</time>
      </trkpt>
      <trkpt lat="59.9594071" lon="17.7045342">
        <ele>37.6287</ele>
        <time>2014-06-24T12:10:06Z</time>
      </trkpt>
      <trkpt lat="59.9594179" lon="17.7045542">
        <ele>37.6287</ele>
        <time>2014-06-24T12:10:07Z</time>
      </trkpt>
      <trkpt lat="59.9594282" lon="17.7045746">
        <ele>38.1094</ele>
        <time>2014-06-24T12:10:08Z</time>
      </trkpt>
      <trkpt lat="59.959438" lon="17.7045939">
        <ele>37.6287</ele>
        <time>2014-06-24T12:10:09Z</time>
      </trkpt>
      <trkpt lat="59.9594484" lon="17.7046139">
        <ele>37.6287</ele>
        <time>2014-06-24T12:10:10Z</time>
      </trkpt>
      <trkpt lat="59.9594594" lon="17.7046325">
        <ele>37.6287</ele>
        <time>2014-06-24T12:10:11Z</time>
      </trkpt>
      <trkpt lat="59.9594718" lon="17.7046495">
        <ele>37.6287</ele>
        <time>2014-06-24T12:10:12Z</time>
      </trkpt>
      <trkpt lat="59.959482" lon="17.7046667">
        <ele>37.6287</ele>
        <time>2014-06-24T12:10:13Z</time>
      </trkpt>
      <trkpt lat="59.9594953" lon="17.7046842">
        <ele>38.1094</ele>
        <time>2014-06-24T12:10:14Z</time>
      </trkpt>
      <trkpt lat="59.9595079" lon="17.7047018">
        <ele>38.1094</ele>
        <time>2014-06-24T12:10:15Z</time>
      </trkpt>
      <trkpt lat="59.959522" lon="17.7047192">
        <ele>38.5901</ele>
        <time>2014-06-24T12:10:16Z</time>
      </trkpt>
      <trkpt lat="59.9595354" lon="17.7047382">
        <ele>39.0707</ele>
        <time>2014-06-24T12:10:17Z</time>
      </trkpt>
      <trkpt lat="59.9595481" lon="17.7047573">
        <ele>39.0707</ele>
        <time>2014-06-24T12:10:18Z</time>
      </trkpt>
      <trkpt lat="59.9595615" lon="17.7047752">
        <ele>39.5513</ele>
        <time>2014-06-24T12:10:19Z</time>
      </trkpt>
      <trkpt lat="59.9595756" lon="17.7047942">
        <ele>40.0321</ele>
        <time>2014-06-24T12:10:20Z</time>
      </trkpt>
      <trkpt lat="59.9595932" lon="17.7048135">
        <ele>40.9934</ele>
        <time>2014-06-24T12:10:21Z</time>
      </trkpt>
      <trkpt lat="59.9596065" lon="17.7048335">
        <ele>40.9934</ele>
        <time>2014-06-24T12:10:22Z</time>
      </trkpt>
      <trkpt lat="59.9596169" lon="17.7048531">
        <ele>41.474</ele>
        <time>2014-06-24T12:10:23Z</time>
      </trkpt>
      <trkpt lat="59.9596284" lon="17.7048745">
        <ele>41.474</ele>
        <time>2014-06-24T12:10:24Z</time>
      </trkpt>
      <trkpt lat="59.9596386" lon="17.7048956">
        <ele>41.474</ele>
        <time>2014-06-24T12:10:25Z</time>
      </trkpt>
      <trkpt lat="59.9596495" lon="17.7049164">
        <ele>41.474</ele>
        <time>2014-06-24T12:10:26Z</time>
      </trkpt>
      <trkpt lat="59.9596568" lon="17.7049403">
        <ele>41.474</ele>
        <time>2014-06-24T12:10:27Z</time>
      </trkpt>
      <trkpt lat="59.9596666" lon="17.7049627">
        <ele>41.474</ele>
        <time>2014-06-24T12:10:28Z</time>
      </trkpt>
      <trkpt lat="59.9596766" lon="17.7049852">
        <ele>41.9547</ele>
        <time>2014-06-24T12:10:29Z</time>
      </trkpt>
      <trkpt lat="59.9596859" lon="17.705006">
        <ele>41.9547</ele>
        <time>2014-06-24T12:10:30Z</time>
      </trkpt>
      <trkpt lat="59.9596939" lon="17.705029">
        <ele>42.4354</ele>
        <time>2014-06-24T12:10:31Z</time>
      </trkpt>
      <trkpt lat="59.9597091" lon="17.7050577">
        <ele>43.3966</ele>
        <time>2014-06-24T12:10:32Z</time>
      </trkpt>
      <trkpt lat="59.9597142" lon="17.7050889">
        <ele>43.8773</ele>
        <time>2014-06-24T12:10:33Z</time>
      </trkpt>
      <trkpt lat="59.959711" lon="17.7051186">
        <ele>43.8773</ele>
        <time>2014-06-24T12:10:34Z</time>
      </trkpt>
      <trkpt lat="59.959706" lon="17.705148">
        <ele>43.3966</ele>
        <time>2014-06-24T12:10:35Z</time>
      </trkpt>
      <trkpt lat="59.9596982" lon="17.7051777">
        <ele>42.916</ele>
        <time>2014-06-24T12:10:36Z</time>
      </trkpt>
      <trkpt lat="59.9596919" lon="17.705205">
        <ele>42.916</ele>
        <time>2014-06-24T12:10:37Z</time>
      </trkpt>
      <trkpt lat="59.9596838" lon="17.7052288">
        <ele>42.4354</ele>
        <time>2014-06-24T12:10:38Z</time>
      </trkpt>
      <trkpt lat="59.9596776" lon="17.7052527">
        <ele>42.4354</ele>
        <time>2014-06-24T12:10:39Z</time>
      </trkpt>
      <trkpt lat="59.9596707" lon="17.7052753">
        <ele>41.9547</ele>
        <time>2014-06-24T12:10:40Z</time>
      </trkpt>
      <trkpt lat="59.9596625" lon="17.7053032">
        <ele>41.9547</ele>
        <time>2014-06-24T12:10:41Z</time>
      </trkpt>
      <trkpt lat="59.9596543" lon="17.705333">
        <ele>40.9934</ele>
        <time>2014-06-24T12:10:42Z</time>
      </trkpt>
      <trkpt lat="59.9596524" lon="17.7053546">
        <ele>40.9934</ele>
        <time>2014-06-24T12:10:43Z</time>
      </trkpt>
      <trkpt lat="59.9596506" lon="17.705383">
        <ele>40.9934</ele>
        <time>2014-06-24T12:10:44Z</time>
      </trkpt>
      <trkpt lat="59.9596537" lon="17.7054127">
        <ele>40.9934</ele>
        <time>2014-06-24T12:10:45Z</time>
      </trkpt>
      <trkpt lat="59.9596563" lon="17.7054448">
        <ele>41.474</ele>
        <time>2014-06-24T12:10:46Z</time>
      </trkpt>
      <trkpt lat="59.9596524" lon="17.70548">
        <ele>41.474</ele>
        <time>2014-06-24T12:10:47Z</time>
      </trkpt>
      <trkpt lat="59.959649" lon="17.7055112">
        <ele>41.9547</ele>
        <time>2014-06-24T12:10:48Z</time>
      </trkpt>
      <trkpt lat="59.9596485" lon="17.7055376">
        <ele>41.9547</ele>
        <time>2014-06-24T12:10:49Z</time>
      </trkpt>
      <trkpt lat="59.9596501" lon="17.7055692">
        <ele>41.9547</ele>
        <time>2014-06-24T12:10:50Z</time>
      </trkpt>
      <trkpt lat="59.9596462" lon="17.7056066">
        <ele>41.9547</ele>
        <time>2014-06-24T12:10:51Z</time>
      </trkpt>
      <trkpt lat="59.9596428" lon="17.705635">
        <ele>41.9547</ele>
        <time>2014-06-24T12:10:52Z</time>
      </trkpt>
      <trkpt lat="59.9596366" lon="17.7056607">
        <ele>41.474</ele>
        <time>2014-06-24T12:10:53Z</time>
      </trkpt>
      <trkpt lat="59.9596273" lon="17.7056868">
        <ele>40.9934</ele>
        <time>2014-06-24T12:10:54Z</time>
      </trkpt>
      <trkpt lat="59.9596198" lon="17.705709">
        <ele>40.9934</ele>
        <time>2014-06-24T12:10:55Z</time>
      </trkpt>
      <trkpt lat="59.9596112" lon="17.7057294">
        <ele>40.5128</ele>
        <time>2014-06-24T12:10:56Z</time>
      </trkpt>
      <trkpt lat="59.9596013" lon="17.7057505">
        <ele>40.0321</ele>
        <time>2014-06-24T12:10:57Z</time>
      </trkpt>
      <trkpt lat="59.9595911" lon="17.7057728">
        <ele>40.0321</ele>
        <time>2014-06-24T12:10:58Z</time>
      </trkpt>
      <trkpt lat="59.9595806" lon="17.7057972">
        <ele>39.5513</ele>
        <time>2014-06-24T12:10:59Z</time>
      </trkpt>
      <trkpt lat="59.9595698" lon="17.7058219">
        <ele>39.5513</ele>
        <time>2014-06-24T12:11:00Z</time>
      </trkpt>
      <trkpt lat="59.9595592" lon="17.7058458">
        <ele>40.0321</ele>
        <time>2014-06-24T12:11:01Z</time>
      </trkpt>
      <trkpt lat="59.9595514" lon="17.7058613">
        <ele>40.0321</ele>
        <time>2014-06-24T12:11:02Z</time>
      </trkpt>
      <trkpt lat="59.9595439" lon="17.7058784">
        <ele>40.0321</ele>
        <time>2014-06-24T12:11:03Z</time>
      </trkpt>
      <trkpt lat="59.9595376" lon="17.7059027">
        <ele>40.5128</ele>
        <time>2014-06-24T12:11:04Z</time>
      </trkpt>
      <trkpt lat="59.9595318" lon="17.7059281">
        <ele>40.0321</ele>
        <time>2014-06-24T12:11:05Z</time>
      </trkpt>
      <trkpt lat="59.9595271" lon="17.7059463">
        <ele>40.0321</ele>
        <time>2014-06-24T12:11:06Z</time>
      </trkpt>
      <trkpt lat="59.9595199" lon="17.7059634">
        <ele>40.5128</ele>
        <time>2014-06-24T12:11:07Z</time>
      </trkpt>
      <trkpt lat="59.9595124" lon="17.7059814">
        <ele>40.5128</ele>
        <time>2014-06-24T12:11:08Z</time>
      </trkpt>
      <trkpt lat="59.9595048" lon="17.7059995">
        <ele>40.5128</ele>
        <time>2014-06-24T12:11:09Z</time>
      </trkpt>
      <trkpt lat="59.9594972" lon="17.7060225">
        <ele>40.5128</ele>
        <time>2014-06-24T12:11:10Z</time>
      </trkpt>
      <trkpt lat="59.9594875" lon="17.7060474">
        <ele>40.5128</ele>
        <time>2014-06-24T12:11:11Z</time>
      </trkpt>
      <trkpt lat="59.9594785" lon="17.7060727">
        <ele>40.9934</ele>
        <time>2014-06-24T12:11:12Z</time>
      </trkpt>
      <trkpt lat="59.9594708" lon="17.7060949">
        <ele>40.9934</ele>
        <time>2014-06-24T12:11:13Z</time>
      </trkpt>
      <trkpt lat="59.9594606" lon="17.7061179">
        <ele>40.9934</ele>
        <time>2014-06-24T12:11:14Z</time>
      </trkpt>
      <trkpt lat="59.9594512" lon="17.7061421">
        <ele>40.9934</ele>
        <time>2014-06-24T12:11:15Z</time>
      </trkpt>
      <trkpt lat="59.9594421" lon="17.7061668">
        <ele>40.9934</ele>
        <time>2014-06-24T12:11:16Z</time>
      </trkpt>
      <trkpt lat="59.9594335" lon="17.7061904">
        <ele>40.9934</ele>
        <time>2014-06-24T12:11:17Z</time>
      </trkpt>
      <trkpt lat="59.9594268" lon="17.7062104">
        <ele>40.9934</ele>
        <time>2014-06-24T12:11:18Z</time>
      </trkpt>
      <trkpt lat="59.9594188" lon="17.7062349">
        <ele>40.9934</ele>
        <time>2014-06-24T12:11:19Z</time>
      </trkpt>
      <trkpt lat="59.9594091" lon="17.7062608">
        <ele>40.9934</ele>
        <time>2014-06-24T12:11:20Z</time>
      </trkpt>
      <trkpt lat="59.9594013" lon="17.7062866">
        <ele>40.9934</ele>
        <time>2014-06-24T12:11:21Z</time>
      </trkpt>
      <trkpt lat="59.9593941" lon="17.7063124">
        <ele>40.9934</ele>
        <time>2014-06-24T12:11:22Z</time>
      </trkpt>
      <trkpt lat="59.9593857" lon="17.7063349">
        <ele>40.5128</ele>
        <time>2014-06-24T12:11:23Z</time>
      </trkpt>
      <trkpt lat="59.9593765" lon="17.7063553">
        <ele>40.5128</ele>
        <time>2014-06-24T12:11:24Z</time>
      </trkpt>
      <trkpt lat="59.959368" lon="17.706376">
        <ele>40.5128</ele>
        <time>2014-06-24T12:11:25Z</time>
      </trkpt>
      <trkpt lat="59.959359" lon="17.7063983">
        <ele>40.5128</ele>
        <time>2014-06-24T12:11:26Z</time>
      </trkpt>
      <trkpt lat="59.9593527" lon="17.7064216">
        <ele>40.9934</ele>
        <time>2014-06-24T12:11:27Z</time>
      </trkpt>
      <trkpt lat="59.9593456" lon="17.706443">
        <ele>40.9934</ele>
        <time>2014-06-24T12:11:28Z</time>
      </trkpt>
      <trkpt lat="59.9593356" lon="17.7064628">
        <ele>40.9934</ele>
        <time>2014-06-24T12:11:29Z</time>
      </trkpt>
      <trkpt lat="59.9593257" lon="17.7064835">
        <ele>40.9934</ele>
        <time>2014-06-24T12:11:30Z</time>
      </trkpt>
      <trkpt lat="59.9593157" lon="17.7065059">
        <ele>40.9934</ele>
        <time>2014-06-24T12:11:31Z</time>
      </trkpt>
      <trkpt lat="59.9593067" lon="17.7065306">
        <ele>40.9934</ele>
        <time>2014-06-24T12:11:32Z</time>
      </trkpt>
      <trkpt lat="59.9592999" lon="17.706555">
        <ele>40.9934</ele>
        <time>2014-06-24T12:11:33Z</time>
      </trkpt>
      <trkpt lat="59.9592916" lon="17.7065791">
        <ele>40.9934</ele>
        <time>2014-06-24T12:11:34Z</time>
      </trkpt>
      <trkpt lat="59.9592818" lon="17.7066034">
        <ele>40.9934</ele>
        <time>2014-06-24T12:11:35Z</time>
      </trkpt>
      <trkpt lat="59.9592728" lon="17.7066265">
        <ele>40.9934</ele>
        <time>2014-06-24T12:11:36Z</time>
      </trkpt>
      <trkpt lat="59.9592639" lon="17.7066507">
        <ele>40.9934</ele>
        <time>2014-06-24T12:11:37Z</time>
      </trkpt>
      <trkpt lat="59.9592564" lon="17.7066736">
        <ele>40.9934</ele>
        <time>2014-06-24T12:11:38Z</time>
      </trkpt>
      <trkpt lat="59.9592487" lon="17.7066952">
        <ele>40.9934</ele>
        <time>2014-06-24T12:11:39Z</time>
      </trkpt>
      <trkpt lat="59.9592411" lon="17.7067175">
        <ele>40.9934</ele>
        <time>2014-06-24T12:11:40Z</time>
      </trkpt>
      <trkpt lat="59.9592339" lon="17.7067399">
        <ele>40.9934</ele>
        <time>2014-06-24T12:11:41Z</time>
      </trkpt>
      <trkpt lat="59.9592269" lon="17.7067627">
        <ele>40.9934</ele>
        <time>2014-06-24T12:11:42Z</time>
      </trkpt>
      <trkpt lat="59.9592179" lon="17.7067897">
        <ele>40.5128</ele>
        <time>2014-06-24T12:11:43Z</time>
      </trkpt>
      <trkpt lat="59.9592107" lon="17.7068149">
        <ele>40.5128</ele>
        <time>2014-06-24T12:11:44Z</time>
      </trkpt>
      <trkpt lat="59.9592038" lon="17.7068408">
        <ele>40.0321</ele>
        <time>2014-06-24T12:11:45Z</time>
      </trkpt>
      <trkpt lat="59.9591958" lon="17.7068606">
        <ele>40.0321</ele>
        <time>2014-06-24T12:11:46Z</time>
      </trkpt>
      <trkpt lat="59.9591888" lon="17.7068824">
        <ele>40.0321</ele>
        <time>2014-06-24T12:11:47Z</time>
      </trkpt>
      <trkpt lat="59.9591824" lon="17.7069072">
        <ele>40.0321</ele>
        <time>2014-06-24T12:11:48Z</time>
      </trkpt>
      <trkpt lat="59.9591764" lon="17.7069284">
        <ele>40.0321</ele>
        <time>2014-06-24T12:11:49Z</time>
      </trkpt>
      <trkpt lat="59.9591683" lon="17.7069516">
        <ele>40.0321</ele>
        <time>2014-06-24T12:11:50Z</time>
      </trkpt>
      <trkpt lat="59.9591625" lon="17.7069695">
        <ele>40.0321</ele>
        <time>2014-06-24T12:11:51Z</time>
      </trkpt>
      <trkpt lat="59.9591558" lon="17.7069936">
        <ele>40.0321</ele>
        <time>2014-06-24T12:11:52Z</time>
      </trkpt>
      <trkpt lat="59.9591495" lon="17.7070196">
        <ele>40.0321</ele>
        <time>2014-06-24T12:11:53Z</time>
      </trkpt>
      <trkpt lat="59.9591434" lon="17.707044">
        <ele>40.0321</ele>
        <time>2014-06-24T12:11:54Z</time>
      </trkpt>
      <trkpt lat="59.9591358" lon="17.707066">
        <ele>40.0321</ele>
        <time>2014-06-24T12:11:55Z</time>
      </trkpt>
      <trkpt lat="59.9591299" lon="17.70709">
        <ele>40.0321</ele>
        <time>2014-06-24T12:11:56Z</time>
      </trkpt>
      <trkpt lat="59.9591269" lon="17.707108">
        <ele>40.0321</ele>
        <time>2014-06-24T12:11:57Z</time>
      </trkpt>
      <trkpt lat="59.9591211" lon="17.7071287">
        <ele>40.0321</ele>
        <time>2014-06-24T12:11:58Z</time>
      </trkpt>
      <trkpt lat="59.9591123" lon="17.7071558">
        <ele>40.0321</ele>
        <time>2014-06-24T12:11:59Z</time>
      </trkpt>
      <trkpt lat="59.959103" lon="17.707178">
        <ele>39.5513</ele>
        <time>2014-06-24T12:12:00Z</time>
      </trkpt>
      <trkpt lat="59.9590943" lon="17.7072009">
        <ele>39.5513</ele>
        <time>2014-06-24T12:12:01Z</time>
      </trkpt>
      <trkpt lat="59.9590843" lon="17.7072333">
        <ele>39.5513</ele>
        <time>2014-06-24T12:12:02Z</time>
      </trkpt>
      <trkpt lat="59.9590751" lon="17.7072662">
        <ele>39.5513</ele>
        <time>2014-06-24T12:12:03Z</time>
      </trkpt>
      <trkpt lat="59.9590694" lon="17.7072942">
        <ele>39.0707</ele>
        <time>2014-06-24T12:12:04Z</time>
      </trkpt>
      <trkpt lat="59.9590642" lon="17.7073175">
        <ele>38.5901</ele>
        <time>2014-06-24T12:12:05Z</time>
      </trkpt>
      <trkpt lat="59.9590604" lon="17.7073393">
        <ele>38.5901</ele>
        <time>2014-06-24T12:12:06Z</time>
      </trkpt>
      <trkpt lat="59.9590569" lon="17.7073584">
        <ele>38.5901</ele>
        <time>2014-06-24T12:12:07Z</time>
      </trkpt>
      <trkpt lat="59.9590517" lon="17.7073852">
        <ele>37.6287</ele>
        <time>2014-06-24T12:12:08Z</time>
      </trkpt>
      <trkpt lat="59.9590495" lon="17.7074086">
        <ele>37.6287</ele>
        <time>2014-06-24T12:12:09Z</time>
      </trkpt>
      <trkpt lat="59.9590511" lon="17.7074317">
        <ele>38.1094</ele>
        <time>2014-06-24T12:12:10Z</time>
      </trkpt>
      <trkpt lat="59.9590513" lon="17.7074599">
        <ele>38.1094</ele>
        <time>2014-06-24T12:12:11Z</time>
      </trkpt>
      <trkpt lat="59.9590498" lon="17.7074916">
        <ele>37.6287</ele>
        <time>2014-06-24T12:12:12Z</time>
      </trkpt>
      <trkpt lat="59.959046" lon="17.707519">
        <ele>37.6287</ele>
        <time>2014-06-24T12:12:13Z</time>
      </trkpt>
      <trkpt lat="59.9590394" lon="17.7075421">
        <ele>37.1481</ele>
        <time>2014-06-24T12:12:14Z</time>
      </trkpt>
      <trkpt lat="59.9590315" lon="17.707565">
        <ele>36.6675</ele>
        <time>2014-06-24T12:12:15Z</time>
      </trkpt>
      <trkpt lat="59.9590252" lon="17.7075918">
        <ele>36.6675</ele>
        <time>2014-06-24T12:12:16Z</time>
      </trkpt>
      <trkpt lat="59.9590206" lon="17.7076199">
        <ele>36.6675</ele>
        <time>2014-06-24T12:12:17Z</time>
      </trkpt>
      <trkpt lat="59.9590092" lon="17.7076475">
        <ele>36.6675</ele>
        <time>2014-06-24T12:12:18Z</time>
      </trkpt>
      <trkpt lat="59.9589983" lon="17.7076641">
        <ele>36.6675</ele>
        <time>2014-06-24T12:12:19Z</time>
      </trkpt>
      <trkpt lat="59.9589909" lon="17.7076873">
        <ele>36.6675</ele>
        <time>2014-06-24T12:12:20Z</time>
      </trkpt>
      <trkpt lat="59.9589822" lon="17.7077063">
        <ele>36.6675</ele>
        <time>2014-06-24T12:12:21Z</time>
      </trkpt>
      <trkpt lat="59.958972" lon="17.7077397">
        <ele>35.7061</ele>
        <time>2014-06-24T12:12:22Z</time>
      </trkpt>
      <trkpt lat="59.9589615" lon="17.7077588">
        <ele>36.1868</ele>
        <time>2014-06-24T12:12:23Z</time>
      </trkpt>
      <trkpt lat="59.9589545" lon="17.707782">
        <ele>36.6675</ele>
        <time>2014-06-24T12:12:24Z</time>
      </trkpt>
      <trkpt lat="59.9589523" lon="17.7078277">
        <ele>37.6287</ele>
        <time>2014-06-24T12:12:25Z</time>
      </trkpt>
      <trkpt lat="59.958943" lon="17.7078648">
        <ele>38.1094</ele>
        <time>2014-06-24T12:12:26Z</time>
      </trkpt>
      <trkpt lat="59.95893" lon="17.7078917">
        <ele>38.5901</ele>
        <time>2014-06-24T12:12:27Z</time>
      </trkpt>
      <trkpt lat="59.9589222" lon="17.7079177">
        <ele>39.0707</ele>
        <time>2014-06-24T12:12:28Z</time>
      </trkpt>
      <trkpt lat="59.9589174" lon="17.7079415">
        <ele>40.0321</ele>
        <time>2014-06-24T12:12:29Z</time>
      </trkpt>
      <trkpt lat="59.9589189" lon="17.7079634">
        <ele>40.9934</ele>
        <time>2014-06-24T12:12:30Z</time>
      </trkpt>
      <trkpt lat="59.9589171" lon="17.707993">
        <ele>40.5128</ele>
        <time>2014-06-24T12:12:31Z</time>
      </trkpt>
      <trkpt lat="59.9589108" lon="17.7080271">
        <ele>40.0321</ele>
        <time>2014-06-24T12:12:32Z</time>
      </trkpt>
      <trkpt lat="59.9589065" lon="17.7080572">
        <ele>40.0321</ele>
        <time>2014-06-24T12:12:33Z</time>
      </trkpt>
      <trkpt lat="59.958901" lon="17.7080816">
        <ele>40.0321</ele>
        <time>2014-06-24T12:12:34Z</time>
      </trkpt>
      <trkpt lat="59.958897" lon="17.7081072">
        <ele>39.5513</ele>
        <time>2014-06-24T12:12:35Z</time>
      </trkpt>
      <trkpt lat="59.9588933" lon="17.7081348">
        <ele>40.0321</ele>
        <time>2014-06-24T12:12:36Z</time>
      </trkpt>
      <trkpt lat="59.9588881" lon="17.7081649">
        <ele>40.0321</ele>
        <time>2014-06-24T12:12:37Z</time>
      </trkpt>
      <trkpt lat="59.9588842" lon="17.7081929">
        <ele>40.0321</ele>
        <time>2014-06-24T12:12:38Z</time>
      </trkpt>
      <trkpt lat="59.958883" lon="17.7082177">
        <ele>40.9934</ele>
        <time>2014-06-24T12:12:39Z</time>
      </trkpt>
      <trkpt lat="59.9588821" lon="17.7082411">
        <ele>41.474</ele>
        <time>2014-06-24T12:12:40Z</time>
      </trkpt>
      <trkpt lat="59.9588787" lon="17.7082663">
        <ele>41.9547</ele>
        <time>2014-06-24T12:12:41Z</time>
      </trkpt>
      <trkpt lat="59.958873" lon="17.708297">
        <ele>41.9547</ele>
        <time>2014-06-24T12:12:42Z</time>
      </trkpt>
      <trkpt lat="59.9588684" lon="17.7083235">
        <ele>41.474</ele>
        <time>2014-06-24T12:12:43Z</time>
      </trkpt>
      <trkpt lat="59.9588632" lon="17.7083514">
        <ele>41.474</ele>
        <time>2014-06-24T12:12:44Z</time>
      </trkpt>
      <trkpt lat="59.9588568" lon="17.7083792">
        <ele>41.474</ele>
        <time>2014-06-24T12:12:45Z</time>
      </trkpt>
      <trkpt lat="59.9588524" lon="17.7084051">
        <ele>41.9547</ele>
        <time>2014-06-24T12:12:46Z</time>
      </trkpt>
      <trkpt lat="59.9588486" lon="17.7084334">
        <ele>42.4354</ele>
        <time>2014-06-24T12:12:47Z</time>
      </trkpt>
      <trkpt lat="59.9588443" lon="17.7084628">
        <ele>41.9547</ele>
        <time>2014-06-24T12:12:48Z</time>
      </trkpt>
      <trkpt lat="59.9588414" lon="17.7084883">
        <ele>41.474</ele>
        <time>2014-06-24T12:12:49Z</time>
      </trkpt>
      <trkpt lat="59.9588372" lon="17.7085161">
        <ele>41.474</ele>
        <time>2014-06-24T12:12:50Z</time>
      </trkpt>
      <trkpt lat="59.958834" lon="17.7085442">
        <ele>41.474</ele>
        <time>2014-06-24T12:12:51Z</time>
      </trkpt>
      <trkpt lat="59.9588311" lon="17.7085747">
        <ele>41.474</ele>
        <time>2014-06-24T12:12:52Z</time>
      </trkpt>
      <trkpt lat="59.9588281" lon="17.7086016">
        <ele>41.474</ele>
        <time>2014-06-24T12:12:53Z</time>
      </trkpt>
      <trkpt lat="59.9588233" lon="17.7086275">
        <ele>41.474</ele>
        <time>2014-06-24T12:12:54Z</time>
      </trkpt>
      <trkpt lat="59.9588196" lon="17.7086532">
        <ele>41.474</ele>
        <time>2014-06-24T12:12:55Z</time>
      </trkpt>
      <trkpt lat="59.9588171" lon="17.7086793">
        <ele>41.474</ele>
        <time>2014-06-24T12:12:56Z</time>
      </trkpt>
      <trkpt lat="59.9588139" lon="17.7087078">
        <ele>41.9547</ele>
        <time>2014-06-24T12:12:57Z</time>
      </trkpt>
      <trkpt lat="59.9588133" lon="17.708733">
        <ele>41.9547</ele>
        <time>2014-06-24T12:12:58Z</time>
      </trkpt>
      <trkpt lat="59.9588086" lon="17.7087576">
        <ele>41.9547</ele>
        <time>2014-06-24T12:12:59Z</time>
      </trkpt>
      <trkpt lat="59.9588046" lon="17.7087824">
        <ele>41.9547</ele>
        <time>2014-06-24T12:13:00Z</time>
      </trkpt>
      <trkpt lat="59.9588047" lon="17.7088089">
        <ele>42.4354</ele>
        <time>2014-06-24T12:13:01Z</time>
      </trkpt>
      <trkpt lat="59.9588026" lon="17.7088353">
        <ele>42.916</ele>
        <time>2014-06-24T12:13:02Z</time>
      </trkpt>
      <trkpt lat="59.9587974" lon="17.7088611">
        <ele>42.916</ele>
        <time>2014-06-24T12:13:03Z</time>
      </trkpt>
      <trkpt lat="59.9587915" lon="17.7088866">
        <ele>42.916</ele>
        <time>2014-06-24T12:13:04Z</time>
      </trkpt>
      <trkpt lat="59.9587851" lon="17.7089148">
        <ele>43.3966</ele>
        <time>2014-06-24T12:13:05Z</time>
      </trkpt>
      <trkpt lat="59.9587829" lon="17.7089405">
        <ele>43.3966</ele>
        <time>2014-06-24T12:13:06Z</time>
      </trkpt>
      <trkpt lat="59.9587813" lon="17.7089664">
        <ele>43.3966</ele>
        <time>2014-06-24T12:13:07Z</time>
      </trkpt>
      <trkpt lat="59.9587783" lon="17.7089925">
        <ele>43.3966</ele>
        <time>2014-06-24T12:13:08Z</time>
      </trkpt>
      <trkpt lat="59.9587734" lon="17.70902">
        <ele>43.3966</ele>
        <time>2014-06-24T12:13:09Z</time>
      </trkpt>
      <trkpt lat="59.9587689" lon="17.7090472">
        <ele>43.8773</ele>
        <time>2014-06-24T12:13:10Z</time>
      </trkpt>
      <trkpt lat="59.9587632" lon="17.7090773">
        <ele>44.358</ele>
        <time>2014-06-24T12:13:11Z</time>
      </trkpt>
      <trkpt lat="59.958756" lon="17.7091046">
        <ele>44.358</ele>
        <time>2014-06-24T12:13:12Z</time>
      </trkpt>
      <trkpt lat="59.9587495" lon="17.7091283">
        <ele>44.8386</ele>
        <time>2014-06-24T12:13:13Z</time>
      </trkpt>
      <trkpt lat="59.9587442" lon="17.7091542">
        <ele>44.8386</ele>
        <time>2014-06-24T12:13:14Z</time>
      </trkpt>
      <trkpt lat="59.9587399" lon="17.7091807">
        <ele>45.3192</ele>
        <time>2014-06-24T12:13:15Z</time>
      </trkpt>
      <trkpt lat="59.9587353" lon="17.7092077">
        <ele>45.3192</ele>
        <time>2014-06-24T12:13:16Z</time>
      </trkpt>
      <trkpt lat="59.9587295" lon="17.7092323">
        <ele>45.3192</ele>
        <time>2014-06-24T12:13:17Z</time>
      </trkpt>
      <trkpt lat="59.9587219" lon="17.7092586">
        <ele>45.3192</ele>
        <time>2014-06-24T12:13:18Z</time>
      </trkpt>
      <trkpt lat="59.9587161" lon="17.7092855">
        <ele>45.3192</ele>
        <time>2014-06-24T12:13:19Z</time>
      </trkpt>
      <trkpt lat="59.9587143" lon="17.7093078">
        <ele>45.7999</ele>
        <time>2014-06-24T12:13:20Z</time>
      </trkpt>
      <trkpt lat="59.9587112" lon="17.7093352">
        <ele>45.7999</ele>
        <time>2014-06-24T12:13:21Z</time>
      </trkpt>
      <trkpt lat="59.9587098" lon="17.7093595">
        <ele>45.7999</ele>
        <time>2014-06-24T12:13:22Z</time>
      </trkpt>
      <trkpt lat="59.9587089" lon="17.7093777">
        <ele>46.2806</ele>
        <time>2014-06-24T12:13:23Z</time>
      </trkpt>
      <trkpt lat="59.9587046" lon="17.7094025">
        <ele>45.7999</ele>
        <time>2014-06-24T12:13:24Z</time>
      </trkpt>
      <trkpt lat="59.9587009" lon="17.7094248">
        <ele>46.7612</ele>
        <time>2014-06-24T12:13:25Z</time>
      </trkpt>
      <trkpt lat="59.9586954" lon="17.7094502">
        <ele>47.7225</ele>
        <time>2014-06-24T12:13:26Z</time>
      </trkpt>
      <trkpt lat="59.9586907" lon="17.7094847">
        <ele>48.2034</ele>
        <time>2014-06-24T12:13:27Z</time>
      </trkpt>
      <trkpt lat="59.958686" lon="17.7095157">
        <ele>48.684</ele>
        <time>2014-06-24T12:13:28Z</time>
      </trkpt>
      <trkpt lat="59.9586845" lon="17.7095461">
        <ele>48.684</ele>
        <time>2014-06-24T12:13:29Z</time>
      </trkpt>
      <trkpt lat="59.9586837" lon="17.7095753">
        <ele>47.7225</ele>
        <time>2014-06-24T12:13:30Z</time>
      </trkpt>
      <trkpt lat="59.9586797" lon="17.7096056">
        <ele>47.2418</ele>
        <time>2014-06-24T12:13:31Z</time>
      </trkpt>
      <trkpt lat="59.9586751" lon="17.7096304">
        <ele>47.2418</ele>
        <time>2014-06-24T12:13:32Z</time>
      </trkpt>
      <trkpt lat="59.9586732" lon="17.7096563">
        <ele>47.2418</ele>
        <time>2014-06-24T12:13:33Z</time>
      </trkpt>
      <trkpt lat="59.9586749" lon="17.7096837">
        <ele>47.2418</ele>
        <time>2014-06-24T12:13:34Z</time>
      </trkpt>
      <trkpt lat="59.9586746" lon="17.7097029">
        <ele>47.2418</ele>
        <time>2014-06-24T12:13:35Z</time>
      </trkpt>
      <trkpt lat="59.9586732" lon="17.7097265">
        <ele>46.7612</ele>
        <time>2014-06-24T12:13:36Z</time>
      </trkpt>
      <trkpt lat="59.9586706" lon="17.709751">
        <ele>46.7612</ele>
        <time>2014-06-24T12:13:37Z</time>
      </trkpt>
      <trkpt lat="59.9586695" lon="17.7097779">
        <ele>46.2806</ele>
        <time>2014-06-24T12:13:38Z</time>
      </trkpt>
      <trkpt lat="59.9586699" lon="17.7098004">
        <ele>46.7612</ele>
        <time>2014-06-24T12:13:39Z</time>
      </trkpt>
      <trkpt lat="59.9586705" lon="17.7098304">
        <ele>46.7612</ele>
        <time>2014-06-24T12:13:40Z</time>
      </trkpt>
      <trkpt lat="59.9586689" lon="17.7098623">
        <ele>46.2806</ele>
        <time>2014-06-24T12:13:41Z</time>
      </trkpt>
      <trkpt lat="59.9586622" lon="17.7098978">
        <ele>46.2806</ele>
        <time>2014-06-24T12:13:42Z</time>
      </trkpt>
      <trkpt lat="59.9586508" lon="17.7099382">
        <ele>46.2806</ele>
        <time>2014-06-24T12:13:43Z</time>
      </trkpt>
      <trkpt lat="59.9586424" lon="17.7099732">
        <ele>45.7999</ele>
        <time>2014-06-24T12:13:44Z</time>
      </trkpt>
      <trkpt lat="59.9586346" lon="17.7100063">
        <ele>46.2806</ele>
        <time>2014-06-24T12:13:45Z</time>
      </trkpt>
      <trkpt lat="59.9586316" lon="17.7100334">
        <ele>45.7999</ele>
        <time>2014-06-24T12:13:46Z</time>
      </trkpt>
      <trkpt lat="59.9586291" lon="17.7100609">
        <ele>45.3192</ele>
        <time>2014-06-24T12:13:47Z</time>
      </trkpt>
      <trkpt lat="59.9586285" lon="17.7100893">
        <ele>45.3192</ele>
        <time>2014-06-24T12:13:48Z</time>
      </trkpt>
      <trkpt lat="59.9586285" lon="17.7101142">
        <ele>44.8386</ele>
        <time>2014-06-24T12:13:49Z</time>
      </trkpt>
      <trkpt lat="59.9586263" lon="17.7101406">
        <ele>44.8386</ele>
        <time>2014-06-24T12:13:50Z</time>
      </trkpt>
      <trkpt lat="59.9586242" lon="17.7101669">
        <ele>44.358</ele>
        <time>2014-06-24T12:13:51Z</time>
      </trkpt>
      <trkpt lat="59.9586226" lon="17.7101898">
        <ele>44.358</ele>
        <time>2014-06-24T12:13:52Z</time>
      </trkpt>
      <trkpt lat="59.95862" lon="17.7102085">
        <ele>43.8773</ele>
        <time>2014-06-24T12:13:53Z</time>
      </trkpt>
      <trkpt lat="59.9586188" lon="17.7102331">
        <ele>43.8773</ele>
        <time>2014-06-24T12:13:54Z</time>
      </trkpt>
      <trkpt lat="59.9586174" lon="17.7102577">
        <ele>43.3966</ele>
        <time>2014-06-24T12:13:55Z</time>
      </trkpt>
      <trkpt lat="59.9586171" lon="17.7102752">
        <ele>42.916</ele>
        <time>2014-06-24T12:13:56Z</time>
      </trkpt>
      <trkpt lat="59.95862" lon="17.7102914">
        <ele>42.916</ele>
        <time>2014-06-24T12:13:57Z</time>
      </trkpt>
      <trkpt lat="59.9586214" lon="17.7103147">
        <ele>42.916</ele>
        <time>2014-06-24T12:13:58Z</time>
      </trkpt>
      <trkpt lat="59.9586161" lon="17.7103426">
        <ele>42.916</ele>
        <time>2014-06-24T12:13:59Z</time>
      </trkpt>
      <trkpt lat="59.9586104" lon="17.7103707">
        <ele>42.4354</ele>
        <time>2014-06-24T12:14:00Z</time>
      </trkpt>
      <trkpt lat="59.9586058" lon="17.7103999">
        <ele>42.4354</ele>
        <time>2014-06-24T12:14:01Z</time>
      </trkpt>
      <trkpt lat="59.9586043" lon="17.7104272">
        <ele>42.4354</ele>
        <time>2014-06-24T12:14:02Z</time>
      </trkpt>
      <trkpt lat="59.9586012" lon="17.7104551">
        <ele>41.9547</ele>
        <time>2014-06-24T12:14:03Z</time>
      </trkpt>
      <trkpt lat="59.9585972" lon="17.710484">
        <ele>42.4354</ele>
        <time>2014-06-24T12:14:04Z</time>
      </trkpt>
      <trkpt lat="59.9585917" lon="17.7105188">
        <ele>42.916</ele>
        <time>2014-06-24T12:14:05Z</time>
      </trkpt>
      <trkpt lat="59.9585915" lon="17.7105442">
        <ele>42.916</ele>
        <time>2014-06-24T12:14:06Z</time>
      </trkpt>
      <trkpt lat="59.9585907" lon="17.7105683">
        <ele>42.4354</ele>
        <time>2014-06-24T12:14:07Z</time>
      </trkpt>
      <trkpt lat="59.9585881" lon="17.7105933">
        <ele>42.4354</ele>
        <time>2014-06-24T12:14:08Z</time>
      </trkpt>
      <trkpt lat="59.9585859" lon="17.7106213">
        <ele>42.4354</ele>
        <time>2014-06-24T12:14:09Z</time>
      </trkpt>
      <trkpt lat="59.9585849" lon="17.7106507">
        <ele>42.4354</ele>
        <time>2014-06-24T12:14:10Z</time>
      </trkpt>
      <trkpt lat="59.9585833" lon="17.7106804">
        <ele>42.4354</ele>
        <time>2014-06-24T12:14:11Z</time>
      </trkpt>
      <trkpt lat="59.9585809" lon="17.7107115">
        <ele>42.4354</ele>
        <time>2014-06-24T12:14:12Z</time>
      </trkpt>
      <trkpt lat="59.9585793" lon="17.7107416">
        <ele>42.4354</ele>
        <time>2014-06-24T12:14:13Z</time>
      </trkpt>
      <trkpt lat="59.9585771" lon="17.7107716">
        <ele>42.4354</ele>
        <time>2014-06-24T12:14:14Z</time>
      </trkpt>
      <trkpt lat="59.9585736" lon="17.7108033">
        <ele>42.4354</ele>
        <time>2014-06-24T12:14:15Z</time>
      </trkpt>
      <trkpt lat="59.9585695" lon="17.7108342">
        <ele>42.4354</ele>
        <time>2014-06-24T12:14:16Z</time>
      </trkpt>
      <trkpt lat="59.9585634" lon="17.7108633">
        <ele>42.4354</ele>
        <time>2014-06-24T12:14:17Z</time>
      </trkpt>
      <trkpt lat="59.9585611" lon="17.7108905">
        <ele>42.4354</ele>
        <time>2014-06-24T12:14:18Z</time>
      </trkpt>
      <trkpt lat="59.9585576" lon="17.7109187">
        <ele>42.4354</ele>
        <time>2014-06-24T12:14:19Z</time>
      </trkpt>
      <trkpt lat="59.9585529" lon="17.7109466">
        <ele>42.4354</ele>
        <time>2014-06-24T12:14:20Z</time>
      </trkpt>
      <trkpt lat="59.9585486" lon="17.7109721">
        <ele>41.9547</ele>
        <time>2014-06-24T12:14:21Z</time>
      </trkpt>
      <trkpt lat="59.9585444" lon="17.7109933">
        <ele>41.9547</ele>
        <time>2014-06-24T12:14:22Z</time>
      </trkpt>
      <trkpt lat="59.958541" lon="17.711015">
        <ele>41.474</ele>
        <time>2014-06-24T12:14:23Z</time>
      </trkpt>
      <trkpt lat="59.9585387" lon="17.7110415">
        <ele>41.474</ele>
        <time>2014-06-24T12:14:24Z</time>
      </trkpt>
      <trkpt lat="59.9585336" lon="17.7110709">
        <ele>41.474</ele>
        <time>2014-06-24T12:14:25Z</time>
      </trkpt>
      <trkpt lat="59.9585212" lon="17.7111001">
        <ele>41.474</ele>
        <time>2014-06-24T12:14:26Z</time>
      </trkpt>
      <trkpt lat="59.9585073" lon="17.7111329">
        <ele>41.474</ele>
        <time>2014-06-24T12:14:27Z</time>
      </trkpt>
      <trkpt lat="59.9585005" lon="17.7111621">
        <ele>41.474</ele>
        <time>2014-06-24T12:14:28Z</time>
      </trkpt>
      <trkpt lat="59.9584959" lon="17.7111894">
        <ele>41.474</ele>
        <time>2014-06-24T12:14:29Z</time>
      </trkpt>
      <trkpt lat="59.9584938" lon="17.7112207">
        <ele>41.474</ele>
        <time>2014-06-24T12:14:30Z</time>
      </trkpt>
      <trkpt lat="59.9584923" lon="17.7112493">
        <ele>41.474</ele>
        <time>2014-06-24T12:14:31Z</time>
      </trkpt>
      <trkpt lat="59.9584913" lon="17.7112745">
        <ele>41.474</ele>
        <time>2014-06-24T12:14:32Z</time>
      </trkpt>
      <trkpt lat="59.9584907" lon="17.7113">
        <ele>41.474</ele>
        <time>2014-06-24T12:14:33Z</time>
      </trkpt>
      <trkpt lat="59.9584911" lon="17.7113238">
        <ele>41.474</ele>
        <time>2014-06-24T12:14:34Z</time>
      </trkpt>
      <trkpt lat="59.9584924" lon="17.7113458">
        <ele>41.474</ele>
        <time>2014-06-24T12:14:35Z</time>
      </trkpt>
      <trkpt lat="59.9584922" lon="17.7113673">
        <ele>41.474</ele>
        <time>2014-06-24T12:14:36Z</time>
      </trkpt>
      <trkpt lat="59.9584913" lon="17.7113916">
        <ele>41.474</ele>
        <time>2014-06-24T12:14:37Z</time>
      </trkpt>
      <trkpt lat="59.9584886" lon="17.7114184">
        <ele>40.9934</ele>
        <time>2014-06-24T12:14:38Z</time>
      </trkpt>
      <trkpt lat="59.9584846" lon="17.7114458">
        <ele>40.5128</ele>
        <time>2014-06-24T12:14:39Z</time>
      </trkpt>
      <trkpt lat="59.9584808" lon="17.7114735">
        <ele>40.0321</ele>
        <time>2014-06-24T12:14:40Z</time>
      </trkpt>
      <trkpt lat="59.9584777" lon="17.7115009">
        <ele>40.0321</ele>
        <time>2014-06-24T12:14:41Z</time>
      </trkpt>
      <trkpt lat="59.9584742" lon="17.7115288">
        <ele>40.0321</ele>
        <time>2014-06-24T12:14:42Z</time>
      </trkpt>
      <trkpt lat="59.9584704" lon="17.7115562">
        <ele>40.0321</ele>
        <time>2014-06-24T12:14:43Z</time>
      </trkpt>
      <trkpt lat="59.9584675" lon="17.711582">
        <ele>40.5128</ele>
        <time>2014-06-24T12:14:44Z</time>
      </trkpt>
      <trkpt lat="59.9584659" lon="17.7116079">
        <ele>40.5128</ele>
        <time>2014-06-24T12:14:45Z</time>
      </trkpt>
      <trkpt lat="59.9584647" lon="17.7116325">
        <ele>40.5128</ele>
        <time>2014-06-24T12:14:46Z</time>
      </trkpt>
      <trkpt lat="59.9584626" lon="17.7116572">
        <ele>40.5128</ele>
        <time>2014-06-24T12:14:47Z</time>
      </trkpt>
      <trkpt lat="59.9584587" lon="17.7116853">
        <ele>40.5128</ele>
        <time>2014-06-24T12:14:48Z</time>
      </trkpt>
      <trkpt lat="59.9584555" lon="17.7117133">
        <ele>40.5128</ele>
        <time>2014-06-24T12:14:49Z</time>
      </trkpt>
      <trkpt lat="59.9584522" lon="17.7117433">
        <ele>40.0321</ele>
        <time>2014-06-24T12:14:50Z</time>
      </trkpt>
      <trkpt lat="59.9584487" lon="17.7117724">
        <ele>40.0321</ele>
        <time>2014-06-24T12:14:51Z</time>
      </trkpt>
      <trkpt lat="59.9584445" lon="17.711801">
        <ele>40.0321</ele>
        <time>2014-06-24T12:14:52Z</time>
      </trkpt>
      <trkpt lat="59.9584405" lon="17.7118293">
        <ele>40.5128</ele>
        <time>2014-06-24T12:14:53Z</time>
      </trkpt>
      <trkpt lat="59.9584374" lon="17.7118578">
        <ele>40.5128</ele>
        <time>2014-06-24T12:14:54Z</time>
      </trkpt>
      <trkpt lat="59.9584335" lon="17.7118857">
        <ele>40.5128</ele>
        <time>2014-06-24T12:14:55Z</time>
      </trkpt>
      <trkpt lat="59.9584316" lon="17.7119112">
        <ele>40.9934</ele>
        <time>2014-06-24T12:14:56Z</time>
      </trkpt>
      <trkpt lat="59.9584266" lon="17.7119427">
        <ele>40.9934</ele>
        <time>2014-06-24T12:14:57Z</time>
      </trkpt>
      <trkpt lat="59.9584224" lon="17.7119693">
        <ele>40.9934</ele>
        <time>2014-06-24T12:14:58Z</time>
      </trkpt>
      <trkpt lat="59.958418" lon="17.7119977">
        <ele>41.474</ele>
        <time>2014-06-24T12:14:59Z</time>
      </trkpt>
      <trkpt lat="59.9584157" lon="17.7120267">
        <ele>41.9547</ele>
        <time>2014-06-24T12:15:00Z</time>
      </trkpt>
      <trkpt lat="59.9584114" lon="17.7120578">
        <ele>41.9547</ele>
        <time>2014-06-24T12:15:01Z</time>
      </trkpt>
      <trkpt lat="59.9584073" lon="17.7120836">
        <ele>41.9547</ele>
        <time>2014-06-24T12:15:02Z</time>
      </trkpt>
      <trkpt lat="59.9584017" lon="17.7121094">
        <ele>41.9547</ele>
        <time>2014-06-24T12:15:03Z</time>
      </trkpt>
      <trkpt lat="59.9583955" lon="17.7121391">
        <ele>42.4354</ele>
        <time>2014-06-24T12:15:04Z</time>
      </trkpt>
      <trkpt lat="59.9583917" lon="17.7121666">
        <ele>42.4354</ele>
        <time>2014-06-24T12:15:05Z</time>
      </trkpt>
      <trkpt lat="59.9583887" lon="17.7121931">
        <ele>42.916</ele>
        <time>2014-06-24T12:15:06Z</time>
      </trkpt>
      <trkpt lat="59.9583859" lon="17.7122205">
        <ele>42.916</ele>
        <time>2014-06-24T12:15:07Z</time>
      </trkpt>
      <trkpt lat="59.9583834" lon="17.7122494">
        <ele>42.916</ele>
        <time>2014-06-24T12:15:08Z</time>
      </trkpt>
      <trkpt lat="59.9583808" lon="17.7122786">
        <ele>42.916</ele>
        <time>2014-06-24T12:15:09Z</time>
      </trkpt>
      <trkpt lat="59.958375" lon="17.7123043">
        <ele>43.3966</ele>
        <time>2014-06-24T12:15:10Z</time>
      </trkpt>
      <trkpt lat="59.9583714" lon="17.7123276">
        <ele>43.3966</ele>
        <time>2014-06-24T12:15:11Z</time>
      </trkpt>
      <trkpt lat="59.9583685" lon="17.7123531">
        <ele>43.3966</ele>
        <time>2014-06-24T12:15:12Z</time>
      </trkpt>
      <trkpt lat="59.9583658" lon="17.7123816">
        <ele>42.916</ele>
        <time>2014-06-24T12:15:13Z</time>
      </trkpt>
      <trkpt lat="59.958365" lon="17.7124084">
        <ele>42.916</ele>
        <time>2014-06-24T12:15:14Z</time>
      </trkpt>
      <trkpt lat="59.9583645" lon="17.7124328">
        <ele>42.916</ele>
        <time>2014-06-24T12:15:15Z</time>
      </trkpt>
      <trkpt lat="59.9583615" lon="17.7124621">
        <ele>42.916</ele>
        <time>2014-06-24T12:15:16Z</time>
      </trkpt>
      <trkpt lat="59.9583566" lon="17.7124928">
        <ele>42.916</ele>
        <time>2014-06-24T12:15:17Z</time>
      </trkpt>
      <trkpt lat="59.9583524" lon="17.712527">
        <ele>42.916</ele>
        <time>2014-06-24T12:15:18Z</time>
      </trkpt>
      <trkpt lat="59.9583535" lon="17.7125587">
        <ele>43.3966</ele>
        <time>2014-06-24T12:15:19Z</time>
      </trkpt>
      <trkpt lat="59.9583543" lon="17.7125867">
        <ele>42.916</ele>
        <time>2014-06-24T12:15:20Z</time>
      </trkpt>
      <trkpt lat="59.9583522" lon="17.7126141">
        <ele>42.4354</ele>
        <time>2014-06-24T12:15:21Z</time>
      </trkpt>
      <trkpt lat="59.9583488" lon="17.7126463">
        <ele>42.916</ele>
        <time>2014-06-24T12:15:22Z</time>
      </trkpt>
      <trkpt lat="59.9583482" lon="17.7126737">
        <ele>42.4354</ele>
        <time>2014-06-24T12:15:23Z</time>
      </trkpt>
      <trkpt lat="59.9583478" lon="17.712696">
        <ele>41.9547</ele>
        <time>2014-06-24T12:15:24Z</time>
      </trkpt>
      <trkpt lat="59.9583435" lon="17.7127243">
        <ele>42.4354</ele>
        <time>2014-06-24T12:15:25Z</time>
      </trkpt>
      <trkpt lat="59.9583384" lon="17.7127597">
        <ele>42.4354</ele>
        <time>2014-06-24T12:15:26Z</time>
      </trkpt>
      <trkpt lat="59.958331" lon="17.7127919">
        <ele>42.916</ele>
        <time>2014-06-24T12:15:27Z</time>
      </trkpt>
      <trkpt lat="59.9583258" lon="17.7128201">
        <ele>43.3966</ele>
        <time>2014-06-24T12:15:28Z</time>
      </trkpt>
      <trkpt lat="59.9583251" lon="17.7128431">
        <ele>43.3966</ele>
        <time>2014-06-24T12:15:29Z</time>
      </trkpt>
      <trkpt lat="59.9583245" lon="17.7128641">
        <ele>43.3966</ele>
        <time>2014-06-24T12:15:30Z</time>
      </trkpt>
      <trkpt lat="59.9583214" lon="17.7128822">
        <ele>42.916</ele>
        <time>2014-06-24T12:15:31Z</time>
      </trkpt>
      <trkpt lat="59.9583181" lon="17.7129041">
        <ele>42.4354</ele>
        <time>2014-06-24T12:15:32Z</time>
      </trkpt>
      <trkpt lat="59.9583124" lon="17.7129354">
        <ele>42.4354</ele>
        <time>2014-06-24T12:15:33Z</time>
      </trkpt>
      <trkpt lat="59.9583052" lon="17.7129652">
        <ele>42.916</ele>
        <time>2014-06-24T12:15:34Z</time>
      </trkpt>
      <trkpt lat="59.9582995" lon="17.7129929">
        <ele>42.4354</ele>
        <time>2014-06-24T12:15:35Z</time>
      </trkpt>
      <trkpt lat="59.9582933" lon="17.7130247">
        <ele>42.4354</ele>
        <time>2014-06-24T12:15:36Z</time>
      </trkpt>
      <trkpt lat="59.9582888" lon="17.7130524">
        <ele>41.9547</ele>
        <time>2014-06-24T12:15:37Z</time>
      </trkpt>
      <trkpt lat="59.9582849" lon="17.7130793">
        <ele>42.4354</ele>
        <time>2014-06-24T12:15:38Z</time>
      </trkpt>
      <trkpt lat="59.9582825" lon="17.7131074">
        <ele>41.9547</ele>
        <time>2014-06-24T12:15:39Z</time>
      </trkpt>
      <trkpt lat="59.9582834" lon="17.7131307">
        <ele>42.4354</ele>
        <time>2014-06-24T12:15:40Z</time>
      </trkpt>
      <trkpt lat="59.9582834" lon="17.7131595">
        <ele>42.4354</ele>
        <time>2014-06-24T12:15:41Z</time>
      </trkpt>
      <trkpt lat="59.9582829" lon="17.7131859">
        <ele>42.4354</ele>
        <time>2014-06-24T12:15:42Z</time>
      </trkpt>
      <trkpt lat="59.9582818" lon="17.7132112">
        <ele>42.4354</ele>
        <time>2014-06-24T12:15:43Z</time>
      </trkpt>
      <trkpt lat="59.9582804" lon="17.7132357">
        <ele>41.9547</ele>
        <time>2014-06-24T12:15:44Z</time>
      </trkpt>
      <trkpt lat="59.9582779" lon="17.7132599">
        <ele>42.4354</ele>
        <time>2014-06-24T12:15:45Z</time>
      </trkpt>
      <trkpt lat="59.9582763" lon="17.7132847">
        <ele>42.916</ele>
        <time>2014-06-24T12:15:46Z</time>
      </trkpt>
      <trkpt lat="59.9582747" lon="17.7133093">
        <ele>42.916</ele>
        <time>2014-06-24T12:15:47Z</time>
      </trkpt>
      <trkpt lat="59.9582745" lon="17.713335">
        <ele>42.916</ele>
        <time>2014-06-24T12:15:48Z</time>
      </trkpt>
      <trkpt lat="59.9582696" lon="17.7133655">
        <ele>43.3966</ele>
        <time>2014-06-24T12:15:49Z</time>
      </trkpt>
      <trkpt lat="59.958268" lon="17.7133923">
        <ele>42.916</ele>
        <time>2014-06-24T12:15:50Z</time>
      </trkpt>
      <trkpt lat="59.9582623" lon="17.713415">
        <ele>42.916</ele>
        <time>2014-06-24T12:15:51Z</time>
      </trkpt>
      <trkpt lat="59.9582571" lon="17.7134414">
        <ele>43.3966</ele>
        <time>2014-06-24T12:15:52Z</time>
      </trkpt>
      <trkpt lat="59.9582507" lon="17.7134714">
        <ele>43.3966</ele>
        <time>2014-06-24T12:15:53Z</time>
      </trkpt>
      <trkpt lat="59.9582431" lon="17.713503">
        <ele>42.916</ele>
        <time>2014-06-24T12:15:54Z</time>
      </trkpt>
      <trkpt lat="59.958239" lon="17.7135309">
        <ele>43.3966</ele>
        <time>2014-06-24T12:15:55Z</time>
      </trkpt>
      <trkpt lat="59.9582364" lon="17.7135548">
        <ele>43.3966</ele>
        <time>2014-06-24T12:15:56Z</time>
      </trkpt>
      <trkpt lat="59.9582348" lon="17.7135803">
        <ele>43.3966</ele>
        <time>2014-06-24T12:15:57Z</time>
      </trkpt>
      <trkpt lat="59.9582308" lon="17.7136103">
        <ele>42.916</ele>
        <time>2014-06-24T12:15:58Z</time>
      </trkpt>
      <trkpt lat="59.9582229" lon="17.7136411">
        <ele>42.4354</ele>
        <time>2014-06-24T12:15:59Z</time>
      </trkpt>
      <trkpt lat="59.9582167" lon="17.7136692">
        <ele>42.916</ele>
        <time>2014-06-24T12:16:00Z</time>
      </trkpt>
      <trkpt lat="59.9582158" lon="17.713695">
        <ele>43.3966</ele>
        <time>2014-06-24T12:16:01Z</time>
      </trkpt>
      <trkpt lat="59.958214" lon="17.7137201">
        <ele>43.3966</ele>
        <time>2014-06-24T12:16:02Z</time>
      </trkpt>
      <trkpt lat="59.958212" lon="17.7137479">
        <ele>43.3966</ele>
        <time>2014-06-24T12:16:03Z</time>
      </trkpt>
      <trkpt lat="59.9582047" lon="17.7137729">
        <ele>43.3966</ele>
        <time>2014-06-24T12:16:04Z</time>
      </trkpt>
      <trkpt lat="59.9581918" lon="17.7137972">
        <ele>42.916</ele>
        <time>2014-06-24T12:16:05Z</time>
      </trkpt>
      <trkpt lat="59.9581773" lon="17.7138235">
        <ele>42.916</ele>
        <time>2014-06-24T12:16:06Z</time>
      </trkpt>
      <trkpt lat="59.9581664" lon="17.7138521">
        <ele>42.916</ele>
        <time>2014-06-24T12:16:07Z</time>
      </trkpt>
      <trkpt lat="59.9581592" lon="17.7138787">
        <ele>42.916</ele>
        <time>2014-06-24T12:16:08Z</time>
      </trkpt>
      <trkpt lat="59.958152" lon="17.7139045">
        <ele>43.3966</ele>
        <time>2014-06-24T12:16:09Z</time>
      </trkpt>
      <trkpt lat="59.9581457" lon="17.7139262">
        <ele>43.8773</ele>
        <time>2014-06-24T12:16:10Z</time>
      </trkpt>
      <trkpt lat="59.9581357" lon="17.7139491">
        <ele>43.8773</ele>
        <time>2014-06-24T12:16:11Z</time>
      </trkpt>
      <trkpt lat="59.9581286" lon="17.7139693">
        <ele>44.358</ele>
        <time>2014-06-24T12:16:12Z</time>
      </trkpt>
      <trkpt lat="59.9581235" lon="17.7139941">
        <ele>44.8386</ele>
        <time>2014-06-24T12:16:13Z</time>
      </trkpt>
      <trkpt lat="59.958112" lon="17.7140188">
        <ele>44.8386</ele>
        <time>2014-06-24T12:16:14Z</time>
      </trkpt>
      <trkpt lat="59.9580994" lon="17.7140413">
        <ele>44.8386</ele>
        <time>2014-06-24T12:16:15Z</time>
      </trkpt>
      <trkpt lat="59.9580901" lon="17.714064">
        <ele>45.3192</ele>
        <time>2014-06-24T12:16:16Z</time>
      </trkpt>
      <trkpt lat="59.9580784" lon="17.7140916">
        <ele>45.3192</ele>
        <time>2014-06-24T12:16:17Z</time>
      </trkpt>
      <trkpt lat="59.9580687" lon="17.7141158">
        <ele>45.7999</ele>
        <time>2014-06-24T12:16:18Z</time>
      </trkpt>
      <trkpt lat="59.9580597" lon="17.7141385">
        <ele>45.7999</ele>
        <time>2014-06-24T12:16:19Z</time>
      </trkpt>
      <trkpt lat="59.9580498" lon="17.7141593">
        <ele>46.2806</ele>
        <time>2014-06-24T12:16:20Z</time>
      </trkpt>
      <trkpt lat="59.9580395" lon="17.7141799">
        <ele>46.2806</ele>
        <time>2014-06-24T12:16:21Z</time>
      </trkpt>
      <trkpt lat="59.958027" lon="17.714204">
        <ele>46.2806</ele>
        <time>2014-06-24T12:16:22Z</time>
      </trkpt>
      <trkpt lat="59.9580158" lon="17.7142293">
        <ele>46.7612</ele>
        <time>2014-06-24T12:16:23Z</time>
      </trkpt>
      <trkpt lat="59.9580063" lon="17.7142532">
        <ele>46.7612</ele>
        <time>2014-06-24T12:16:24Z</time>
      </trkpt>
      <trkpt lat="59.9579965" lon="17.7142775">
        <ele>47.2418</ele>
        <time>2014-06-24T12:16:25Z</time>
      </trkpt>
      <trkpt lat="59.957987" lon="17.7143013">
        <ele>47.7225</ele>
        <time>2014-06-24T12:16:26Z</time>
      </trkpt>
      <trkpt lat="59.9579769" lon="17.714324">
        <ele>48.2034</ele>
        <time>2014-06-24T12:16:27Z</time>
      </trkpt>
      <trkpt lat="59.9579659" lon="17.7143458">
        <ele>48.2034</ele>
        <time>2014-06-24T12:16:28Z</time>
      </trkpt>
      <trkpt lat="59.9579563" lon="17.7143676">
        <ele>48.2034</ele>
        <time>2014-06-24T12:16:29Z</time>
      </trkpt>
      <trkpt lat="59.9579468" lon="17.7143889">
        <ele>48.684</ele>
        <time>2014-06-24T12:16:30Z</time>
      </trkpt>
      <trkpt lat="59.9579375" lon="17.7144088">
        <ele>48.684</ele>
        <time>2014-06-24T12:16:31Z</time>
      </trkpt>
      <trkpt lat="59.9579264" lon="17.7144293">
        <ele>48.684</ele>
        <time>2014-06-24T12:16:32Z</time>
      </trkpt>
      <trkpt lat="59.9579166" lon="17.7144473">
        <ele>48.684</ele>
        <time>2014-06-24T12:16:33Z</time>
      </trkpt>
      <trkpt lat="59.957909" lon="17.7144638">
        <ele>48.684</ele>
        <time>2014-06-24T12:16:34Z</time>
      </trkpt>
      <trkpt lat="59.9579011" lon="17.7144829">
        <ele>48.684</ele>
        <time>2014-06-24T12:16:35Z</time>
      </trkpt>
      <trkpt lat="59.9578913" lon="17.7145038">
        <ele>48.684</ele>
        <time>2014-06-24T12:16:36Z</time>
      </trkpt>
      <trkpt lat="59.9578826" lon="17.7145243">
        <ele>49.1646</ele>
        <time>2014-06-24T12:16:37Z</time>
      </trkpt>
      <trkpt lat="59.9578741" lon="17.7145473">
        <ele>49.1646</ele>
        <time>2014-06-24T12:16:38Z</time>
      </trkpt>
      <trkpt lat="59.9578646" lon="17.7145691">
        <ele>49.1646</ele>
        <time>2014-06-24T12:16:39Z</time>
      </trkpt>
      <trkpt lat="59.9578566" lon="17.7145901">
        <ele>49.1646</ele>
        <time>2014-06-24T12:16:40Z</time>
      </trkpt>
      <trkpt lat="59.9578498" lon="17.7146115">
        <ele>49.1646</ele>
        <time>2014-06-24T12:16:41Z</time>
      </trkpt>
      <trkpt lat="59.9578418" lon="17.7146283">
        <ele>49.1646</ele>
        <time>2014-06-24T12:16:42Z</time>
      </trkpt>
      <trkpt lat="59.9578349" lon="17.714644">
        <ele>48.684</ele>
        <time>2014-06-24T12:16:43Z</time>
      </trkpt>
      <trkpt lat="59.9578251" lon="17.714664">
        <ele>48.2034</ele>
        <time>2014-06-24T12:16:44Z</time>
      </trkpt>
      <trkpt lat="59.9578194" lon="17.7146747">
        <ele>47.7225</ele>
        <time>2014-06-24T12:16:45Z</time>
      </trkpt>
      <trkpt lat="59.9578123" lon="17.7146944">
        <ele>47.7225</ele>
        <time>2014-06-24T12:16:46Z</time>
      </trkpt>
      <trkpt lat="59.9578039" lon="17.7147087">
        <ele>47.2418</ele>
        <time>2014-06-24T12:16:47Z</time>
      </trkpt>
      <trkpt lat="59.957794" lon="17.7147295">
        <ele>46.7612</ele>
        <time>2014-06-24T12:16:48Z</time>
      </trkpt>
      <trkpt lat="59.9577851" lon="17.7147525">
        <ele>46.2806</ele>
        <time>2014-06-24T12:16:49Z</time>
      </trkpt>
      <trkpt lat="59.9577755" lon="17.714773">
        <ele>45.7999</ele>
        <time>2014-06-24T12:16:50Z</time>
      </trkpt>
      <trkpt lat="59.9577648" lon="17.7147956">
        <ele>45.3192</ele>
        <time>2014-06-24T12:16:51Z</time>
      </trkpt>
      <trkpt lat="59.9577516" lon="17.7148203">
        <ele>45.3192</ele>
        <time>2014-06-24T12:16:52Z</time>
      </trkpt>
      <trkpt lat="59.9577387" lon="17.7148417">
        <ele>45.3192</ele>
        <time>2014-06-24T12:16:53Z</time>
      </trkpt>
      <trkpt lat="59.9577273" lon="17.7148623">
        <ele>45.3192</ele>
        <time>2014-06-24T12:16:54Z</time>
      </trkpt>
      <trkpt lat="59.9577156" lon="17.7148804">
        <ele>45.3192</ele>
        <time>2014-06-24T12:16:55Z</time>
      </trkpt>
      <trkpt lat="59.9577042" lon="17.7148975">
        <ele>45.3192</ele>
        <time>2014-06-24T12:16:56Z</time>
      </trkpt>
      <trkpt lat="59.9576939" lon="17.7149113">
        <ele>45.7999</ele>
        <time>2014-06-24T12:16:57Z</time>
      </trkpt>
      <trkpt lat="59.9576838" lon="17.7149285">
        <ele>45.7999</ele>
        <time>2014-06-24T12:16:58Z</time>
      </trkpt>
      <trkpt lat="59.9576748" lon="17.7149483">
        <ele>46.2806</ele>
        <time>2014-06-24T12:16:59Z</time>
      </trkpt>
      <trkpt lat="59.9576667" lon="17.714969">
        <ele>46.2806</ele>
        <time>2014-06-24T12:17:00Z</time>
      </trkpt>
      <trkpt lat="59.9576577" lon="17.7149874">
        <ele>46.2806</ele>
        <time>2014-06-24T12:17:01Z</time>
      </trkpt>
      <trkpt lat="59.9576459" lon="17.7150062">
        <ele>46.2806</ele>
        <time>2014-06-24T12:17:02Z</time>
      </trkpt>
      <trkpt lat="59.9576329" lon="17.7150249">
        <ele>46.7612</ele>
        <time>2014-06-24T12:17:03Z</time>
      </trkpt>
      <trkpt lat="59.9576225" lon="17.7150468">
        <ele>46.7612</ele>
        <time>2014-06-24T12:17:04Z</time>
      </trkpt>
      <trkpt lat="59.9576117" lon="17.7150667">
        <ele>46.7612</ele>
        <time>2014-06-24T12:17:05Z</time>
      </trkpt>
      <trkpt lat="59.9576034" lon="17.7150803">
        <ele>47.2418</ele>
        <time>2014-06-24T12:17:06Z</time>
      </trkpt>
      <trkpt lat="59.9575947" lon="17.7150981">
        <ele>47.2418</ele>
        <time>2014-06-24T12:17:07Z</time>
      </trkpt>
      <trkpt lat="59.9575852" lon="17.715119">
        <ele>47.7225</ele>
        <time>2014-06-24T12:17:08Z</time>
      </trkpt>
      <trkpt lat="59.957574" lon="17.7151384">
        <ele>47.7225</ele>
        <time>2014-06-24T12:17:09Z</time>
      </trkpt>
      <trkpt lat="59.9575626" lon="17.7151574">
        <ele>48.2034</ele>
        <time>2014-06-24T12:17:10Z</time>
      </trkpt>
      <trkpt lat="59.9575512" lon="17.7151762">
        <ele>48.2034</ele>
        <time>2014-06-24T12:17:11Z</time>
      </trkpt>
      <trkpt lat="59.9575392" lon="17.7151968">
        <ele>48.2034</ele>
        <time>2014-06-24T12:17:12Z</time>
      </trkpt>
      <trkpt lat="59.9575261" lon="17.7152187">
        <ele>48.2034</ele>
        <time>2014-06-24T12:17:13Z</time>
      </trkpt>
      <trkpt lat="59.9575142" lon="17.7152387">
        <ele>48.2034</ele>
        <time>2014-06-24T12:17:14Z</time>
      </trkpt>
      <trkpt lat="59.9575033" lon="17.715262">
        <ele>48.2034</ele>
        <time>2014-06-24T12:17:15Z</time>
      </trkpt>
      <trkpt lat="59.9574914" lon="17.7152845">
        <ele>48.2034</ele>
        <time>2014-06-24T12:17:16Z</time>
      </trkpt>
      <trkpt lat="59.9574791" lon="17.7153068">
        <ele>48.2034</ele>
        <time>2014-06-24T12:17:17Z</time>
      </trkpt>
      <trkpt lat="59.9574666" lon="17.7153322">
        <ele>48.684</ele>
        <time>2014-06-24T12:17:18Z</time>
      </trkpt>
      <trkpt lat="59.9574573" lon="17.7153549">
        <ele>48.684</ele>
        <time>2014-06-24T12:17:19Z</time>
      </trkpt>
      <trkpt lat="59.9574473" lon="17.7153771">
        <ele>49.1646</ele>
        <time>2014-06-24T12:17:20Z</time>
      </trkpt>
      <trkpt lat="59.9574403" lon="17.7153965">
        <ele>49.6453</ele>
        <time>2014-06-24T12:17:21Z</time>
      </trkpt>
      <trkpt lat="59.9574328" lon="17.7154156">
        <ele>49.6453</ele>
        <time>2014-06-24T12:17:22Z</time>
      </trkpt>
      <trkpt lat="59.9574205" lon="17.7154356">
        <ele>49.1646</ele>
        <time>2014-06-24T12:17:23Z</time>
      </trkpt>
      <trkpt lat="59.9574059" lon="17.7154573">
        <ele>49.1646</ele>
        <time>2014-06-24T12:17:24Z</time>
      </trkpt>
      <trkpt lat="59.957391" lon="17.7154742">
        <ele>48.684</ele>
        <time>2014-06-24T12:17:25Z</time>
      </trkpt>
      <trkpt lat="59.9573765" lon="17.7154966">
        <ele>48.684</ele>
        <time>2014-06-24T12:17:26Z</time>
      </trkpt>
      <trkpt lat="59.9573666" lon="17.7155169">
        <ele>48.684</ele>
        <time>2014-06-24T12:17:27Z</time>
      </trkpt>
      <trkpt lat="59.9573567" lon="17.7155398">
        <ele>48.684</ele>
        <time>2014-06-24T12:17:28Z</time>
      </trkpt>
      <trkpt lat="59.957347" lon="17.715557">
        <ele>48.684</ele>
        <time>2014-06-24T12:17:29Z</time>
      </trkpt>
      <trkpt lat="59.957339" lon="17.7155721">
        <ele>48.684</ele>
        <time>2014-06-24T12:17:30Z</time>
      </trkpt>
      <trkpt lat="59.9573273" lon="17.7155899">
        <ele>48.684</ele>
        <time>2014-06-24T12:17:31Z</time>
      </trkpt>
      <trkpt lat="59.9573143" lon="17.7156088">
        <ele>48.684</ele>
        <time>2014-06-24T12:17:32Z</time>
      </trkpt>
      <trkpt lat="59.957302" lon="17.7156283">
        <ele>48.2034</ele>
        <time>2014-06-24T12:17:33Z</time>
      </trkpt>
      <trkpt lat="59.9572853" lon="17.7156507">
        <ele>48.2034</ele>
        <time>2014-06-24T12:17:34Z</time>
      </trkpt>
      <trkpt lat="59.9572687" lon="17.7156745">
        <ele>48.684</ele>
        <time>2014-06-24T12:17:35Z</time>
      </trkpt>
      <trkpt lat="59.9572563" lon="17.7156987">
        <ele>48.2034</ele>
        <time>2014-06-24T12:17:36Z</time>
      </trkpt>
      <trkpt lat="59.9572447" lon="17.715718">
        <ele>48.2034</ele>
        <time>2014-06-24T12:17:37Z</time>
      </trkpt>
      <trkpt lat="59.957234" lon="17.715737">
        <ele>48.2034</ele>
        <time>2014-06-24T12:17:38Z</time>
      </trkpt>
      <trkpt lat="59.9572242" lon="17.7157559">
        <ele>47.7225</ele>
        <time>2014-06-24T12:17:39Z</time>
      </trkpt>
      <trkpt lat="59.9572123" lon="17.7157755">
        <ele>47.7225</ele>
        <time>2014-06-24T12:17:40Z</time>
      </trkpt>
      <trkpt lat="59.9572046" lon="17.7157936">
        <ele>47.7225</ele>
        <time>2014-06-24T12:17:41Z</time>
      </trkpt>
      <trkpt lat="59.9571965" lon="17.7158129">
        <ele>47.2418</ele>
        <time>2014-06-24T12:17:42Z</time>
      </trkpt>
      <trkpt lat="59.9571873" lon="17.715829">
        <ele>46.7612</ele>
        <time>2014-06-24T12:17:43Z</time>
      </trkpt>
      <trkpt lat="59.9571802" lon="17.7158465">
        <ele>46.7612</ele>
        <time>2014-06-24T12:17:44Z</time>
      </trkpt>
      <trkpt lat="59.9571699" lon="17.7158652">
        <ele>46.7612</ele>
        <time>2014-06-24T12:17:45Z</time>
      </trkpt>
      <trkpt lat="59.9571577" lon="17.7158858">
        <ele>47.2418</ele>
        <time>2014-06-24T12:17:46Z</time>
      </trkpt>
      <trkpt lat="59.9571463" lon="17.7159025">
        <ele>47.7225</ele>
        <time>2014-06-24T12:17:47Z</time>
      </trkpt>
      <trkpt lat="59.9571367" lon="17.7159238">
        <ele>48.2034</ele>
        <time>2014-06-24T12:17:48Z</time>
      </trkpt>
      <trkpt lat="59.9571257" lon="17.7159412">
        <ele>49.1646</ele>
        <time>2014-06-24T12:17:49Z</time>
      </trkpt>
      <trkpt lat="59.9571142" lon="17.7159631">
        <ele>49.1646</ele>
        <time>2014-06-24T12:17:50Z</time>
      </trkpt>
      <trkpt lat="59.9571031" lon="17.7159838">
        <ele>49.1646</ele>
        <time>2014-06-24T12:17:51Z</time>
      </trkpt>
      <trkpt lat="59.9570909" lon="17.7160062">
        <ele>49.6453</ele>
        <time>2014-06-24T12:17:52Z</time>
      </trkpt>
      <trkpt lat="59.95708" lon="17.7160273">
        <ele>49.6453</ele>
        <time>2014-06-24T12:17:53Z</time>
      </trkpt>
      <trkpt lat="59.9570663" lon="17.7160563">
        <ele>50.126</ele>
        <time>2014-06-24T12:17:54Z</time>
      </trkpt>
      <trkpt lat="59.9570538" lon="17.7160821">
        <ele>50.6066</ele>
        <time>2014-06-24T12:17:55Z</time>
      </trkpt>
      <trkpt lat="59.9570403" lon="17.7161055">
        <ele>51.0872</ele>
        <time>2014-06-24T12:17:56Z</time>
      </trkpt>
      <trkpt lat="59.9570254" lon="17.7161276">
        <ele>52.0486</ele>
        <time>2014-06-24T12:17:57Z</time>
      </trkpt>
      <trkpt lat="59.9570144" lon="17.7161429">
        <ele>52.0486</ele>
        <time>2014-06-24T12:17:58Z</time>
      </trkpt>
      <trkpt lat="59.957003" lon="17.7161634">
        <ele>52.5292</ele>
        <time>2014-06-24T12:17:59Z</time>
      </trkpt>
      <trkpt lat="59.9569916" lon="17.716183">
        <ele>53.0098</ele>
        <time>2014-06-24T12:18:00Z</time>
      </trkpt>
      <trkpt lat="59.9569817" lon="17.7161986">
        <ele>53.0098</ele>
        <time>2014-06-24T12:18:01Z</time>
      </trkpt>
      <trkpt lat="59.9569733" lon="17.7162115">
        <ele>53.0098</ele>
        <time>2014-06-24T12:18:02Z</time>
      </trkpt>
      <trkpt lat="59.9569638" lon="17.7162267">
        <ele>53.0098</ele>
        <time>2014-06-24T12:18:03Z</time>
      </trkpt>
      <trkpt lat="59.9569533" lon="17.7162464">
        <ele>53.0098</ele>
        <time>2014-06-24T12:18:04Z</time>
      </trkpt>
      <trkpt lat="59.9569409" lon="17.7162697">
        <ele>52.5292</ele>
        <time>2014-06-24T12:18:05Z</time>
      </trkpt>
      <trkpt lat="59.9569258" lon="17.7162882">
        <ele>52.0486</ele>
        <time>2014-06-24T12:18:06Z</time>
      </trkpt>
      <trkpt lat="59.9569103" lon="17.7163013">
        <ele>52.5292</ele>
        <time>2014-06-24T12:18:07Z</time>
      </trkpt>
      <trkpt lat="59.9568973" lon="17.7163236">
        <ele>52.5292</ele>
        <time>2014-06-24T12:18:08Z</time>
      </trkpt>
      <trkpt lat="59.9568859" lon="17.7163421">
        <ele>52.5292</ele>
        <time>2014-06-24T12:18:09Z</time>
      </trkpt>
      <trkpt lat="59.956876" lon="17.7163577">
        <ele>52.5292</ele>
        <time>2014-06-24T12:18:10Z</time>
      </trkpt>
      <trkpt lat="59.9568666" lon="17.7163738">
        <ele>52.0486</ele>
        <time>2014-06-24T12:18:11Z</time>
      </trkpt>
      <trkpt lat="59.9568553" lon="17.7163903">
        <ele>52.0486</ele>
        <time>2014-06-24T12:18:12Z</time>
      </trkpt>
      <trkpt lat="59.956842" lon="17.7164135">
        <ele>52.0486</ele>
        <time>2014-06-24T12:18:13Z</time>
      </trkpt>
      <trkpt lat="59.9568304" lon="17.7164343">
        <ele>52.5292</ele>
        <time>2014-06-24T12:18:14Z</time>
      </trkpt>
      <trkpt lat="59.9568191" lon="17.7164537">
        <ele>52.5292</ele>
        <time>2014-06-24T12:18:15Z</time>
      </trkpt>
      <trkpt lat="59.9568089" lon="17.7164703">
        <ele>52.5292</ele>
        <time>2014-06-24T12:18:16Z</time>
      </trkpt>
      <trkpt lat="59.9567994" lon="17.7164878">
        <ele>52.5292</ele>
        <time>2014-06-24T12:18:17Z</time>
      </trkpt>
      <trkpt lat="59.9567916" lon="17.716504">
        <ele>52.0486</ele>
        <time>2014-06-24T12:18:18Z</time>
      </trkpt>
      <trkpt lat="59.9567827" lon="17.716523">
        <ele>51.5679</ele>
        <time>2014-06-24T12:18:19Z</time>
      </trkpt>
      <trkpt lat="59.956775" lon="17.7165412">
        <ele>51.5679</ele>
        <time>2014-06-24T12:18:20Z</time>
      </trkpt>
      <trkpt lat="59.9567661" lon="17.7165623">
        <ele>51.5679</ele>
        <time>2014-06-24T12:18:21Z</time>
      </trkpt>
      <trkpt lat="59.9567576" lon="17.7165858">
        <ele>52.0486</ele>
        <time>2014-06-24T12:18:22Z</time>
      </trkpt>
      <trkpt lat="59.9567528" lon="17.7166084">
        <ele>51.5679</ele>
        <time>2014-06-24T12:18:23Z</time>
      </trkpt>
      <trkpt lat="59.9567491" lon="17.7166256">
        <ele>51.5679</ele>
        <time>2014-06-24T12:18:24Z</time>
      </trkpt>
      <trkpt lat="59.9567443" lon="17.7166489">
        <ele>51.5679</ele>
        <time>2014-06-24T12:18:25Z</time>
      </trkpt>
      <trkpt lat="59.9567365" lon="17.7166708">
        <ele>52.0486</ele>
        <time>2014-06-24T12:18:26Z</time>
      </trkpt>
      <trkpt lat="59.9567248" lon="17.7166889">
        <ele>52.5292</ele>
        <time>2014-06-24T12:18:27Z</time>
      </trkpt>
      <trkpt lat="59.9567119" lon="17.7167105">
        <ele>53.0098</ele>
        <time>2014-06-24T12:18:28Z</time>
      </trkpt>
      <trkpt lat="59.9566961" lon="17.7167357">
        <ele>53.4905</ele>
        <time>2014-06-24T12:18:29Z</time>
      </trkpt>
      <trkpt lat="59.9566839" lon="17.7167566">
        <ele>53.9712</ele>
        <time>2014-06-24T12:18:30Z</time>
      </trkpt>
      <trkpt lat="59.9566728" lon="17.7167737">
        <ele>53.9712</ele>
        <time>2014-06-24T12:18:31Z</time>
      </trkpt>
      <trkpt lat="59.9566626" lon="17.7167906">
        <ele>53.9712</ele>
        <time>2014-06-24T12:18:32Z</time>
      </trkpt>
      <trkpt lat="59.9566513" lon="17.7168099">
        <ele>54.4518</ele>
        <time>2014-06-24T12:18:33Z</time>
      </trkpt>
      <trkpt lat="59.9566378" lon="17.7168255">
        <ele>54.9324</ele>
        <time>2014-06-24T12:18:34Z</time>
      </trkpt>
      <trkpt lat="59.9566237" lon="17.7168332">
        <ele>53.9712</ele>
        <time>2014-06-24T12:18:35Z</time>
      </trkpt>
      <trkpt lat="59.9566062" lon="17.7168355">
        <ele>53.4905</ele>
        <time>2014-06-24T12:18:36Z</time>
      </trkpt>
      <trkpt lat="59.9565896" lon="17.7168316">
        <ele>53.4905</ele>
        <time>2014-06-24T12:18:37Z</time>
      </trkpt>
      <trkpt lat="59.9565788" lon="17.7168191">
        <ele>53.4905</ele>
        <time>2014-06-24T12:18:38Z</time>
      </trkpt>
      <trkpt lat="59.9565708" lon="17.716801">
        <ele>53.4905</ele>
        <time>2014-06-24T12:18:39Z</time>
      </trkpt>
      <trkpt lat="59.9565606" lon="17.7167824">
        <ele>53.4905</ele>
        <time>2014-06-24T12:18:40Z</time>
      </trkpt>
      <trkpt lat="59.9565507" lon="17.7167654">
        <ele>53.0098</ele>
        <time>2014-06-24T12:18:41Z</time>
      </trkpt>
      <trkpt lat="59.9565404" lon="17.7167452">
        <ele>53.4905</ele>
        <time>2014-06-24T12:18:42Z</time>
      </trkpt>
      <trkpt lat="59.9565269" lon="17.7167344">
        <ele>52.5292</ele>
        <time>2014-06-24T12:18:43Z</time>
      </trkpt>
      <trkpt lat="59.9565138" lon="17.7167065">
        <ele>52.5292</ele>
        <time>2014-06-24T12:18:44Z</time>
      </trkpt>
      <trkpt lat="59.9565024" lon="17.7166793">
        <ele>52.5292</ele>
        <time>2014-06-24T12:18:45Z</time>
      </trkpt>
      <trkpt lat="59.9564912" lon="17.7166655">
        <ele>52.5292</ele>
        <time>2014-06-24T12:18:46Z</time>
      </trkpt>
      <trkpt lat="59.9564806" lon="17.716653">
        <ele>52.0486</ele>
        <time>2014-06-24T12:18:47Z</time>
      </trkpt>
      <trkpt lat="59.9564709" lon="17.716638">
        <ele>52.0486</ele>
        <time>2014-06-24T12:18:48Z</time>
      </trkpt>
      <trkpt lat="59.9564608" lon="17.7166308">
        <ele>52.0486</ele>
        <time>2014-06-24T12:18:49Z</time>
      </trkpt>
      <trkpt lat="59.9564481" lon="17.7166114">
        <ele>52.5292</ele>
        <time>2014-06-24T12:18:50Z</time>
      </trkpt>
      <trkpt lat="59.9564337" lon="17.7165948">
        <ele>52.0486</ele>
        <time>2014-06-24T12:18:51Z</time>
      </trkpt>
      <trkpt lat="59.9564228" lon="17.7165746">
        <ele>52.0486</ele>
        <time>2014-06-24T12:18:52Z</time>
      </trkpt>
      <trkpt lat="59.956412" lon="17.7165581">
        <ele>52.0486</ele>
        <time>2014-06-24T12:18:53Z</time>
      </trkpt>
      <trkpt lat="59.9564042" lon="17.7165409">
        <ele>52.0486</ele>
        <time>2014-06-24T12:18:54Z</time>
      </trkpt>
      <trkpt lat="59.9563948" lon="17.7165226">
        <ele>52.0486</ele>
        <time>2014-06-24T12:18:55Z</time>
      </trkpt>
      <trkpt lat="59.9563835" lon="17.7165049">
        <ele>52.0486</ele>
        <time>2014-06-24T12:18:56Z</time>
      </trkpt>
      <trkpt lat="59.9563737" lon="17.71649">
        <ele>52.0486</ele>
        <time>2014-06-24T12:18:57Z</time>
      </trkpt>
      <trkpt lat="59.9563603" lon="17.7164791">
        <ele>52.0486</ele>
        <time>2014-06-24T12:18:58Z</time>
      </trkpt>
      <trkpt lat="59.9563467" lon="17.7164619">
        <ele>52.0486</ele>
        <time>2014-06-24T12:18:59Z</time>
      </trkpt>
      <trkpt lat="59.9563332" lon="17.7164382">
        <ele>52.0486</ele>
        <time>2014-06-24T12:19:00Z</time>
      </trkpt>
      <trkpt lat="59.9563216" lon="17.7164252">
        <ele>52.0486</ele>
        <time>2014-06-24T12:19:01Z</time>
      </trkpt>
      <trkpt lat="59.956312" lon="17.7164081">
        <ele>52.0486</ele>
        <time>2014-06-24T12:19:02Z</time>
      </trkpt>
      <trkpt lat="59.9563051" lon="17.7163866">
        <ele>52.0486</ele>
        <time>2014-06-24T12:19:03Z</time>
      </trkpt>
      <trkpt lat="59.956297" lon="17.7163705">
        <ele>52.0486</ele>
        <time>2014-06-24T12:19:04Z</time>
      </trkpt>
      <trkpt lat="59.9562861" lon="17.716353">
        <ele>52.0486</ele>
        <time>2014-06-24T12:19:05Z</time>
      </trkpt>
      <trkpt lat="59.9562778" lon="17.7163296">
        <ele>52.0486</ele>
        <time>2014-06-24T12:19:06Z</time>
      </trkpt>
      <trkpt lat="59.9562711" lon="17.716306">
        <ele>52.0486</ele>
        <time>2014-06-24T12:19:07Z</time>
      </trkpt>
      <trkpt lat="59.9562633" lon="17.7162847">
        <ele>52.0486</ele>
        <time>2014-06-24T12:19:08Z</time>
      </trkpt>
      <trkpt lat="59.9562562" lon="17.7162576">
        <ele>52.0486</ele>
        <time>2014-06-24T12:19:09Z</time>
      </trkpt>
      <trkpt lat="59.9562457" lon="17.716239">
        <ele>52.0486</ele>
        <time>2014-06-24T12:19:10Z</time>
      </trkpt>
      <trkpt lat="59.9562334" lon="17.7162188">
        <ele>51.5679</ele>
        <time>2014-06-24T12:19:11Z</time>
      </trkpt>
      <trkpt lat="59.9562211" lon="17.7161977">
        <ele>51.0872</ele>
        <time>2014-06-24T12:19:12Z</time>
      </trkpt>
      <trkpt lat="59.9562092" lon="17.7161747">
        <ele>50.6066</ele>
        <time>2014-06-24T12:19:13Z</time>
      </trkpt>
      <trkpt lat="59.9562022" lon="17.7161562">
        <ele>50.6066</ele>
        <time>2014-06-24T12:19:14Z</time>
      </trkpt>
      <trkpt lat="59.9561969" lon="17.7161383">
        <ele>50.6066</ele>
        <time>2014-06-24T12:19:15Z</time>
      </trkpt>
      <trkpt lat="59.9561876" lon="17.7161203">
        <ele>50.126</ele>
        <time>2014-06-24T12:19:16Z</time>
      </trkpt>
      <trkpt lat="59.956183" lon="17.7160849">
        <ele>50.126</ele>
        <time>2014-06-24T12:19:17Z</time>
      </trkpt>
      <trkpt lat="59.95618" lon="17.7160604">
        <ele>50.126</ele>
        <time>2014-06-24T12:19:18Z</time>
      </trkpt>
      <trkpt lat="59.9561728" lon="17.7160423">
        <ele>50.126</ele>
        <time>2014-06-24T12:19:19Z</time>
      </trkpt>
      <trkpt lat="59.9561623" lon="17.7160251">
        <ele>50.6066</ele>
        <time>2014-06-24T12:19:20Z</time>
      </trkpt>
      <trkpt lat="59.9561514" lon="17.7160097">
        <ele>50.126</ele>
        <time>2014-06-24T12:19:21Z</time>
      </trkpt>
      <trkpt lat="59.9561443" lon="17.7159895">
        <ele>49.6453</ele>
        <time>2014-06-24T12:19:22Z</time>
      </trkpt>
      <trkpt lat="59.9561372" lon="17.7159733">
        <ele>49.6453</ele>
        <time>2014-06-24T12:19:23Z</time>
      </trkpt>
      <trkpt lat="59.9561284" lon="17.71596">
        <ele>49.1646</ele>
        <time>2014-06-24T12:19:24Z</time>
      </trkpt>
      <trkpt lat="59.9561203" lon="17.7159403">
        <ele>49.1646</ele>
        <time>2014-06-24T12:19:25Z</time>
      </trkpt>
      <trkpt lat="59.9561103" lon="17.7159118">
        <ele>49.1646</ele>
        <time>2014-06-24T12:19:26Z</time>
      </trkpt>
      <trkpt lat="59.9560981" lon="17.715888">
        <ele>48.684</ele>
        <time>2014-06-24T12:19:27Z</time>
      </trkpt>
      <trkpt lat="59.9560809" lon="17.7158724">
        <ele>48.2034</ele>
        <time>2014-06-24T12:19:28Z</time>
      </trkpt>
      <trkpt lat="59.9560779" lon="17.7158636">
        <ele>48.2034</ele>
        <time>2014-06-24T12:19:29Z</time>
      </trkpt>
      <trkpt lat="59.9560816" lon="17.7158544">
        <ele>47.7225</ele>
        <time>2014-06-24T12:19:30Z</time>
      </trkpt>
      <trkpt lat="59.9560762" lon="17.7158427">
        <ele>47.7225</ele>
        <time>2014-06-24T12:19:31Z</time>
      </trkpt>
      <trkpt lat="59.9560582" lon="17.7158398">
        <ele>47.7225</ele>
        <time>2014-06-24T12:19:32Z</time>
      </trkpt>
      <trkpt lat="59.9560422" lon="17.7158289">
        <ele>47.7225</ele>
        <time>2014-06-24T12:19:33Z</time>
      </trkpt>
      <trkpt lat="59.9560375" lon="17.7158152">
        <ele>47.2418</ele>
        <time>2014-06-24T12:19:34Z</time>
      </trkpt>
      <trkpt lat="59.9560306" lon="17.7158034">
        <ele>46.7612</ele>
        <time>2014-06-24T12:19:35Z</time>
      </trkpt>
      <trkpt lat="59.9560203" lon="17.715789">
        <ele>46.7612</ele>
        <time>2014-06-24T12:19:36Z</time>
      </trkpt>
      <trkpt lat="59.9560145" lon="17.7157766">
        <ele>46.2806</ele>
        <time>2014-06-24T12:19:37Z</time>
      </trkpt>
      <trkpt lat="59.95601" lon="17.7157642">
        <ele>46.2806</ele>
        <time>2014-06-24T12:19:38Z</time>
      </trkpt>
      <trkpt lat="59.9560079" lon="17.715756">
        <ele>45.7999</ele>
        <time>2014-06-24T12:19:39Z</time>
      </trkpt>
      <trkpt lat="59.9560062" lon="17.7157398">
        <ele>45.3192</ele>
        <time>2014-06-24T12:19:40Z</time>
      </trkpt>
      <trkpt lat="59.956" lon="17.7157108">
        <ele>45.3192</ele>
        <time>2014-06-24T12:19:41Z</time>
      </trkpt>
      <trkpt lat="59.9559913" lon="17.7156868">
        <ele>45.3192</ele>
        <time>2014-06-24T12:19:42Z</time>
      </trkpt>
      <trkpt lat="59.9559813" lon="17.7156697">
        <ele>45.3192</ele>
        <time>2014-06-24T12:19:43Z</time>
      </trkpt>
      <trkpt lat="59.955968" lon="17.7156586">
        <ele>44.8386</ele>
        <time>2014-06-24T12:19:44Z</time>
      </trkpt>
      <trkpt lat="59.9559587" lon="17.715637">
        <ele>44.8386</ele>
        <time>2014-06-24T12:19:45Z</time>
      </trkpt>
      <trkpt lat="59.9559497" lon="17.715621">
        <ele>44.8386</ele>
        <time>2014-06-24T12:19:46Z</time>
      </trkpt>
      <trkpt lat="59.9559404" lon="17.7156018">
        <ele>44.358</ele>
        <time>2014-06-24T12:19:47Z</time>
      </trkpt>
      <trkpt lat="59.9559338" lon="17.7155777">
        <ele>44.8386</ele>
        <time>2014-06-24T12:19:48Z</time>
      </trkpt>
      <trkpt lat="59.955924" lon="17.7155284">
        <ele>45.7999</ele>
        <time>2014-06-24T12:19:49Z</time>
      </trkpt>
      <trkpt lat="59.9559136" lon="17.7154829">
        <ele>46.7612</ele>
        <time>2014-06-24T12:19:50Z</time>
      </trkpt>
      <trkpt lat="59.9558998" lon="17.7154512">
        <ele>47.7225</ele>
        <time>2014-06-24T12:19:51Z</time>
      </trkpt>
      <trkpt lat="59.955887" lon="17.7154163">
        <ele>48.2034</ele>
        <time>2014-06-24T12:19:52Z</time>
      </trkpt>
      <trkpt lat="59.9558774" lon="17.7153798">
        <ele>49.1646</ele>
        <time>2014-06-24T12:19:53Z</time>
      </trkpt>
      <trkpt lat="59.9558699" lon="17.7153425">
        <ele>49.6453</ele>
        <time>2014-06-24T12:19:54Z</time>
      </trkpt>
      <trkpt lat="59.9558612" lon="17.7153113">
        <ele>50.126</ele>
        <time>2014-06-24T12:19:55Z</time>
      </trkpt>
      <trkpt lat="59.9558483" lon="17.7152848">
        <ele>50.6066</ele>
        <time>2014-06-24T12:19:56Z</time>
      </trkpt>
      <trkpt lat="59.9558292" lon="17.7152538">
        <ele>51.0872</ele>
        <time>2014-06-24T12:19:57Z</time>
      </trkpt>
      <trkpt lat="59.95581" lon="17.7152271">
        <ele>51.5679</ele>
        <time>2014-06-24T12:19:58Z</time>
      </trkpt>
      <trkpt lat="59.955799" lon="17.7152025">
        <ele>51.5679</ele>
        <time>2014-06-24T12:19:59Z</time>
      </trkpt>
      <trkpt lat="59.9557919" lon="17.7151766">
        <ele>52.0486</ele>
        <time>2014-06-24T12:20:00Z</time>
      </trkpt>
      <trkpt lat="59.9557831" lon="17.7151508">
        <ele>52.0486</ele>
        <time>2014-06-24T12:20:01Z</time>
      </trkpt>
      <trkpt lat="59.9557749" lon="17.7151226">
        <ele>52.5292</ele>
        <time>2014-06-24T12:20:02Z</time>
      </trkpt>
      <trkpt lat="59.9557661" lon="17.7150967">
        <ele>52.5292</ele>
        <time>2014-06-24T12:20:03Z</time>
      </trkpt>
      <trkpt lat="59.9557567" lon="17.7150705">
        <ele>52.5292</ele>
        <time>2014-06-24T12:20:04Z</time>
      </trkpt>
      <trkpt lat="59.9557475" lon="17.7150477">
        <ele>52.5292</ele>
        <time>2014-06-24T12:20:05Z</time>
      </trkpt>
      <trkpt lat="59.9557412" lon="17.715018">
        <ele>53.0098</ele>
        <time>2014-06-24T12:20:06Z</time>
      </trkpt>
      <trkpt lat="59.9557353" lon="17.7149947">
        <ele>53.0098</ele>
        <time>2014-06-24T12:20:07Z</time>
      </trkpt>
      <trkpt lat="59.9557278" lon="17.7149745">
        <ele>52.5292</ele>
        <time>2014-06-24T12:20:08Z</time>
      </trkpt>
      <trkpt lat="59.9557178" lon="17.7149589">
        <ele>52.5292</ele>
        <time>2014-06-24T12:20:09Z</time>
      </trkpt>
      <trkpt lat="59.9557064" lon="17.7149383">
        <ele>52.5292</ele>
        <time>2014-06-24T12:20:10Z</time>
      </trkpt>
      <trkpt lat="59.9556972" lon="17.7149157">
        <ele>52.5292</ele>
        <time>2014-06-24T12:20:11Z</time>
      </trkpt>
      <trkpt lat="59.9556871" lon="17.7148934">
        <ele>52.5292</ele>
        <time>2014-06-24T12:20:12Z</time>
      </trkpt>
      <trkpt lat="59.9556759" lon="17.7148771">
        <ele>52.5292</ele>
        <time>2014-06-24T12:20:13Z</time>
      </trkpt>
      <trkpt lat="59.9556594" lon="17.7148758">
        <ele>52.5292</ele>
        <time>2014-06-24T12:20:14Z</time>
      </trkpt>
      <trkpt lat="59.9556437" lon="17.7148815">
        <ele>51.5679</ele>
        <time>2014-06-24T12:20:15Z</time>
      </trkpt>
      <trkpt lat="59.9556287" lon="17.7148912">
        <ele>50.6066</ele>
        <time>2014-06-24T12:20:16Z</time>
      </trkpt>
      <trkpt lat="59.9556137" lon="17.7148991">
        <ele>50.126</ele>
        <time>2014-06-24T12:20:17Z</time>
      </trkpt>
      <trkpt lat="59.9556002" lon="17.7149212">
        <ele>50.126</ele>
        <time>2014-06-24T12:20:18Z</time>
      </trkpt>
      <trkpt lat="59.9555884" lon="17.7149364">
        <ele>49.6453</ele>
        <time>2014-06-24T12:20:19Z</time>
      </trkpt>
      <trkpt lat="59.9555734" lon="17.7149427">
        <ele>48.684</ele>
        <time>2014-06-24T12:20:20Z</time>
      </trkpt>
      <trkpt lat="59.9555572" lon="17.7149478">
        <ele>48.2034</ele>
        <time>2014-06-24T12:20:21Z</time>
      </trkpt>
      <trkpt lat="59.9555434" lon="17.7149489">
        <ele>48.2034</ele>
        <time>2014-06-24T12:20:22Z</time>
      </trkpt>
      <trkpt lat="59.9555302" lon="17.7149558">
        <ele>47.7225</ele>
        <time>2014-06-24T12:20:23Z</time>
      </trkpt>
    </trkseg>
  </trk>
</gpx>